<?xml version="1.0" encoding="UTF-8"?>
<gpx version="1.1" creator="https://www.youtrack.es" xsi:schemaLocation="http://www.topografix.com/GPX/1/1 http://www.topografix.com/GPX/1/1/gpx.xsd http://www.garmin.com/xmlschemas/GpxExtensions/v3 http://www.garmin.com/xmlschemas/GpxExtensionsv3.xsd http://www.garmin.com/xmlschemas/TrackPointExtension/v1 http://www.garmin.com/xmlschemas/TrackPointExtensionv1.xsd" xmlns:gpxtpx="http://www.garmin.com/xmlschemas/TrackPointExtension/v1" xmlns:gpxx="http://www.garmin.com/xmlschemas/GpxExtensions/v3" xmlns:xsi="http://www.w3.org/2001/XMLSchema-instance">
  <metadata>
    <link href="https://www.youtrack.es">
      <text>YouTrack.es</text>
    </link>
    <time>2026-05-08T04:45:20Z</time>
  </metadata>
  <trk>
    <src>https://www.youtrack.es</src>
    <link href="https://www.youtrack.es/ruta/19178-1-ok">
      <text>YouTrack.es</text>
    </link>
    <trkseg>
      <trkpt lat="41.623719" lon="2.401395">
        <ele>331.300000</ele>
        <time>2021-01-30T10:36:26Z</time>
      </trkpt>
      <trkpt lat="41.623709" lon="2.401410">
        <ele>331.100000</ele>
        <time>2021-01-30T10:36:27Z</time>
      </trkpt>
      <trkpt lat="41.623705" lon="2.401446">
        <ele>330.900000</ele>
        <time>2021-01-30T10:36:30Z</time>
      </trkpt>
      <trkpt lat="41.623716" lon="2.401485">
        <ele>330.600000</ele>
        <time>2021-01-30T10:36:32Z</time>
      </trkpt>
      <trkpt lat="41.623734" lon="2.401557">
        <ele>329.900000</ele>
        <time>2021-01-30T10:36:34Z</time>
      </trkpt>
      <trkpt lat="41.623738" lon="2.401584">
        <ele>329.700000</ele>
        <time>2021-01-30T10:36:36Z</time>
      </trkpt>
      <trkpt lat="41.623771" lon="2.401775">
        <ele>328.000000</ele>
        <time>2021-01-30T10:36:37Z</time>
      </trkpt>
      <trkpt lat="41.623774" lon="2.401832">
        <ele>327.500000</ele>
        <time>2021-01-30T10:36:39Z</time>
      </trkpt>
      <trkpt lat="41.623838" lon="2.401923">
        <ele>326.300000</ele>
        <time>2021-01-30T10:36:42Z</time>
      </trkpt>
      <trkpt lat="41.623869" lon="2.401981">
        <ele>325.500000</ele>
        <time>2021-01-30T10:36:47Z</time>
      </trkpt>
      <trkpt lat="41.623888" lon="2.402063">
        <ele>324.700000</ele>
        <time>2021-01-30T10:36:53Z</time>
      </trkpt>
      <trkpt lat="41.623911" lon="2.402117">
        <ele>324.100000</ele>
        <time>2021-01-30T10:36:55Z</time>
      </trkpt>
      <trkpt lat="41.623993" lon="2.402348">
        <ele>322.100000</ele>
        <time>2021-01-30T10:36:57Z</time>
      </trkpt>
      <trkpt lat="41.624018" lon="2.402423">
        <ele>321.600000</ele>
        <time>2021-01-30T10:36:59Z</time>
      </trkpt>
      <trkpt lat="41.624083" lon="2.402633">
        <ele>320.300000</ele>
        <time>2021-01-30T10:37:00Z</time>
      </trkpt>
      <trkpt lat="41.624091" lon="2.402710">
        <ele>319.900000</ele>
        <time>2021-01-30T10:37:02Z</time>
      </trkpt>
      <trkpt lat="41.624105" lon="2.402749">
        <ele>319.700000</ele>
        <time>2021-01-30T10:37:03Z</time>
      </trkpt>
      <trkpt lat="41.624144" lon="2.402965">
        <ele>318.800000</ele>
        <time>2021-01-30T10:37:05Z</time>
      </trkpt>
      <trkpt lat="41.624201" lon="2.403135">
        <ele>318.200000</ele>
        <time>2021-01-30T10:37:09Z</time>
      </trkpt>
      <trkpt lat="41.624255" lon="2.403326">
        <ele>317.700000</ele>
        <time>2021-01-30T10:37:11Z</time>
      </trkpt>
      <trkpt lat="41.624263" lon="2.403349">
        <ele>317.600000</ele>
        <time>2021-01-30T10:37:13Z</time>
      </trkpt>
      <trkpt lat="41.624264" lon="2.403378">
        <ele>317.500000</ele>
        <time>2021-01-30T10:37:17Z</time>
      </trkpt>
      <trkpt lat="41.624273" lon="2.403544">
        <ele>317.000000</ele>
        <time>2021-01-30T10:37:22Z</time>
      </trkpt>
      <trkpt lat="41.624273" lon="2.403544">
        <ele>317.000000</ele>
        <time>2021-01-30T10:37:25Z</time>
      </trkpt>
      <trkpt lat="41.624273" lon="2.403553">
        <ele>317.000000</ele>
        <time>2021-01-30T10:37:31Z</time>
      </trkpt>
      <trkpt lat="41.624287" lon="2.403585">
        <ele>316.800000</ele>
        <time>2021-01-30T10:37:35Z</time>
      </trkpt>
      <trkpt lat="41.624299" lon="2.403645">
        <ele>316.500000</ele>
        <time>2021-01-30T10:37:38Z</time>
      </trkpt>
      <trkpt lat="41.624279" lon="2.403799">
        <ele>316.200000</ele>
        <time>2021-01-30T10:37:42Z</time>
      </trkpt>
      <trkpt lat="41.624262" lon="2.403937">
        <ele>316.200000</ele>
        <time>2021-01-30T10:37:44Z</time>
      </trkpt>
      <trkpt lat="41.624329" lon="2.404114">
        <ele>317.200000</ele>
        <time>2021-01-30T10:37:45Z</time>
      </trkpt>
      <trkpt lat="41.624360" lon="2.404167">
        <ele>317.600000</ele>
        <time>2021-01-30T10:37:51Z</time>
      </trkpt>
      <trkpt lat="41.624389" lon="2.404204">
        <ele>317.900000</ele>
        <time>2021-01-30T10:37:53Z</time>
      </trkpt>
      <trkpt lat="41.624530" lon="2.404332">
        <ele>319.200000</ele>
        <time>2021-01-30T10:37:57Z</time>
      </trkpt>
      <trkpt lat="41.624927" lon="2.404620">
        <ele>322.500000</ele>
        <time>2021-01-30T10:37:59Z</time>
      </trkpt>
      <trkpt lat="41.625300" lon="2.404922">
        <ele>326.300000</ele>
        <time>2021-01-30T10:38:02Z</time>
      </trkpt>
      <trkpt lat="41.625458" lon="2.405058">
        <ele>328.200000</ele>
        <time>2021-01-30T10:38:07Z</time>
      </trkpt>
      <trkpt lat="41.625548" lon="2.405156">
        <ele>329.300000</ele>
        <time>2021-01-30T10:38:08Z</time>
      </trkpt>
      <trkpt lat="41.625614" lon="2.405258">
        <ele>330.300000</ele>
        <time>2021-01-30T10:38:12Z</time>
      </trkpt>
      <trkpt lat="41.625685" lon="2.405326">
        <ele>331.700000</ele>
        <time>2021-01-30T10:38:18Z</time>
      </trkpt>
      <trkpt lat="41.625783" lon="2.405424">
        <ele>333.300000</ele>
        <time>2021-01-30T10:38:24Z</time>
      </trkpt>
      <trkpt lat="41.625825" lon="2.405495">
        <ele>334.100000</ele>
        <time>2021-01-30T10:38:29Z</time>
      </trkpt>
      <trkpt lat="41.625838" lon="2.405532">
        <ele>334.500000</ele>
        <time>2021-01-30T10:38:35Z</time>
      </trkpt>
      <trkpt lat="41.625858" lon="2.405641">
        <ele>335.500000</ele>
        <time>2021-01-30T10:38:41Z</time>
      </trkpt>
      <trkpt lat="41.625862" lon="2.405761">
        <ele>336.600000</ele>
        <time>2021-01-30T10:38:44Z</time>
      </trkpt>
      <trkpt lat="41.625878" lon="2.406074">
        <ele>340.300000</ele>
        <time>2021-01-30T10:38:45Z</time>
      </trkpt>
      <trkpt lat="41.625871" lon="2.406197">
        <ele>341.900000</ele>
        <time>2021-01-30T10:38:57Z</time>
      </trkpt>
      <trkpt lat="41.625869" lon="2.406235">
        <ele>342.300000</ele>
        <time>2021-01-30T10:39:00Z</time>
      </trkpt>
      <trkpt lat="41.625869" lon="2.406235">
        <ele>342.300000</ele>
        <time>2021-01-30T10:39:06Z</time>
      </trkpt>
      <trkpt lat="41.625871" lon="2.406239">
        <ele>342.400000</ele>
        <time>2021-01-30T10:39:08Z</time>
      </trkpt>
      <trkpt lat="41.625871" lon="2.406437">
        <ele>344.900000</ele>
        <time>2021-01-30T10:39:10Z</time>
      </trkpt>
      <trkpt lat="41.625854" lon="2.406644">
        <ele>347.500000</ele>
        <time>2021-01-30T10:39:11Z</time>
      </trkpt>
      <trkpt lat="41.625808" lon="2.406758">
        <ele>349.400000</ele>
        <time>2021-01-30T10:39:13Z</time>
      </trkpt>
      <trkpt lat="41.625826" lon="2.406921">
        <ele>352.000000</ele>
        <time>2021-01-30T10:39:16Z</time>
      </trkpt>
      <trkpt lat="41.625840" lon="2.407022">
        <ele>353.800000</ele>
        <time>2021-01-30T10:39:18Z</time>
      </trkpt>
      <trkpt lat="41.625856" lon="2.407108">
        <ele>355.400000</ele>
        <time>2021-01-30T10:39:20Z</time>
      </trkpt>
      <trkpt lat="41.625861" lon="2.407121">
        <ele>355.700000</ele>
        <time>2021-01-30T10:39:22Z</time>
      </trkpt>
      <trkpt lat="41.625908" lon="2.407254">
        <ele>358.300000</ele>
        <time>2021-01-30T10:39:25Z</time>
      </trkpt>
      <trkpt lat="41.625920" lon="2.407348">
        <ele>359.800000</ele>
        <time>2021-01-30T10:39:31Z</time>
      </trkpt>
      <trkpt lat="41.625943" lon="2.407413">
        <ele>361.000000</ele>
        <time>2021-01-30T10:39:38Z</time>
      </trkpt>
      <trkpt lat="41.625987" lon="2.407608">
        <ele>363.800000</ele>
        <time>2021-01-30T10:39:41Z</time>
      </trkpt>
      <trkpt lat="41.625987" lon="2.407711">
        <ele>365.100000</ele>
        <time>2021-01-30T10:39:42Z</time>
      </trkpt>
      <trkpt lat="41.625961" lon="2.407994">
        <ele>369.000000</ele>
        <time>2021-01-30T10:39:43Z</time>
      </trkpt>
      <trkpt lat="41.625970" lon="2.408042">
        <ele>369.600000</ele>
        <time>2021-01-30T10:39:46Z</time>
      </trkpt>
      <trkpt lat="41.626026" lon="2.408107">
        <ele>371.000000</ele>
        <time>2021-01-30T10:39:49Z</time>
      </trkpt>
      <trkpt lat="41.626140" lon="2.408228">
        <ele>373.300000</ele>
        <time>2021-01-30T10:39:53Z</time>
      </trkpt>
      <trkpt lat="41.626170" lon="2.408280">
        <ele>374.100000</ele>
        <time>2021-01-30T10:39:55Z</time>
      </trkpt>
      <trkpt lat="41.626224" lon="2.408147">
        <ele>373.700000</ele>
        <time>2021-01-30T10:39:57Z</time>
      </trkpt>
      <trkpt lat="41.626247" lon="2.407957">
        <ele>373.000000</ele>
        <time>2021-01-30T10:39:59Z</time>
      </trkpt>
      <trkpt lat="41.626271" lon="2.407899">
        <ele>372.800000</ele>
        <time>2021-01-30T10:40:00Z</time>
      </trkpt>
      <trkpt lat="41.626332" lon="2.407961">
        <ele>372.400000</ele>
        <time>2021-01-30T10:40:38Z</time>
      </trkpt>
      <trkpt lat="41.626310" lon="2.408112">
        <ele>373.200000</ele>
        <time>2021-01-30T10:40:39Z</time>
      </trkpt>
      <trkpt lat="41.626314" lon="2.408218">
        <ele>373.700000</ele>
        <time>2021-01-30T10:40:40Z</time>
      </trkpt>
      <trkpt lat="41.626322" lon="2.408337">
        <ele>374.100000</ele>
        <time>2021-01-30T10:40:47Z</time>
      </trkpt>
      <trkpt lat="41.626315" lon="2.408529">
        <ele>373.100000</ele>
        <time>2021-01-30T10:40:53Z</time>
      </trkpt>
      <trkpt lat="41.626306" lon="2.408631">
        <ele>372.500000</ele>
        <time>2021-01-30T10:40:59Z</time>
      </trkpt>
      <trkpt lat="41.626290" lon="2.408691">
        <ele>372.200000</ele>
        <time>2021-01-30T10:41:00Z</time>
      </trkpt>
      <trkpt lat="41.626278" lon="2.408798">
        <ele>371.600000</ele>
        <time>2021-01-30T10:41:02Z</time>
      </trkpt>
      <trkpt lat="41.626266" lon="2.408838">
        <ele>371.300000</ele>
        <time>2021-01-30T10:41:07Z</time>
      </trkpt>
      <trkpt lat="41.626229" lon="2.408941">
        <ele>370.700000</ele>
        <time>2021-01-30T10:41:09Z</time>
      </trkpt>
      <trkpt lat="41.626177" lon="2.409033">
        <ele>370.100000</ele>
        <time>2021-01-30T10:41:16Z</time>
      </trkpt>
      <trkpt lat="41.626115" lon="2.409130">
        <ele>369.300000</ele>
        <time>2021-01-30T10:41:18Z</time>
      </trkpt>
      <trkpt lat="41.625945" lon="2.409394">
        <ele>370.300000</ele>
        <time>2021-01-30T10:41:21Z</time>
      </trkpt>
      <trkpt lat="41.625833" lon="2.409575">
        <ele>370.100000</ele>
        <time>2021-01-30T10:41:24Z</time>
      </trkpt>
      <trkpt lat="41.625784" lon="2.409719">
        <ele>370.700000</ele>
        <time>2021-01-30T10:41:28Z</time>
      </trkpt>
      <trkpt lat="41.625777" lon="2.409866">
        <ele>371.600000</ele>
        <time>2021-01-30T10:41:30Z</time>
      </trkpt>
      <trkpt lat="41.625782" lon="2.409932">
        <ele>372.300000</ele>
        <time>2021-01-30T10:41:36Z</time>
      </trkpt>
      <trkpt lat="41.625807" lon="2.410050">
        <ele>373.300000</ele>
        <time>2021-01-30T10:41:37Z</time>
      </trkpt>
      <trkpt lat="41.625836" lon="2.410166">
        <ele>373.700000</ele>
        <time>2021-01-30T10:41:40Z</time>
      </trkpt>
      <trkpt lat="41.625867" lon="2.410281">
        <ele>374.300000</ele>
        <time>2021-01-30T10:41:42Z</time>
      </trkpt>
      <trkpt lat="41.625941" lon="2.410424">
        <ele>375.500000</ele>
        <time>2021-01-30T10:41:44Z</time>
      </trkpt>
      <trkpt lat="41.625961" lon="2.410451">
        <ele>375.700000</ele>
        <time>2021-01-30T10:41:45Z</time>
      </trkpt>
      <trkpt lat="41.626067" lon="2.410517">
        <ele>377.100000</ele>
        <time>2021-01-30T10:41:52Z</time>
      </trkpt>
      <trkpt lat="41.626094" lon="2.410579">
        <ele>377.400000</ele>
        <time>2021-01-30T10:42:00Z</time>
      </trkpt>
      <trkpt lat="41.626141" lon="2.410634">
        <ele>377.700000</ele>
        <time>2021-01-30T10:42:02Z</time>
      </trkpt>
      <trkpt lat="41.626222" lon="2.410690">
        <ele>378.200000</ele>
        <time>2021-01-30T10:42:04Z</time>
      </trkpt>
      <trkpt lat="41.626246" lon="2.410701">
        <ele>378.600000</ele>
        <time>2021-01-30T10:42:07Z</time>
      </trkpt>
      <trkpt lat="41.626272" lon="2.410705">
        <ele>379.400000</ele>
        <time>2021-01-30T10:42:14Z</time>
      </trkpt>
      <trkpt lat="41.626398" lon="2.410727">
        <ele>381.200000</ele>
        <time>2021-01-30T10:42:17Z</time>
      </trkpt>
      <trkpt lat="41.626566" lon="2.410728">
        <ele>382.700000</ele>
        <time>2021-01-30T10:42:19Z</time>
      </trkpt>
      <trkpt lat="41.626602" lon="2.410729">
        <ele>383.000000</ele>
        <time>2021-01-30T10:42:26Z</time>
      </trkpt>
      <trkpt lat="41.626698" lon="2.410837">
        <ele>382.900000</ele>
        <time>2021-01-30T10:42:34Z</time>
      </trkpt>
      <trkpt lat="41.626769" lon="2.410953">
        <ele>383.200000</ele>
        <time>2021-01-30T10:42:38Z</time>
      </trkpt>
      <trkpt lat="41.626840" lon="2.411106">
        <ele>383.500000</ele>
        <time>2021-01-30T10:42:44Z</time>
      </trkpt>
      <trkpt lat="41.626895" lon="2.411219">
        <ele>383.600000</ele>
        <time>2021-01-30T10:42:47Z</time>
      </trkpt>
      <trkpt lat="41.627034" lon="2.411487">
        <ele>383.000000</ele>
        <time>2021-01-30T10:42:49Z</time>
      </trkpt>
      <trkpt lat="41.627129" lon="2.411670">
        <ele>382.600000</ele>
        <time>2021-01-30T10:42:52Z</time>
      </trkpt>
      <trkpt lat="41.627172" lon="2.411746">
        <ele>382.400000</ele>
        <time>2021-01-30T10:42:58Z</time>
      </trkpt>
      <trkpt lat="41.627213" lon="2.411812">
        <ele>382.300000</ele>
        <time>2021-01-30T10:43:03Z</time>
      </trkpt>
      <trkpt lat="41.627270" lon="2.411898">
        <ele>382.000000</ele>
        <time>2021-01-30T10:43:05Z</time>
      </trkpt>
      <trkpt lat="41.627361" lon="2.412054">
        <ele>381.700000</ele>
        <time>2021-01-30T10:43:08Z</time>
      </trkpt>
      <trkpt lat="41.627403" lon="2.412099">
        <ele>381.600000</ele>
        <time>2021-01-30T10:43:10Z</time>
      </trkpt>
      <trkpt lat="41.627454" lon="2.412089">
        <ele>381.500000</ele>
        <time>2021-01-30T10:43:12Z</time>
      </trkpt>
      <trkpt lat="41.627505" lon="2.412021">
        <ele>381.400000</ele>
        <time>2021-01-30T10:43:16Z</time>
      </trkpt>
      <trkpt lat="41.627347" lon="2.412765">
        <ele>379.943000</ele>
        <time>2015-01-21T08:35:41Z</time>
      </trkpt>
      <trkpt lat="41.627390" lon="2.412465">
        <ele>378.989000</ele>
        <time>2015-01-21T08:35:47Z</time>
      </trkpt>
      <trkpt lat="41.627433" lon="2.412250">
        <ele>377.949000</ele>
        <time>2015-01-21T08:35:51Z</time>
      </trkpt>
      <trkpt lat="41.627648" lon="2.411542">
        <ele>379.444000</ele>
        <time>2015-01-21T08:36:06Z</time>
      </trkpt>
      <trkpt lat="41.627755" lon="2.411284">
        <ele>382.792000</ele>
        <time>2015-01-21T08:36:15Z</time>
      </trkpt>
      <trkpt lat="41.627777" lon="2.411242">
        <ele>382.764000</ele>
        <time>2015-01-21T08:36:16Z</time>
      </trkpt>
      <trkpt lat="41.628056" lon="2.411070">
        <ele>384.206000</ele>
        <time>2015-01-21T08:36:33Z</time>
      </trkpt>
      <trkpt lat="41.628120" lon="2.411027">
        <ele>382.316000</ele>
        <time>2015-01-21T08:36:37Z</time>
      </trkpt>
      <trkpt lat="41.628270" lon="2.411048">
        <ele>378.407000</ele>
        <time>2015-01-21T08:36:45Z</time>
      </trkpt>
      <trkpt lat="41.628335" lon="2.411048">
        <ele>377.988000</ele>
        <time>2015-01-21T08:36:47Z</time>
      </trkpt>
      <trkpt lat="41.628463" lon="2.411091">
        <ele>376.578000</ele>
        <time>2015-01-21T08:36:51Z</time>
      </trkpt>
      <trkpt lat="41.628613" lon="2.411156">
        <ele>372.662000</ele>
        <time>2015-01-21T08:37:02Z</time>
      </trkpt>
      <trkpt lat="41.628635" lon="2.411177">
        <ele>372.688000</ele>
        <time>2015-01-21T08:37:03Z</time>
      </trkpt>
      <trkpt lat="41.628678" lon="2.411220">
        <ele>371.288000</ele>
        <time>2015-01-21T08:37:06Z</time>
      </trkpt>
      <trkpt lat="41.628807" lon="2.411306">
        <ele>369.383000</ele>
        <time>2015-01-21T08:37:14Z</time>
      </trkpt>
      <trkpt lat="41.628892" lon="2.411284">
        <ele>365.081000</ele>
        <time>2015-01-21T08:37:20Z</time>
      </trkpt>
      <trkpt lat="41.629086" lon="2.411220">
        <ele>361.689000</ele>
        <time>2015-01-21T08:37:30Z</time>
      </trkpt>
      <trkpt lat="41.629171" lon="2.411220">
        <ele>359.206000</ele>
        <time>2015-01-21T08:37:35Z</time>
      </trkpt>
      <trkpt lat="41.629300" lon="2.411263">
        <ele>357.326000</ele>
        <time>2015-01-21T08:37:40Z</time>
      </trkpt>
      <trkpt lat="41.629407" lon="2.411284">
        <ele>353.907000</ele>
        <time>2015-01-21T08:37:47Z</time>
      </trkpt>
      <trkpt lat="41.629429" lon="2.411306">
        <ele>353.470000</ele>
        <time>2015-01-21T08:37:48Z</time>
      </trkpt>
      <trkpt lat="41.629450" lon="2.411306">
        <ele>352.920000</ele>
        <time>2015-01-21T08:37:49Z</time>
      </trkpt>
      <trkpt lat="41.629622" lon="2.411370">
        <ele>349.664000</ele>
        <time>2015-01-21T08:37:58Z</time>
      </trkpt>
      <trkpt lat="41.629643" lon="2.411392">
        <ele>349.640000</ele>
        <time>2015-01-21T08:37:59Z</time>
      </trkpt>
      <trkpt lat="41.629794" lon="2.411413">
        <ele>346.250000</ele>
        <time>2015-01-21T08:38:10Z</time>
      </trkpt>
      <trkpt lat="41.629858" lon="2.411435">
        <ele>344.355000</ele>
        <time>2015-01-21T08:38:14Z</time>
      </trkpt>
      <trkpt lat="41.629944" lon="2.411456">
        <ele>342.423000</ele>
        <time>2015-01-21T08:38:18Z</time>
      </trkpt>
      <trkpt lat="41.629965" lon="2.411478">
        <ele>341.947000</ele>
        <time>2015-01-21T08:38:19Z</time>
      </trkpt>
      <trkpt lat="41.630030" lon="2.411542">
        <ele>340.929000</ele>
        <time>2015-01-21T08:38:23Z</time>
      </trkpt>
      <trkpt lat="41.630266" lon="2.411649">
        <ele>337.621000</ele>
        <time>2015-01-21T08:38:33Z</time>
      </trkpt>
      <trkpt lat="41.630630" lon="2.411799">
        <ele>333.707000</ele>
        <time>2015-01-21T08:38:46Z</time>
      </trkpt>
      <trkpt lat="41.630652" lon="2.411821">
        <ele>333.796000</ele>
        <time>2015-01-21T08:38:47Z</time>
      </trkpt>
      <trkpt lat="41.630845" lon="2.412078">
        <ele>329.916000</ele>
        <time>2015-01-21T08:38:59Z</time>
      </trkpt>
      <trkpt lat="41.630867" lon="2.412121">
        <ele>328.980000</ele>
        <time>2015-01-21T08:39:01Z</time>
      </trkpt>
      <trkpt lat="41.630974" lon="2.412143">
        <ele>326.546000</ele>
        <time>2015-01-21T08:39:08Z</time>
      </trkpt>
      <trkpt lat="41.630995" lon="2.412100">
        <ele>326.076000</ele>
        <time>2015-01-21T08:39:10Z</time>
      </trkpt>
      <trkpt lat="41.631017" lon="2.412035">
        <ele>324.161000</ele>
        <time>2015-01-21T08:39:13Z</time>
      </trkpt>
      <trkpt lat="41.631081" lon="2.411778">
        <ele>319.899000</ele>
        <time>2015-01-21T08:39:22Z</time>
      </trkpt>
      <trkpt lat="41.631103" lon="2.411563">
        <ele>318.311000</ele>
        <time>2015-01-21T08:39:34Z</time>
      </trkpt>
      <trkpt lat="41.631145" lon="2.411542">
        <ele>318.321000</ele>
        <time>2015-01-21T08:39:54Z</time>
      </trkpt>
      <trkpt lat="41.631124" lon="2.411478">
        <ele>316.903000</ele>
        <time>2015-01-21T08:42:33Z</time>
      </trkpt>
      <trkpt lat="41.631145" lon="2.411284">
        <ele>315.007000</ele>
        <time>2015-01-21T08:42:49Z</time>
      </trkpt>
      <trkpt lat="41.631167" lon="2.411220">
        <ele>312.653000</ele>
        <time>2015-01-21T08:42:52Z</time>
      </trkpt>
      <trkpt lat="41.631274" lon="2.411177">
        <ele>309.793000</ele>
        <time>2015-01-21T08:42:59Z</time>
      </trkpt>
      <trkpt lat="41.631339" lon="2.411134">
        <ele>307.837000</ele>
        <time>2015-01-21T08:43:04Z</time>
      </trkpt>
      <trkpt lat="41.631510" lon="2.411070">
        <ele>303.973000</ele>
        <time>2015-01-21T08:43:16Z</time>
      </trkpt>
      <trkpt lat="41.631510" lon="2.411070">
        <ele>303.453000</ele>
        <time>2015-01-21T08:43:17Z</time>
      </trkpt>
      <trkpt lat="41.631618" lon="2.411091">
        <ele>301.058000</ele>
        <time>2015-01-21T08:43:24Z</time>
      </trkpt>
      <trkpt lat="41.631918" lon="2.411048">
        <ele>298.196000</ele>
        <time>2015-01-21T08:43:41Z</time>
      </trkpt>
      <trkpt lat="41.631918" lon="2.410984">
        <ele>296.775000</ele>
        <time>2015-01-21T08:43:55Z</time>
      </trkpt>
      <trkpt lat="41.631918" lon="2.410920">
        <ele>294.328000</ele>
        <time>2015-01-21T08:44:00Z</time>
      </trkpt>
      <trkpt lat="41.631961" lon="2.410727">
        <ele>292.420000</ele>
        <time>2015-01-21T08:44:09Z</time>
      </trkpt>
      <trkpt lat="41.632025" lon="2.410641">
        <ele>290.507000</ele>
        <time>2015-01-21T08:44:13Z</time>
      </trkpt>
      <trkpt lat="41.632175" lon="2.410469">
        <ele>290.099000</ele>
        <time>2015-01-21T08:44:24Z</time>
      </trkpt>
      <trkpt lat="41.632261" lon="2.410491">
        <ele>287.169000</ele>
        <time>2015-01-21T08:44:28Z</time>
      </trkpt>
      <trkpt lat="41.632283" lon="2.410491">
        <ele>285.663000</ele>
        <time>2015-01-21T08:44:30Z</time>
      </trkpt>
      <trkpt lat="41.632347" lon="2.410448">
        <ele>283.779000</ele>
        <time>2015-01-21T08:44:34Z</time>
      </trkpt>
      <trkpt lat="41.632454" lon="2.410383">
        <ele>280.849000</ele>
        <time>2015-01-21T08:44:38Z</time>
      </trkpt>
      <trkpt lat="41.632497" lon="2.410297">
        <ele>279.984000</ele>
        <time>2015-01-21T08:44:41Z</time>
      </trkpt>
      <trkpt lat="41.632583" lon="2.410190">
        <ele>278.992000</ele>
        <time>2015-01-21T08:44:45Z</time>
      </trkpt>
      <trkpt lat="41.632605" lon="2.410233">
        <ele>277.521000</ele>
        <time>2015-01-21T08:44:51Z</time>
      </trkpt>
      <trkpt lat="41.632712" lon="2.410254">
        <ele>274.141000</ele>
        <time>2015-01-21T08:44:57Z</time>
      </trkpt>
      <trkpt lat="41.632755" lon="2.410190">
        <ele>273.205000</ele>
        <time>2015-01-21T08:45:10Z</time>
      </trkpt>
      <trkpt lat="41.632776" lon="2.410147">
        <ele>272.207000</ele>
        <time>2015-01-21T08:45:13Z</time>
      </trkpt>
      <trkpt lat="41.632819" lon="2.410104">
        <ele>269.854000</ele>
        <time>2015-01-21T08:45:17Z</time>
      </trkpt>
      <trkpt lat="41.632905" lon="2.410040">
        <ele>264.534000</ele>
        <time>2015-01-21T08:45:29Z</time>
      </trkpt>
      <trkpt lat="41.632905" lon="2.409997">
        <ele>263.138000</ele>
        <time>2015-01-21T08:45:32Z</time>
      </trkpt>
      <trkpt lat="41.633055" lon="2.409954">
        <ele>260.744000</ele>
        <time>2015-01-21T08:45:51Z</time>
      </trkpt>
      <trkpt lat="41.633098" lon="2.409997">
        <ele>260.214000</ele>
        <time>2015-01-21T08:46:03Z</time>
      </trkpt>
      <trkpt lat="41.633098" lon="2.409847">
        <ele>258.379000</ele>
        <time>2015-01-21T08:46:07Z</time>
      </trkpt>
      <trkpt lat="41.633163" lon="2.409697">
        <ele>254.997000</ele>
        <time>2015-01-21T08:46:17Z</time>
      </trkpt>
      <trkpt lat="41.633205" lon="2.409697">
        <ele>251.554000</ele>
        <time>2015-01-21T08:46:24Z</time>
      </trkpt>
      <trkpt lat="41.633270" lon="2.409611">
        <ele>249.156000</ele>
        <time>2015-01-21T08:46:38Z</time>
      </trkpt>
      <trkpt lat="41.633313" lon="2.409568">
        <ele>248.211000</ele>
        <time>2015-01-21T08:46:57Z</time>
      </trkpt>
      <trkpt lat="41.633356" lon="2.409503">
        <ele>244.807000</ele>
        <time>2015-01-21T08:47:02Z</time>
      </trkpt>
      <trkpt lat="41.633377" lon="2.409482">
        <ele>240.597000</ele>
        <time>2015-01-21T08:47:05Z</time>
      </trkpt>
      <trkpt lat="41.633377" lon="2.409482">
        <ele>240.577000</ele>
        <time>2015-01-21T08:47:06Z</time>
      </trkpt>
      <trkpt lat="41.633420" lon="2.409418">
        <ele>238.551000</ele>
        <time>2015-01-21T08:47:10Z</time>
      </trkpt>
      <trkpt lat="41.633527" lon="2.409332">
        <ele>234.717000</ele>
        <time>2015-01-21T08:47:17Z</time>
      </trkpt>
      <trkpt lat="41.633677" lon="2.409246">
        <ele>231.347000</ele>
        <time>2015-01-21T08:47:24Z</time>
      </trkpt>
      <trkpt lat="41.633742" lon="2.409225">
        <ele>229.952000</ele>
        <time>2015-01-21T08:47:27Z</time>
      </trkpt>
      <trkpt lat="41.634107" lon="2.409267">
        <ele>226.570000</ele>
        <time>2015-01-21T08:47:41Z</time>
      </trkpt>
      <trkpt lat="41.634150" lon="2.409267">
        <ele>226.083000</ele>
        <time>2015-01-21T08:47:43Z</time>
      </trkpt>
      <trkpt lat="41.634278" lon="2.409289">
        <ele>223.625000</ele>
        <time>2015-01-21T08:47:48Z</time>
      </trkpt>
      <trkpt lat="41.634407" lon="2.409289">
        <ele>220.817000</ele>
        <time>2015-01-21T08:47:54Z</time>
      </trkpt>
      <trkpt lat="41.634536" lon="2.409289">
        <ele>218.807000</ele>
        <time>2015-01-21T08:48:00Z</time>
      </trkpt>
      <trkpt lat="41.634579" lon="2.409289">
        <ele>217.480000</ele>
        <time>2015-01-21T08:48:02Z</time>
      </trkpt>
      <trkpt lat="41.634901" lon="2.409139">
        <ele>214.060000</ele>
        <time>2015-01-21T08:48:18Z</time>
      </trkpt>
      <trkpt lat="41.635222" lon="2.408946">
        <ele>212.614000</ele>
        <time>2015-01-21T08:48:32Z</time>
      </trkpt>
      <trkpt lat="41.635222" lon="2.408924">
        <ele>211.620000</ele>
        <time>2015-01-21T08:48:35Z</time>
      </trkpt>
      <trkpt lat="41.635287" lon="2.408838">
        <ele>210.290000</ele>
        <time>2015-01-21T08:48:44Z</time>
      </trkpt>
      <trkpt lat="41.635416" lon="2.408752">
        <ele>206.385000</ele>
        <time>2015-01-21T08:48:53Z</time>
      </trkpt>
      <trkpt lat="41.635437" lon="2.408752">
        <ele>206.353000</ele>
        <time>2015-01-21T08:48:54Z</time>
      </trkpt>
      <trkpt lat="41.635544" lon="2.408688">
        <ele>203.021000</ele>
        <time>2015-01-21T08:49:01Z</time>
      </trkpt>
      <trkpt lat="41.635566" lon="2.408688">
        <ele>202.541000</ele>
        <time>2015-01-21T08:49:03Z</time>
      </trkpt>
      <trkpt lat="41.635566" lon="2.408624">
        <ele>201.505000</ele>
        <time>2015-01-21T08:49:05Z</time>
      </trkpt>
      <trkpt lat="41.635609" lon="2.408559">
        <ele>199.607000</ele>
        <time>2015-01-21T08:49:10Z</time>
      </trkpt>
      <trkpt lat="41.635630" lon="2.408538">
        <ele>199.684000</ele>
        <time>2015-01-21T08:49:11Z</time>
      </trkpt>
      <trkpt lat="41.635716" lon="2.408516">
        <ele>195.824000</ele>
        <time>2015-01-21T08:49:17Z</time>
      </trkpt>
      <trkpt lat="41.635737" lon="2.408495">
        <ele>195.888000</ele>
        <time>2015-01-21T08:49:18Z</time>
      </trkpt>
      <trkpt lat="41.635931" lon="2.408452">
        <ele>193.424000</ele>
        <time>2015-01-21T08:49:25Z</time>
      </trkpt>
      <trkpt lat="41.636467" lon="2.408559">
        <ele>191.424000</ele>
        <time>2015-01-21T08:49:35Z</time>
      </trkpt>
      <trkpt lat="41.636531" lon="2.408538">
        <ele>191.069000</ele>
        <time>2015-01-21T08:49:37Z</time>
      </trkpt>
      <trkpt lat="41.636660" lon="2.408516">
        <ele>189.527000</ele>
        <time>2015-01-21T08:49:42Z</time>
      </trkpt>
      <trkpt lat="41.636746" lon="2.408516">
        <ele>188.691000</ele>
        <time>2015-01-21T08:49:47Z</time>
      </trkpt>
      <trkpt lat="41.636789" lon="2.408366">
        <ele>188.681000</ele>
        <time>2015-01-21T08:49:54Z</time>
      </trkpt>
      <trkpt lat="41.636746" lon="2.408259">
        <ele>188.119000</ele>
        <time>2015-01-21T08:50:00Z</time>
      </trkpt>
      <trkpt lat="41.636840" lon="2.408330">
        <ele>187.270000</ele>
        <time>1970-01-01T01:58:38Z</time>
      </trkpt>
      <trkpt lat="41.636350" lon="2.408390">
        <ele>190.920000</ele>
        <time>1970-01-01T01:58:47Z</time>
      </trkpt>
      <trkpt lat="41.635860" lon="2.408450">
        <ele>197.870000</ele>
        <time>1970-01-01T01:58:55Z</time>
      </trkpt>
      <trkpt lat="41.635860" lon="2.408460">
        <ele>197.870000</ele>
        <time>1970-01-01T01:59:04Z</time>
      </trkpt>
      <trkpt lat="41.635480" lon="2.408795">
        <ele>205.130000</ele>
        <time>1970-01-01T01:59:12Z</time>
      </trkpt>
      <trkpt lat="41.635100" lon="2.409130">
        <ele>214.140000</ele>
        <time>1970-01-01T01:59:20Z</time>
      </trkpt>
      <trkpt lat="41.635110" lon="2.409130">
        <ele>214.140000</ele>
        <time>1970-01-01T01:59:24Z</time>
      </trkpt>
      <trkpt lat="41.634330" lon="2.409245">
        <ele>225.740000</ele>
        <time>1970-01-01T01:59:27Z</time>
      </trkpt>
      <trkpt lat="41.633550" lon="2.409360">
        <ele>247.160000</ele>
        <time>1970-01-01T01:59:33Z</time>
      </trkpt>
      <trkpt lat="41.633100" lon="2.409940">
        <ele>264.570000</ele>
        <time>1970-01-01T01:59:41Z</time>
      </trkpt>
      <trkpt lat="41.633100" lon="2.409950">
        <ele>264.570000</ele>
        <time>1970-01-01T01:59:47Z</time>
      </trkpt>
      <trkpt lat="41.632590" lon="2.410160">
        <ele>277.280000</ele>
        <time>1970-01-01T01:59:48Z</time>
      </trkpt>
      <trkpt lat="41.632600" lon="2.410160">
        <ele>276.700000</ele>
        <time>1970-01-01T01:59:57Z</time>
      </trkpt>
      <trkpt lat="41.632225" lon="2.410605">
        <ele>287.310000</ele>
        <time>1970-01-01T02:00:04Z</time>
      </trkpt>
      <trkpt lat="41.631850" lon="2.411050">
        <ele>298.780000</ele>
        <time>1970-01-01T02:00:15Z</time>
      </trkpt>
      <trkpt lat="41.631160" lon="2.411260">
        <ele>314.120000</ele>
        <time>1970-01-01T02:00:22Z</time>
      </trkpt>
      <trkpt lat="41.630980" lon="2.412010">
        <ele>318.690000</ele>
        <time>1970-01-01T02:00:30Z</time>
      </trkpt>
      <trkpt lat="41.630670" lon="2.411590">
        <ele>326.550000</ele>
        <time>1970-01-01T02:00:37Z</time>
      </trkpt>
      <trkpt lat="41.630130" lon="2.411570">
        <ele>337.280000</ele>
        <time>1970-01-01T02:00:45Z</time>
      </trkpt>
      <trkpt lat="41.630140" lon="2.411570">
        <ele>337.280000</ele>
        <time>1970-01-01T02:00:52Z</time>
      </trkpt>
      <trkpt lat="41.629500" lon="2.411450">
        <ele>348.310000</ele>
        <time>1970-01-01T02:01:00Z</time>
      </trkpt>
      <trkpt lat="41.628860" lon="2.411330">
        <ele>359.700000</ele>
        <time>1970-01-01T02:01:08Z</time>
      </trkpt>
      <trkpt lat="41.628160" lon="2.411140">
        <ele>374.080000</ele>
        <time>1970-01-01T02:01:16Z</time>
      </trkpt>
      <trkpt lat="41.628170" lon="2.411140">
        <ele>374.080000</ele>
        <time>1970-01-01T02:01:20Z</time>
      </trkpt>
      <trkpt lat="41.627670" lon="2.411340">
        <ele>381.810000</ele>
        <time>1970-01-01T02:01:23Z</time>
      </trkpt>
      <trkpt lat="41.627510" lon="2.411950">
        <ele>380.730000</ele>
        <time>1970-01-01T02:01:28Z</time>
      </trkpt>
      <trkpt lat="41.627350" lon="2.412560">
        <ele>381.780000</ele>
        <time>1970-01-01T02:01:30Z</time>
      </trkpt>
      <trkpt lat="41.627505" lon="2.412021">
        <ele>381.400000</ele>
        <time>2021-01-30T10:35:24Z</time>
      </trkpt>
      <trkpt lat="41.627454" lon="2.412089">
        <ele>381.500000</ele>
        <time>2021-01-30T10:35:27Z</time>
      </trkpt>
      <trkpt lat="41.627403" lon="2.412099">
        <ele>381.600000</ele>
        <time>2021-01-30T10:35:29Z</time>
      </trkpt>
      <trkpt lat="41.627361" lon="2.412054">
        <ele>381.700000</ele>
        <time>2021-01-30T10:35:31Z</time>
      </trkpt>
      <trkpt lat="41.627270" lon="2.411898">
        <ele>382.000000</ele>
        <time>2021-01-30T10:35:36Z</time>
      </trkpt>
      <trkpt lat="41.627213" lon="2.411812">
        <ele>382.300000</ele>
        <time>2021-01-30T10:35:39Z</time>
      </trkpt>
      <trkpt lat="41.627172" lon="2.411746">
        <ele>382.400000</ele>
        <time>2021-01-30T10:35:41Z</time>
      </trkpt>
      <trkpt lat="41.627129" lon="2.411670">
        <ele>382.600000</ele>
        <time>2021-01-30T10:35:43Z</time>
      </trkpt>
      <trkpt lat="41.627034" lon="2.411487">
        <ele>383.000000</ele>
        <time>2021-01-30T10:35:47Z</time>
      </trkpt>
      <trkpt lat="41.626895" lon="2.411219">
        <ele>383.600000</ele>
        <time>2021-01-30T10:35:52Z</time>
      </trkpt>
      <trkpt lat="41.626840" lon="2.411106">
        <ele>383.500000</ele>
        <time>2021-01-30T10:35:54Z</time>
      </trkpt>
      <trkpt lat="41.626769" lon="2.410953">
        <ele>383.200000</ele>
        <time>2021-01-30T10:35:57Z</time>
      </trkpt>
      <trkpt lat="41.626698" lon="2.410837">
        <ele>382.900000</ele>
        <time>2021-01-30T10:36:00Z</time>
      </trkpt>
      <trkpt lat="41.626602" lon="2.410729">
        <ele>383.000000</ele>
        <time>2021-01-30T10:36:04Z</time>
      </trkpt>
      <trkpt lat="41.626566" lon="2.410728">
        <ele>382.700000</ele>
        <time>2021-01-30T10:36:05Z</time>
      </trkpt>
      <trkpt lat="41.626398" lon="2.410727">
        <ele>381.200000</ele>
        <time>2021-01-30T10:36:09Z</time>
      </trkpt>
      <trkpt lat="41.626272" lon="2.410705">
        <ele>379.400000</ele>
        <time>2021-01-30T10:36:13Z</time>
      </trkpt>
      <trkpt lat="41.626246" lon="2.410701">
        <ele>378.600000</ele>
        <time>2021-01-30T10:36:14Z</time>
      </trkpt>
      <trkpt lat="41.626222" lon="2.410690">
        <ele>378.200000</ele>
        <time>2021-01-30T10:36:15Z</time>
      </trkpt>
      <trkpt lat="41.626141" lon="2.410634">
        <ele>377.700000</ele>
        <time>2021-01-30T10:36:18Z</time>
      </trkpt>
      <trkpt lat="41.626094" lon="2.410579">
        <ele>377.400000</ele>
        <time>2021-01-30T10:36:20Z</time>
      </trkpt>
      <trkpt lat="41.626067" lon="2.410517">
        <ele>377.100000</ele>
        <time>2021-01-30T10:36:22Z</time>
      </trkpt>
      <trkpt lat="41.625961" lon="2.410451">
        <ele>375.700000</ele>
        <time>2021-01-30T10:36:26Z</time>
      </trkpt>
      <trkpt lat="41.625941" lon="2.410424">
        <ele>375.500000</ele>
        <time>2021-01-30T10:36:27Z</time>
      </trkpt>
      <trkpt lat="41.625867" lon="2.410281">
        <ele>374.300000</ele>
        <time>2021-01-30T10:36:30Z</time>
      </trkpt>
      <trkpt lat="41.625836" lon="2.410166">
        <ele>373.700000</ele>
        <time>2021-01-30T10:36:32Z</time>
      </trkpt>
      <trkpt lat="41.625807" lon="2.410050">
        <ele>373.300000</ele>
        <time>2021-01-30T10:36:34Z</time>
      </trkpt>
      <trkpt lat="41.625782" lon="2.409932">
        <ele>372.300000</ele>
        <time>2021-01-30T10:36:36Z</time>
      </trkpt>
      <trkpt lat="41.625777" lon="2.409866">
        <ele>371.600000</ele>
        <time>2021-01-30T10:36:37Z</time>
      </trkpt>
      <trkpt lat="41.625784" lon="2.409719">
        <ele>370.700000</ele>
        <time>2021-01-30T10:36:39Z</time>
      </trkpt>
      <trkpt lat="41.625833" lon="2.409575">
        <ele>370.100000</ele>
        <time>2021-01-30T10:36:42Z</time>
      </trkpt>
      <trkpt lat="41.625945" lon="2.409394">
        <ele>370.300000</ele>
        <time>2021-01-30T10:36:47Z</time>
      </trkpt>
      <trkpt lat="41.626115" lon="2.409130">
        <ele>369.300000</ele>
        <time>2021-01-30T10:36:53Z</time>
      </trkpt>
      <trkpt lat="41.626177" lon="2.409033">
        <ele>370.100000</ele>
        <time>2021-01-30T10:36:55Z</time>
      </trkpt>
      <trkpt lat="41.626229" lon="2.408941">
        <ele>370.700000</ele>
        <time>2021-01-30T10:36:57Z</time>
      </trkpt>
      <trkpt lat="41.626266" lon="2.408838">
        <ele>371.300000</ele>
        <time>2021-01-30T10:36:59Z</time>
      </trkpt>
      <trkpt lat="41.626278" lon="2.408798">
        <ele>371.600000</ele>
        <time>2021-01-30T10:37:00Z</time>
      </trkpt>
      <trkpt lat="41.626290" lon="2.408691">
        <ele>372.200000</ele>
        <time>2021-01-30T10:37:02Z</time>
      </trkpt>
      <trkpt lat="41.626306" lon="2.408631">
        <ele>372.500000</ele>
        <time>2021-01-30T10:37:03Z</time>
      </trkpt>
      <trkpt lat="41.626315" lon="2.408529">
        <ele>373.100000</ele>
        <time>2021-01-30T10:37:05Z</time>
      </trkpt>
      <trkpt lat="41.626322" lon="2.408337">
        <ele>374.100000</ele>
        <time>2021-01-30T10:37:09Z</time>
      </trkpt>
      <trkpt lat="41.626314" lon="2.408218">
        <ele>373.700000</ele>
        <time>2021-01-30T10:37:11Z</time>
      </trkpt>
      <trkpt lat="41.626310" lon="2.408112">
        <ele>373.200000</ele>
        <time>2021-01-30T10:37:13Z</time>
      </trkpt>
      <trkpt lat="41.626332" lon="2.407961">
        <ele>372.400000</ele>
        <time>2021-01-30T10:37:17Z</time>
      </trkpt>
      <trkpt lat="41.626271" lon="2.407899">
        <ele>372.800000</ele>
        <time>2021-01-30T10:37:22Z</time>
      </trkpt>
      <trkpt lat="41.626247" lon="2.407957">
        <ele>373.000000</ele>
        <time>2021-01-30T10:37:25Z</time>
      </trkpt>
      <trkpt lat="41.626224" lon="2.408147">
        <ele>373.700000</ele>
        <time>2021-01-30T10:37:31Z</time>
      </trkpt>
      <trkpt lat="41.626170" lon="2.408280">
        <ele>374.100000</ele>
        <time>2021-01-30T10:37:35Z</time>
      </trkpt>
      <trkpt lat="41.626140" lon="2.408228">
        <ele>373.300000</ele>
        <time>2021-01-30T10:37:38Z</time>
      </trkpt>
      <trkpt lat="41.626026" lon="2.408107">
        <ele>371.000000</ele>
        <time>2021-01-30T10:37:42Z</time>
      </trkpt>
      <trkpt lat="41.625970" lon="2.408042">
        <ele>369.600000</ele>
        <time>2021-01-30T10:37:44Z</time>
      </trkpt>
      <trkpt lat="41.625961" lon="2.407994">
        <ele>369.000000</ele>
        <time>2021-01-30T10:37:45Z</time>
      </trkpt>
      <trkpt lat="41.625987" lon="2.407711">
        <ele>365.100000</ele>
        <time>2021-01-30T10:37:51Z</time>
      </trkpt>
      <trkpt lat="41.625987" lon="2.407608">
        <ele>363.800000</ele>
        <time>2021-01-30T10:37:53Z</time>
      </trkpt>
      <trkpt lat="41.625943" lon="2.407413">
        <ele>361.000000</ele>
        <time>2021-01-30T10:37:57Z</time>
      </trkpt>
      <trkpt lat="41.625920" lon="2.407348">
        <ele>359.800000</ele>
        <time>2021-01-30T10:37:59Z</time>
      </trkpt>
      <trkpt lat="41.625908" lon="2.407254">
        <ele>358.300000</ele>
        <time>2021-01-30T10:38:02Z</time>
      </trkpt>
      <trkpt lat="41.625861" lon="2.407121">
        <ele>355.700000</ele>
        <time>2021-01-30T10:38:07Z</time>
      </trkpt>
      <trkpt lat="41.625856" lon="2.407108">
        <ele>355.400000</ele>
        <time>2021-01-30T10:38:08Z</time>
      </trkpt>
      <trkpt lat="41.625840" lon="2.407022">
        <ele>353.800000</ele>
        <time>2021-01-30T10:38:12Z</time>
      </trkpt>
      <trkpt lat="41.625826" lon="2.406921">
        <ele>352.000000</ele>
        <time>2021-01-30T10:38:18Z</time>
      </trkpt>
      <trkpt lat="41.625808" lon="2.406758">
        <ele>349.400000</ele>
        <time>2021-01-30T10:38:24Z</time>
      </trkpt>
      <trkpt lat="41.625854" lon="2.406644">
        <ele>347.500000</ele>
        <time>2021-01-30T10:38:29Z</time>
      </trkpt>
      <trkpt lat="41.625871" lon="2.406437">
        <ele>344.900000</ele>
        <time>2021-01-30T10:38:35Z</time>
      </trkpt>
      <trkpt lat="41.625871" lon="2.406239">
        <ele>342.400000</ele>
        <time>2021-01-30T10:38:41Z</time>
      </trkpt>
      <trkpt lat="41.625869" lon="2.406235">
        <ele>342.300000</ele>
        <time>2021-01-30T10:38:44Z</time>
      </trkpt>
      <trkpt lat="41.625869" lon="2.406235">
        <ele>342.300000</ele>
        <time>2021-01-30T10:38:45Z</time>
      </trkpt>
      <trkpt lat="41.625871" lon="2.406197">
        <ele>341.900000</ele>
        <time>2021-01-30T10:38:57Z</time>
      </trkpt>
      <trkpt lat="41.625878" lon="2.406074">
        <ele>340.300000</ele>
        <time>2021-01-30T10:39:00Z</time>
      </trkpt>
      <trkpt lat="41.625862" lon="2.405761">
        <ele>336.600000</ele>
        <time>2021-01-30T10:39:06Z</time>
      </trkpt>
      <trkpt lat="41.625858" lon="2.405641">
        <ele>335.500000</ele>
        <time>2021-01-30T10:39:08Z</time>
      </trkpt>
      <trkpt lat="41.625838" lon="2.405532">
        <ele>334.500000</ele>
        <time>2021-01-30T10:39:10Z</time>
      </trkpt>
      <trkpt lat="41.625825" lon="2.405495">
        <ele>334.100000</ele>
        <time>2021-01-30T10:39:11Z</time>
      </trkpt>
      <trkpt lat="41.625783" lon="2.405424">
        <ele>333.300000</ele>
        <time>2021-01-30T10:39:13Z</time>
      </trkpt>
      <trkpt lat="41.625685" lon="2.405326">
        <ele>331.700000</ele>
        <time>2021-01-30T10:39:16Z</time>
      </trkpt>
      <trkpt lat="41.625614" lon="2.405258">
        <ele>330.300000</ele>
        <time>2021-01-30T10:39:18Z</time>
      </trkpt>
      <trkpt lat="41.625548" lon="2.405156">
        <ele>329.300000</ele>
        <time>2021-01-30T10:39:20Z</time>
      </trkpt>
      <trkpt lat="41.625458" lon="2.405058">
        <ele>328.200000</ele>
        <time>2021-01-30T10:39:22Z</time>
      </trkpt>
      <trkpt lat="41.625300" lon="2.404922">
        <ele>326.300000</ele>
        <time>2021-01-30T10:39:25Z</time>
      </trkpt>
      <trkpt lat="41.624927" lon="2.404620">
        <ele>322.500000</ele>
        <time>2021-01-30T10:39:31Z</time>
      </trkpt>
      <trkpt lat="41.624530" lon="2.404332">
        <ele>319.200000</ele>
        <time>2021-01-30T10:39:38Z</time>
      </trkpt>
      <trkpt lat="41.624389" lon="2.404204">
        <ele>317.900000</ele>
        <time>2021-01-30T10:39:41Z</time>
      </trkpt>
      <trkpt lat="41.624360" lon="2.404167">
        <ele>317.600000</ele>
        <time>2021-01-30T10:39:42Z</time>
      </trkpt>
      <trkpt lat="41.624329" lon="2.404114">
        <ele>317.200000</ele>
        <time>2021-01-30T10:39:43Z</time>
      </trkpt>
      <trkpt lat="41.624262" lon="2.403937">
        <ele>316.200000</ele>
        <time>2021-01-30T10:39:46Z</time>
      </trkpt>
      <trkpt lat="41.624279" lon="2.403799">
        <ele>316.200000</ele>
        <time>2021-01-30T10:39:49Z</time>
      </trkpt>
      <trkpt lat="41.624299" lon="2.403645">
        <ele>316.500000</ele>
        <time>2021-01-30T10:39:53Z</time>
      </trkpt>
      <trkpt lat="41.624287" lon="2.403585">
        <ele>316.800000</ele>
        <time>2021-01-30T10:39:55Z</time>
      </trkpt>
      <trkpt lat="41.624273" lon="2.403553">
        <ele>317.000000</ele>
        <time>2021-01-30T10:39:57Z</time>
      </trkpt>
      <trkpt lat="41.624273" lon="2.403544">
        <ele>317.000000</ele>
        <time>2021-01-30T10:39:59Z</time>
      </trkpt>
      <trkpt lat="41.624273" lon="2.403544">
        <ele>317.000000</ele>
        <time>2021-01-30T10:40:00Z</time>
      </trkpt>
      <trkpt lat="41.624264" lon="2.403378">
        <ele>317.500000</ele>
        <time>2021-01-30T10:40:38Z</time>
      </trkpt>
      <trkpt lat="41.624263" lon="2.403349">
        <ele>317.600000</ele>
        <time>2021-01-30T10:40:39Z</time>
      </trkpt>
      <trkpt lat="41.624255" lon="2.403326">
        <ele>317.700000</ele>
        <time>2021-01-30T10:40:40Z</time>
      </trkpt>
      <trkpt lat="41.624201" lon="2.403135">
        <ele>318.200000</ele>
        <time>2021-01-30T10:40:47Z</time>
      </trkpt>
      <trkpt lat="41.624144" lon="2.402965">
        <ele>318.800000</ele>
        <time>2021-01-30T10:40:53Z</time>
      </trkpt>
      <trkpt lat="41.624105" lon="2.402749">
        <ele>319.700000</ele>
        <time>2021-01-30T10:40:59Z</time>
      </trkpt>
      <trkpt lat="41.624091" lon="2.402710">
        <ele>319.900000</ele>
        <time>2021-01-30T10:41:00Z</time>
      </trkpt>
      <trkpt lat="41.624083" lon="2.402633">
        <ele>320.300000</ele>
        <time>2021-01-30T10:41:02Z</time>
      </trkpt>
      <trkpt lat="41.624018" lon="2.402423">
        <ele>321.600000</ele>
        <time>2021-01-30T10:41:07Z</time>
      </trkpt>
      <trkpt lat="41.623993" lon="2.402348">
        <ele>322.100000</ele>
        <time>2021-01-30T10:41:09Z</time>
      </trkpt>
      <trkpt lat="41.623911" lon="2.402117">
        <ele>324.100000</ele>
        <time>2021-01-30T10:41:16Z</time>
      </trkpt>
      <trkpt lat="41.623888" lon="2.402063">
        <ele>324.700000</ele>
        <time>2021-01-30T10:41:18Z</time>
      </trkpt>
      <trkpt lat="41.623869" lon="2.401981">
        <ele>325.500000</ele>
        <time>2021-01-30T10:41:21Z</time>
      </trkpt>
      <trkpt lat="41.623838" lon="2.401923">
        <ele>326.300000</ele>
        <time>2021-01-30T10:41:24Z</time>
      </trkpt>
      <trkpt lat="41.623774" lon="2.401832">
        <ele>327.500000</ele>
        <time>2021-01-30T10:41:28Z</time>
      </trkpt>
      <trkpt lat="41.623771" lon="2.401775">
        <ele>328.000000</ele>
        <time>2021-01-30T10:41:30Z</time>
      </trkpt>
      <trkpt lat="41.623738" lon="2.401584">
        <ele>329.700000</ele>
        <time>2021-01-30T10:41:36Z</time>
      </trkpt>
      <trkpt lat="41.623734" lon="2.401557">
        <ele>329.900000</ele>
        <time>2021-01-30T10:41:37Z</time>
      </trkpt>
      <trkpt lat="41.623716" lon="2.401485">
        <ele>330.600000</ele>
        <time>2021-01-30T10:41:40Z</time>
      </trkpt>
      <trkpt lat="41.623705" lon="2.401446">
        <ele>330.900000</ele>
        <time>2021-01-30T10:41:42Z</time>
      </trkpt>
      <trkpt lat="41.623709" lon="2.401410">
        <ele>331.100000</ele>
        <time>2021-01-30T10:41:44Z</time>
      </trkpt>
      <trkpt lat="41.623719" lon="2.401395">
        <ele>331.300000</ele>
        <time>2021-01-30T10:41:45Z</time>
      </trkpt>
      <trkpt lat="41.623816" lon="2.401352">
        <ele>332.100000</ele>
        <time>2021-01-30T10:41:52Z</time>
      </trkpt>
      <trkpt lat="41.623966" lon="2.401298">
        <ele>333.100000</ele>
        <time>2021-01-30T10:42:00Z</time>
      </trkpt>
      <trkpt lat="41.624005" lon="2.401282">
        <ele>333.400000</ele>
        <time>2021-01-30T10:42:02Z</time>
      </trkpt>
      <trkpt lat="41.624046" lon="2.401276">
        <ele>333.600000</ele>
        <time>2021-01-30T10:42:04Z</time>
      </trkpt>
      <trkpt lat="41.624113" lon="2.401261">
        <ele>333.900000</ele>
        <time>2021-01-30T10:42:07Z</time>
      </trkpt>
      <trkpt lat="41.624265" lon="2.401184">
        <ele>334.700000</ele>
        <time>2021-01-30T10:42:14Z</time>
      </trkpt>
      <trkpt lat="41.624300" lon="2.401132">
        <ele>335.000000</ele>
        <time>2021-01-30T10:42:17Z</time>
      </trkpt>
      <trkpt lat="41.624309" lon="2.401082">
        <ele>335.200000</ele>
        <time>2021-01-30T10:42:19Z</time>
      </trkpt>
      <trkpt lat="41.624318" lon="2.400872">
        <ele>336.100000</ele>
        <time>2021-01-30T10:42:26Z</time>
      </trkpt>
      <trkpt lat="41.624296" lon="2.400629">
        <ele>337.300000</ele>
        <time>2021-01-30T10:42:34Z</time>
      </trkpt>
      <trkpt lat="41.624311" lon="2.400507">
        <ele>338.100000</ele>
        <time>2021-01-30T10:42:38Z</time>
      </trkpt>
      <trkpt lat="41.624333" lon="2.400322">
        <ele>339.400000</ele>
        <time>2021-01-30T10:42:44Z</time>
      </trkpt>
      <trkpt lat="41.624360" lon="2.400241">
        <ele>340.000000</ele>
        <time>2021-01-30T10:42:47Z</time>
      </trkpt>
      <trkpt lat="41.624378" lon="2.400195">
        <ele>340.400000</ele>
        <time>2021-01-30T10:42:49Z</time>
      </trkpt>
      <trkpt lat="41.624402" lon="2.400134">
        <ele>341.000000</ele>
        <time>2021-01-30T10:42:52Z</time>
      </trkpt>
      <trkpt lat="41.624468" lon="2.400000">
        <ele>342.400000</ele>
        <time>2021-01-30T10:42:58Z</time>
      </trkpt>
      <trkpt lat="41.624496" lon="2.399884">
        <ele>343.500000</ele>
        <time>2021-01-30T10:43:03Z</time>
      </trkpt>
      <trkpt lat="41.624498" lon="2.399836">
        <ele>344.000000</ele>
        <time>2021-01-30T10:43:05Z</time>
      </trkpt>
      <trkpt lat="41.624494" lon="2.399808">
        <ele>344.200000</ele>
        <time>2021-01-30T10:43:08Z</time>
      </trkpt>
      <trkpt lat="41.624494" lon="2.399784">
        <ele>344.500000</ele>
        <time>2021-01-30T10:43:10Z</time>
      </trkpt>
      <trkpt lat="41.624478" lon="2.399767">
        <ele>344.800000</ele>
        <time>2021-01-30T10:43:12Z</time>
      </trkpt>
      <trkpt lat="41.624454" lon="2.399726">
        <ele>345.100000</ele>
        <time>2021-01-30T10:43:16Z</time>
      </trkpt>
      <trkpt lat="41.624437" lon="2.399745">
        <ele>345.100000</ele>
        <time>1970-01-01T00:38:53Z</time>
      </trkpt>
      <trkpt lat="41.624537" lon="2.399725">
        <ele>344.900000</ele>
        <time>1970-01-01T00:38:54Z</time>
      </trkpt>
      <trkpt lat="41.624640" lon="2.399725">
        <ele>344.500000</ele>
        <time>1970-01-01T00:38:55Z</time>
      </trkpt>
      <trkpt lat="41.624745" lon="2.399695">
        <ele>343.800000</ele>
        <time>1970-01-01T00:38:56Z</time>
      </trkpt>
      <trkpt lat="41.624845" lon="2.399745">
        <ele>342.500000</ele>
        <time>1970-01-01T00:39:06Z</time>
      </trkpt>
      <trkpt lat="41.624948" lon="2.399800">
        <ele>340.200000</ele>
        <time>1970-01-01T00:39:07Z</time>
      </trkpt>
      <trkpt lat="41.625037" lon="2.399865">
        <ele>338.000000</ele>
        <time>1970-01-01T00:39:28Z</time>
      </trkpt>
      <trkpt lat="41.625143" lon="2.399875">
        <ele>335.800000</ele>
        <time>1970-01-01T00:39:30Z</time>
      </trkpt>
      <trkpt lat="41.625228" lon="2.399947">
        <ele>334.100000</ele>
        <time>1970-01-01T00:39:44Z</time>
      </trkpt>
      <trkpt lat="41.625322" lon="2.399992">
        <ele>332.700000</ele>
        <time>1970-01-01T00:39:45Z</time>
      </trkpt>
      <trkpt lat="41.625323" lon="2.399993">
        <ele>332.700000</ele>
        <time>1970-01-01T00:39:55Z</time>
      </trkpt>
      <trkpt lat="41.625323" lon="2.399995">
        <ele>332.600000</ele>
        <time>1970-01-01T00:39:56Z</time>
      </trkpt>
      <trkpt lat="41.625325" lon="2.399998">
        <ele>332.600000</ele>
        <time>1970-01-01T00:40:04Z</time>
      </trkpt>
      <trkpt lat="41.625325" lon="2.399998">
        <ele>332.600000</ele>
        <time>1970-01-01T00:40:11Z</time>
      </trkpt>
      <trkpt lat="41.625327" lon="2.400000">
        <ele>332.600000</ele>
        <time>1970-01-01T00:40:16Z</time>
      </trkpt>
      <trkpt lat="41.625327" lon="2.400000">
        <ele>332.600000</ele>
        <time>1970-01-01T00:40:21Z</time>
      </trkpt>
      <trkpt lat="41.625328" lon="2.400000">
        <ele>332.600000</ele>
        <time>1970-01-01T00:40:27Z</time>
      </trkpt>
      <trkpt lat="41.625340" lon="2.399988">
        <ele>332.300000</ele>
        <time>1970-01-01T00:40:33Z</time>
      </trkpt>
      <trkpt lat="41.625345" lon="2.399980">
        <ele>332.200000</ele>
        <time>1970-01-01T00:40:40Z</time>
      </trkpt>
      <trkpt lat="41.625368" lon="2.399953">
        <ele>331.900000</ele>
        <time>1970-01-01T00:40:46Z</time>
      </trkpt>
      <trkpt lat="41.625452" lon="2.399903">
        <ele>330.400000</ele>
        <time>1970-01-01T00:40:52Z</time>
      </trkpt>
      <trkpt lat="41.625552" lon="2.399900">
        <ele>328.900000</ele>
        <time>1970-01-01T00:40:54Z</time>
      </trkpt>
      <trkpt lat="41.625657" lon="2.399922">
        <ele>327.200000</ele>
        <time>1970-01-01T00:40:55Z</time>
      </trkpt>
      <trkpt lat="41.625762" lon="2.399938">
        <ele>325.500000</ele>
        <time>1970-01-01T00:40:56Z</time>
      </trkpt>
      <trkpt lat="41.625860" lon="2.399953">
        <ele>324.000000</ele>
        <time>1970-01-01T00:40:57Z</time>
      </trkpt>
      <trkpt lat="41.625947" lon="2.400032">
        <ele>322.500000</ele>
        <time>1970-01-01T00:40:58Z</time>
      </trkpt>
      <trkpt lat="41.626037" lon="2.400053">
        <ele>321.100000</ele>
        <time>1970-01-01T00:41:03Z</time>
      </trkpt>
      <trkpt lat="41.626125" lon="2.400100">
        <ele>319.700000</ele>
        <time>1970-01-01T00:41:05Z</time>
      </trkpt>
      <trkpt lat="41.626208" lon="2.400190">
        <ele>318.100000</ele>
        <time>1970-01-01T00:41:07Z</time>
      </trkpt>
      <trkpt lat="41.626298" lon="2.400230">
        <ele>316.800000</ele>
        <time>1970-01-01T00:41:09Z</time>
      </trkpt>
      <trkpt lat="41.626388" lon="2.400218">
        <ele>315.400000</ele>
        <time>1970-01-01T00:41:13Z</time>
      </trkpt>
      <trkpt lat="41.626480" lon="2.400190">
        <ele>314.000000</ele>
        <time>1970-01-01T00:41:18Z</time>
      </trkpt>
      <trkpt lat="41.626570" lon="2.400187">
        <ele>312.900000</ele>
        <time>1970-01-01T00:41:22Z</time>
      </trkpt>
      <trkpt lat="41.626660" lon="2.400162">
        <ele>311.900000</ele>
        <time>1970-01-01T00:41:30Z</time>
      </trkpt>
      <trkpt lat="41.626765" lon="2.400108">
        <ele>311.000000</ele>
        <time>1970-01-01T00:41:38Z</time>
      </trkpt>
      <trkpt lat="41.626865" lon="2.400068">
        <ele>310.300000</ele>
        <time>1970-01-01T00:41:43Z</time>
      </trkpt>
      <trkpt lat="41.626967" lon="2.400028">
        <ele>309.600000</ele>
        <time>1970-01-01T00:41:48Z</time>
      </trkpt>
      <trkpt lat="41.626968" lon="2.400025">
        <ele>309.500000</ele>
        <time>1970-01-01T00:41:53Z</time>
      </trkpt>
      <trkpt lat="41.626968" lon="2.400025">
        <ele>309.500000</ele>
        <time>1970-01-01T00:41:58Z</time>
      </trkpt>
      <trkpt lat="41.626970" lon="2.400023">
        <ele>309.500000</ele>
        <time>1970-01-01T00:42:03Z</time>
      </trkpt>
      <trkpt lat="41.627037" lon="2.400012">
        <ele>309.100000</ele>
        <time>1970-01-01T00:42:09Z</time>
      </trkpt>
      <trkpt lat="41.627128" lon="2.400020">
        <ele>308.500000</ele>
        <time>1970-01-01T00:42:16Z</time>
      </trkpt>
      <trkpt lat="41.627232" lon="2.400037">
        <ele>307.900000</ele>
        <time>1970-01-01T00:42:21Z</time>
      </trkpt>
      <trkpt lat="41.627325" lon="2.400095">
        <ele>307.200000</ele>
        <time>1970-01-01T00:42:26Z</time>
      </trkpt>
      <trkpt lat="41.627402" lon="2.400170">
        <ele>305.800000</ele>
        <time>1970-01-01T00:42:31Z</time>
      </trkpt>
      <trkpt lat="41.627482" lon="2.400233">
        <ele>304.400000</ele>
        <time>1970-01-01T00:42:36Z</time>
      </trkpt>
      <trkpt lat="41.627570" lon="2.400298">
        <ele>302.800000</ele>
        <time>1970-01-01T00:42:44Z</time>
      </trkpt>
      <trkpt lat="41.627662" lon="2.400342">
        <ele>301.100000</ele>
        <time>1970-01-01T00:42:48Z</time>
      </trkpt>
      <trkpt lat="41.627752" lon="2.400383">
        <ele>299.900000</ele>
        <time>1970-01-01T00:42:52Z</time>
      </trkpt>
      <trkpt lat="41.627842" lon="2.400400">
        <ele>298.900000</ele>
        <time>1970-01-01T00:42:56Z</time>
      </trkpt>
      <trkpt lat="41.627935" lon="2.400362">
        <ele>297.700000</ele>
        <time>1970-01-01T00:42:59Z</time>
      </trkpt>
      <trkpt lat="41.627970" lon="2.400247">
        <ele>296.400000</ele>
        <time>1970-01-01T00:43:02Z</time>
      </trkpt>
      <trkpt lat="41.627983" lon="2.400113">
        <ele>294.900000</ele>
        <time>1970-01-01T00:43:05Z</time>
      </trkpt>
      <trkpt lat="41.627998" lon="2.399987">
        <ele>293.200000</ele>
        <time>1970-01-01T00:43:08Z</time>
      </trkpt>
      <trkpt lat="41.628047" lon="2.399880">
        <ele>291.500000</ele>
        <time>1970-01-01T00:43:12Z</time>
      </trkpt>
      <trkpt lat="41.628113" lon="2.399782">
        <ele>289.800000</ele>
        <time>1970-01-01T00:43:19Z</time>
      </trkpt>
      <trkpt lat="41.628150" lon="2.399670">
        <ele>288.400000</ele>
        <time>1970-01-01T00:43:24Z</time>
      </trkpt>
      <trkpt lat="41.628158" lon="2.399532">
        <ele>286.800000</ele>
        <time>1970-01-01T00:43:30Z</time>
      </trkpt>
      <trkpt lat="41.628128" lon="2.399417">
        <ele>285.600000</ele>
        <time>1970-01-01T00:43:33Z</time>
      </trkpt>
      <trkpt lat="41.628203" lon="2.399345">
        <ele>283.800000</ele>
        <time>1970-01-01T00:43:52Z</time>
      </trkpt>
      <trkpt lat="41.628300" lon="2.399395">
        <ele>282.800000</ele>
        <time>1970-01-01T00:43:53Z</time>
      </trkpt>
      <trkpt lat="41.628393" lon="2.399448">
        <ele>281.900000</ele>
        <time>1970-01-01T00:44:17Z</time>
      </trkpt>
      <trkpt lat="41.628458" lon="2.399543">
        <ele>281.000000</ele>
        <time>1970-01-01T00:44:28Z</time>
      </trkpt>
      <trkpt lat="41.628515" lon="2.399648">
        <ele>279.800000</ele>
        <time>1970-01-01T00:44:34Z</time>
      </trkpt>
      <trkpt lat="41.628607" lon="2.399725">
        <ele>278.300000</ele>
        <time>1970-01-01T00:44:39Z</time>
      </trkpt>
      <trkpt lat="41.628703" lon="2.399757">
        <ele>276.700000</ele>
        <time>1970-01-01T00:44:43Z</time>
      </trkpt>
      <trkpt lat="41.628812" lon="2.399757">
        <ele>274.700000</ele>
        <time>1970-01-01T00:44:48Z</time>
      </trkpt>
      <trkpt lat="41.628912" lon="2.399727">
        <ele>272.500000</ele>
        <time>1970-01-01T00:44:55Z</time>
      </trkpt>
      <trkpt lat="41.629010" lon="2.399692">
        <ele>270.500000</ele>
        <time>1970-01-01T00:44:59Z</time>
      </trkpt>
      <trkpt lat="41.629107" lon="2.399682">
        <ele>269.100000</ele>
        <time>1970-01-01T00:45:02Z</time>
      </trkpt>
      <trkpt lat="41.629223" lon="2.399693">
        <ele>267.900000</ele>
        <time>1970-01-01T00:45:03Z</time>
      </trkpt>
      <trkpt lat="41.629335" lon="2.399648">
        <ele>267.100000</ele>
        <time>1970-01-01T00:45:05Z</time>
      </trkpt>
      <trkpt lat="41.629435" lon="2.399590">
        <ele>266.600000</ele>
        <time>1970-01-01T00:45:06Z</time>
      </trkpt>
      <trkpt lat="41.629523" lon="2.399523">
        <ele>266.100000</ele>
        <time>1970-01-01T00:45:35Z</time>
      </trkpt>
      <trkpt lat="41.629612" lon="2.399448">
        <ele>265.700000</ele>
        <time>1970-01-01T00:45:36Z</time>
      </trkpt>
      <trkpt lat="41.629698" lon="2.399355">
        <ele>265.200000</ele>
        <time>1970-01-01T00:45:38Z</time>
      </trkpt>
      <trkpt lat="41.629700" lon="2.399353">
        <ele>265.200000</ele>
        <time>1970-01-01T00:45:47Z</time>
      </trkpt>
      <trkpt lat="41.629702" lon="2.399340">
        <ele>265.200000</ele>
        <time>1970-01-01T00:45:53Z</time>
      </trkpt>
      <trkpt lat="41.629698" lon="2.399338">
        <ele>265.200000</ele>
        <time>1970-01-01T00:46:00Z</time>
      </trkpt>
      <trkpt lat="41.629698" lon="2.399338">
        <ele>265.200000</ele>
        <time>1970-01-01T00:46:07Z</time>
      </trkpt>
      <trkpt lat="41.629697" lon="2.399338">
        <ele>265.100000</ele>
        <time>1970-01-01T00:46:12Z</time>
      </trkpt>
      <trkpt lat="41.629697" lon="2.399338">
        <ele>265.100000</ele>
        <time>1970-01-01T00:46:16Z</time>
      </trkpt>
      <trkpt lat="41.629695" lon="2.399338">
        <ele>265.100000</ele>
        <time>1970-01-01T00:46:21Z</time>
      </trkpt>
      <trkpt lat="41.629695" lon="2.399338">
        <ele>265.100000</ele>
        <time>1970-01-01T00:46:27Z</time>
      </trkpt>
      <trkpt lat="41.629693" lon="2.399338">
        <ele>265.100000</ele>
        <time>1970-01-01T00:46:32Z</time>
      </trkpt>
      <trkpt lat="41.629693" lon="2.399338">
        <ele>265.100000</ele>
        <time>1970-01-01T00:46:36Z</time>
      </trkpt>
      <trkpt lat="41.629692" lon="2.399338">
        <ele>265.100000</ele>
        <time>1970-01-01T00:46:40Z</time>
      </trkpt>
      <trkpt lat="41.629688" lon="2.399357">
        <ele>265.000000</ele>
        <time>1970-01-01T00:46:44Z</time>
      </trkpt>
      <trkpt lat="41.629688" lon="2.399363">
        <ele>265.000000</ele>
        <time>1970-01-01T00:46:48Z</time>
      </trkpt>
      <trkpt lat="41.629690" lon="2.399367">
        <ele>265.000000</ele>
        <time>1970-01-01T00:46:51Z</time>
      </trkpt>
      <trkpt lat="41.629692" lon="2.399370">
        <ele>265.000000</ele>
        <time>1970-01-01T00:46:54Z</time>
      </trkpt>
      <trkpt lat="41.629693" lon="2.399378">
        <ele>264.900000</ele>
        <time>1970-01-01T00:46:57Z</time>
      </trkpt>
      <trkpt lat="41.629693" lon="2.399382">
        <ele>264.900000</ele>
        <time>1970-01-01T00:46:59Z</time>
      </trkpt>
      <trkpt lat="41.629698" lon="2.399378">
        <ele>264.900000</ele>
        <time>1970-01-01T00:47:02Z</time>
      </trkpt>
      <trkpt lat="41.629702" lon="2.399377">
        <ele>264.900000</ele>
        <time>1970-01-01T00:47:05Z</time>
      </trkpt>
      <trkpt lat="41.629702" lon="2.399375">
        <ele>264.900000</ele>
        <time>1970-01-01T00:47:07Z</time>
      </trkpt>
      <trkpt lat="41.629703" lon="2.399372">
        <ele>264.800000</ele>
        <time>1970-01-01T00:47:09Z</time>
      </trkpt>
      <trkpt lat="41.629703" lon="2.399372">
        <ele>264.800000</ele>
        <time>1970-01-01T00:47:11Z</time>
      </trkpt>
      <trkpt lat="41.629707" lon="2.399368">
        <ele>264.800000</ele>
        <time>1970-01-01T00:47:13Z</time>
      </trkpt>
      <trkpt lat="41.629720" lon="2.399355">
        <ele>264.700000</ele>
        <time>1970-01-01T00:47:16Z</time>
      </trkpt>
      <trkpt lat="41.629798" lon="2.399290">
        <ele>264.000000</ele>
        <time>1970-01-01T00:47:19Z</time>
      </trkpt>
      <trkpt lat="41.629870" lon="2.399193">
        <ele>263.100000</ele>
        <time>1970-01-01T00:47:23Z</time>
      </trkpt>
      <trkpt lat="41.629945" lon="2.399102">
        <ele>261.900000</ele>
        <time>1970-01-01T00:47:27Z</time>
      </trkpt>
      <trkpt lat="41.630015" lon="2.399023">
        <ele>260.600000</ele>
        <time>1970-01-01T00:47:30Z</time>
      </trkpt>
      <trkpt lat="41.630105" lon="2.398952">
        <ele>259.000000</ele>
        <time>1970-01-01T00:47:34Z</time>
      </trkpt>
      <trkpt lat="41.630188" lon="2.398890">
        <ele>257.300000</ele>
        <time>1970-01-01T00:47:41Z</time>
      </trkpt>
      <trkpt lat="41.630157" lon="2.398773">
        <ele>255.800000</ele>
        <time>1970-01-01T00:47:47Z</time>
      </trkpt>
      <trkpt lat="41.630065" lon="2.398710">
        <ele>254.300000</ele>
        <time>1970-01-01T00:47:53Z</time>
      </trkpt>
      <trkpt lat="41.629960" lon="2.398670">
        <ele>253.100000</ele>
        <time>1970-01-01T00:48:00Z</time>
      </trkpt>
      <trkpt lat="41.629958" lon="2.398670">
        <ele>253.100000</ele>
        <time>1970-01-01T00:48:06Z</time>
      </trkpt>
      <trkpt lat="41.629958" lon="2.398667">
        <ele>253.100000</ele>
        <time>1970-01-01T00:48:11Z</time>
      </trkpt>
      <trkpt lat="41.629958" lon="2.398662">
        <ele>253.000000</ele>
        <time>1970-01-01T00:48:16Z</time>
      </trkpt>
      <trkpt lat="41.629958" lon="2.398662">
        <ele>253.000000</ele>
        <time>1970-01-01T00:48:22Z</time>
      </trkpt>
      <trkpt lat="41.629957" lon="2.398660">
        <ele>253.000000</ele>
        <time>1970-01-01T00:48:26Z</time>
      </trkpt>
      <trkpt lat="41.629957" lon="2.398660">
        <ele>253.000000</ele>
        <time>1970-01-01T00:48:28Z</time>
      </trkpt>
      <trkpt lat="41.629952" lon="2.398663">
        <ele>252.900000</ele>
        <time>1970-01-01T00:48:32Z</time>
      </trkpt>
      <trkpt lat="41.629950" lon="2.398658">
        <ele>252.900000</ele>
        <time>1970-01-01T00:48:38Z</time>
      </trkpt>
      <trkpt lat="41.629948" lon="2.398657">
        <ele>252.900000</ele>
        <time>1970-01-01T00:48:39Z</time>
      </trkpt>
      <trkpt lat="41.629920" lon="2.398663">
        <ele>252.600000</ele>
        <time>1970-01-01T00:48:42Z</time>
      </trkpt>
      <trkpt lat="41.629830" lon="2.398657">
        <ele>251.600000</ele>
        <time>1970-01-01T00:48:43Z</time>
      </trkpt>
      <trkpt lat="41.629730" lon="2.398655">
        <ele>250.500000</ele>
        <time>1970-01-01T00:48:56Z</time>
      </trkpt>
      <trkpt lat="41.629633" lon="2.398650">
        <ele>249.300000</ele>
        <time>1970-01-01T00:48:58Z</time>
      </trkpt>
      <trkpt lat="41.629533" lon="2.398640">
        <ele>248.000000</ele>
        <time>1970-01-01T00:49:09Z</time>
      </trkpt>
      <trkpt lat="41.629438" lon="2.398603">
        <ele>247.400000</ele>
        <time>1970-01-01T00:49:16Z</time>
      </trkpt>
      <trkpt lat="41.629380" lon="2.398505">
        <ele>247.200000</ele>
        <time>1970-01-01T00:49:21Z</time>
      </trkpt>
      <trkpt lat="41.629357" lon="2.398368">
        <ele>247.000000</ele>
        <time>1970-01-01T00:49:26Z</time>
      </trkpt>
      <trkpt lat="41.629310" lon="2.398252">
        <ele>247.100000</ele>
        <time>1970-01-01T00:49:33Z</time>
      </trkpt>
      <trkpt lat="41.629235" lon="2.398170">
        <ele>245.400000</ele>
        <time>1970-01-01T00:49:39Z</time>
      </trkpt>
      <trkpt lat="41.629163" lon="2.398092">
        <ele>243.600000</ele>
        <time>1970-01-01T00:49:43Z</time>
      </trkpt>
      <trkpt lat="41.629077" lon="2.398018">
        <ele>241.500000</ele>
        <time>1970-01-01T00:49:47Z</time>
      </trkpt>
      <trkpt lat="41.628982" lon="2.397970">
        <ele>240.700000</ele>
        <time>1970-01-01T00:49:51Z</time>
      </trkpt>
      <trkpt lat="41.628887" lon="2.397913">
        <ele>240.300000</ele>
        <time>1970-01-01T00:49:56Z</time>
      </trkpt>
      <trkpt lat="41.628772" lon="2.397833">
        <ele>240.200000</ele>
        <time>1970-01-01T00:50:01Z</time>
      </trkpt>
      <trkpt lat="41.628683" lon="2.397775">
        <ele>240.600000</ele>
        <time>1970-01-01T00:50:03Z</time>
      </trkpt>
      <trkpt lat="41.628585" lon="2.397720">
        <ele>240.900000</ele>
        <time>1970-01-01T00:50:04Z</time>
      </trkpt>
      <trkpt lat="41.628478" lon="2.397675">
        <ele>241.800000</ele>
        <time>1970-01-01T00:50:06Z</time>
      </trkpt>
      <trkpt lat="41.628382" lon="2.397635">
        <ele>242.900000</ele>
        <time>1970-01-01T00:50:07Z</time>
      </trkpt>
      <trkpt lat="41.628292" lon="2.397570">
        <ele>244.100000</ele>
        <time>1970-01-01T00:50:12Z</time>
      </trkpt>
      <trkpt lat="41.628270" lon="2.397437">
        <ele>243.700000</ele>
        <time>1970-01-01T00:50:16Z</time>
      </trkpt>
      <trkpt lat="41.628335" lon="2.397352">
        <ele>243.900000</ele>
        <time>1970-01-01T00:50:19Z</time>
      </trkpt>
      <trkpt lat="41.628462" lon="2.397278">
        <ele>244.800000</ele>
        <time>1970-01-01T00:50:21Z</time>
      </trkpt>
      <trkpt lat="41.628582" lon="2.397213">
        <ele>245.200000</ele>
        <time>1970-01-01T00:50:22Z</time>
      </trkpt>
      <trkpt lat="41.628667" lon="2.397140">
        <ele>245.100000</ele>
        <time>1970-01-01T00:50:24Z</time>
      </trkpt>
      <trkpt lat="41.628723" lon="2.397005">
        <ele>244.700000</ele>
        <time>1970-01-01T00:50:54Z</time>
      </trkpt>
      <trkpt lat="41.628770" lon="2.396883">
        <ele>243.800000</ele>
        <time>1970-01-01T00:50:59Z</time>
      </trkpt>
      <trkpt lat="41.628838" lon="2.396795">
        <ele>242.800000</ele>
        <time>1970-01-01T00:53:26Z</time>
      </trkpt>
      <trkpt lat="41.628922" lon="2.396720">
        <ele>242.100000</ele>
        <time>1970-01-01T00:53:27Z</time>
      </trkpt>
      <trkpt lat="41.629015" lon="2.396645">
        <ele>241.600000</ele>
        <time>1970-01-01T00:53:48Z</time>
      </trkpt>
      <trkpt lat="41.629100" lon="2.396560">
        <ele>241.500000</ele>
        <time>1970-01-01T00:53:49Z</time>
      </trkpt>
      <trkpt lat="41.629175" lon="2.396460">
        <ele>241.900000</ele>
        <time>1970-01-01T00:54:31Z</time>
      </trkpt>
      <trkpt lat="41.629247" lon="2.396355">
        <ele>243.200000</ele>
        <time>1970-01-01T00:54:32Z</time>
      </trkpt>
      <trkpt lat="41.629287" lon="2.396222">
        <ele>244.900000</ele>
        <time>1970-01-01T00:55:11Z</time>
      </trkpt>
      <trkpt lat="41.629305" lon="2.396070">
        <ele>245.400000</ele>
        <time>1970-01-01T00:55:12Z</time>
      </trkpt>
      <trkpt lat="41.629310" lon="2.395935">
        <ele>244.500000</ele>
        <time>1970-01-01T00:55:57Z</time>
      </trkpt>
      <trkpt lat="41.629278" lon="2.395800">
        <ele>243.100000</ele>
        <time>1970-01-01T00:56:00Z</time>
      </trkpt>
      <trkpt lat="41.629222" lon="2.395692">
        <ele>242.000000</ele>
        <time>1970-01-01T00:56:03Z</time>
      </trkpt>
      <trkpt lat="41.629220" lon="2.395693">
        <ele>241.900000</ele>
        <time>1970-01-01T00:56:09Z</time>
      </trkpt>
      <trkpt lat="41.629220" lon="2.395693">
        <ele>241.900000</ele>
        <time>1970-01-01T00:56:13Z</time>
      </trkpt>
      <trkpt lat="41.629218" lon="2.395693">
        <ele>241.900000</ele>
        <time>1970-01-01T00:56:17Z</time>
      </trkpt>
      <trkpt lat="41.629218" lon="2.395693">
        <ele>241.900000</ele>
        <time>1970-01-01T00:56:21Z</time>
      </trkpt>
      <trkpt lat="41.629220" lon="2.395690">
        <ele>241.900000</ele>
        <time>1970-01-01T00:56:25Z</time>
      </trkpt>
      <trkpt lat="41.629220" lon="2.395688">
        <ele>241.800000</ele>
        <time>1970-01-01T00:56:29Z</time>
      </trkpt>
      <trkpt lat="41.629218" lon="2.395688">
        <ele>241.800000</ele>
        <time>1970-01-01T00:56:34Z</time>
      </trkpt>
      <trkpt lat="41.629217" lon="2.395678">
        <ele>241.700000</ele>
        <time>1970-01-01T00:56:39Z</time>
      </trkpt>
      <trkpt lat="41.629210" lon="2.395555">
        <ele>240.400000</ele>
        <time>1970-01-01T00:56:44Z</time>
      </trkpt>
      <trkpt lat="41.629170" lon="2.395435">
        <ele>239.100000</ele>
        <time>1970-01-01T00:56:50Z</time>
      </trkpt>
      <trkpt lat="41.629123" lon="2.395322">
        <ele>238.200000</ele>
        <time>1970-01-01T00:56:55Z</time>
      </trkpt>
      <trkpt lat="41.629048" lon="2.395210">
        <ele>237.400000</ele>
        <time>1970-01-01T00:57:00Z</time>
      </trkpt>
      <trkpt lat="41.629002" lon="2.395082">
        <ele>236.500000</ele>
        <time>1970-01-01T00:57:05Z</time>
      </trkpt>
      <trkpt lat="41.629000" lon="2.394942">
        <ele>235.300000</ele>
        <time>1970-01-01T00:57:10Z</time>
      </trkpt>
      <trkpt lat="41.629003" lon="2.394932">
        <ele>235.200000</ele>
        <time>1970-01-01T00:57:15Z</time>
      </trkpt>
      <trkpt lat="41.629003" lon="2.394932">
        <ele>235.200000</ele>
        <time>1970-01-01T00:57:21Z</time>
      </trkpt>
      <trkpt lat="41.629002" lon="2.394927">
        <ele>235.200000</ele>
        <time>1970-01-01T00:57:28Z</time>
      </trkpt>
      <trkpt lat="41.629015" lon="2.394912">
        <ele>234.900000</ele>
        <time>1970-01-01T00:57:34Z</time>
      </trkpt>
      <trkpt lat="41.629122" lon="2.394905">
        <ele>232.200000</ele>
        <time>1970-01-01T00:57:40Z</time>
      </trkpt>
      <trkpt lat="41.629208" lon="2.394952">
        <ele>230.100000</ele>
        <time>1970-01-01T00:57:46Z</time>
      </trkpt>
      <trkpt lat="41.629288" lon="2.394892">
        <ele>228.300000</ele>
        <time>1970-01-01T00:57:52Z</time>
      </trkpt>
      <trkpt lat="41.629300" lon="2.394755">
        <ele>228.400000</ele>
        <time>1970-01-01T00:57:58Z</time>
      </trkpt>
      <trkpt lat="41.629325" lon="2.394635">
        <ele>228.400000</ele>
        <time>1970-01-01T00:58:05Z</time>
      </trkpt>
      <trkpt lat="41.629327" lon="2.394497">
        <ele>228.200000</ele>
        <time>1970-01-01T00:58:12Z</time>
      </trkpt>
      <trkpt lat="41.629338" lon="2.394360">
        <ele>227.600000</ele>
        <time>1970-01-01T00:58:19Z</time>
      </trkpt>
      <trkpt lat="41.629348" lon="2.394235">
        <ele>227.000000</ele>
        <time>1970-01-01T00:58:25Z</time>
      </trkpt>
      <trkpt lat="41.629363" lon="2.394095">
        <ele>226.300000</ele>
        <time>1970-01-01T00:58:30Z</time>
      </trkpt>
      <trkpt lat="41.629365" lon="2.393972">
        <ele>225.600000</ele>
        <time>1970-01-01T00:58:35Z</time>
      </trkpt>
      <trkpt lat="41.629370" lon="2.393842">
        <ele>224.800000</ele>
        <time>1970-01-01T00:58:41Z</time>
      </trkpt>
      <trkpt lat="41.629372" lon="2.393695">
        <ele>223.700000</ele>
        <time>1970-01-01T00:58:47Z</time>
      </trkpt>
      <trkpt lat="41.629368" lon="2.393573">
        <ele>222.400000</ele>
        <time>1970-01-01T00:58:52Z</time>
      </trkpt>
      <trkpt lat="41.629367" lon="2.393445">
        <ele>220.900000</ele>
        <time>1970-01-01T00:58:57Z</time>
      </trkpt>
      <trkpt lat="41.629363" lon="2.393315">
        <ele>219.200000</ele>
        <time>1970-01-01T00:59:02Z</time>
      </trkpt>
      <trkpt lat="41.629367" lon="2.393187">
        <ele>217.700000</ele>
        <time>1970-01-01T00:59:07Z</time>
      </trkpt>
      <trkpt lat="41.629378" lon="2.393048">
        <ele>216.500000</ele>
        <time>1970-01-01T00:59:12Z</time>
      </trkpt>
      <trkpt lat="41.629398" lon="2.392928">
        <ele>215.600000</ele>
        <time>1970-01-01T00:59:18Z</time>
      </trkpt>
      <trkpt lat="41.629492" lon="2.392872">
        <ele>214.900000</ele>
        <time>1970-01-01T01:00:12Z</time>
      </trkpt>
      <trkpt lat="41.629513" lon="2.392738">
        <ele>212.500000</ele>
        <time>1970-01-01T01:00:13Z</time>
      </trkpt>
      <trkpt lat="41.629472" lon="2.392628">
        <ele>212.600000</ele>
        <time>1970-01-01T01:00:31Z</time>
      </trkpt>
      <trkpt lat="41.629442" lon="2.392510">
        <ele>212.300000</ele>
        <time>1970-01-01T01:00:38Z</time>
      </trkpt>
      <trkpt lat="41.629397" lon="2.392392">
        <ele>212.800000</ele>
        <time>1970-01-01T01:00:43Z</time>
      </trkpt>
      <trkpt lat="41.629328" lon="2.392298">
        <ele>213.300000</ele>
        <time>1970-01-01T01:00:48Z</time>
      </trkpt>
      <trkpt lat="41.629242" lon="2.392233">
        <ele>214.300000</ele>
        <time>1970-01-01T01:00:52Z</time>
      </trkpt>
      <trkpt lat="41.629140" lon="2.392305">
        <ele>218.200000</ele>
        <time>1970-01-01T01:00:56Z</time>
      </trkpt>
      <trkpt lat="41.629055" lon="2.392357">
        <ele>220.100000</ele>
        <time>1970-01-01T01:01:04Z</time>
      </trkpt>
      <trkpt lat="41.628943" lon="2.392303">
        <ele>222.300000</ele>
        <time>1970-01-01T01:01:17Z</time>
      </trkpt>
      <trkpt lat="41.628870" lon="2.392227">
        <ele>222.400000</ele>
        <time>1970-01-01T01:01:24Z</time>
      </trkpt>
      <trkpt lat="41.628795" lon="2.392113">
        <ele>222.200000</ele>
        <time>1970-01-01T01:01:31Z</time>
      </trkpt>
      <trkpt lat="41.628725" lon="2.392028">
        <ele>221.700000</ele>
        <time>1970-01-01T01:01:36Z</time>
      </trkpt>
      <trkpt lat="41.628642" lon="2.391950">
        <ele>221.500000</ele>
        <time>1970-01-01T01:01:47Z</time>
      </trkpt>
      <trkpt lat="41.628643" lon="2.391950">
        <ele>221.400000</ele>
        <time>1970-01-01T01:01:52Z</time>
      </trkpt>
      <trkpt lat="41.628643" lon="2.391950">
        <ele>221.400000</ele>
        <time>1970-01-01T01:01:58Z</time>
      </trkpt>
      <trkpt lat="41.628645" lon="2.391948">
        <ele>221.300000</ele>
        <time>1970-01-01T01:02:04Z</time>
      </trkpt>
      <trkpt lat="41.628645" lon="2.391948">
        <ele>221.300000</ele>
        <time>1970-01-01T01:02:11Z</time>
      </trkpt>
      <trkpt lat="41.628648" lon="2.391950">
        <ele>221.200000</ele>
        <time>1970-01-01T01:02:17Z</time>
      </trkpt>
      <trkpt lat="41.628603" lon="2.391885">
        <ele>220.100000</ele>
        <time>1970-01-01T01:02:24Z</time>
      </trkpt>
      <trkpt lat="41.628618" lon="2.391750">
        <ele>218.100000</ele>
        <time>1970-01-01T01:02:30Z</time>
      </trkpt>
      <trkpt lat="41.628632" lon="2.391627">
        <ele>216.000000</ele>
        <time>1970-01-01T01:02:38Z</time>
      </trkpt>
      <trkpt lat="41.628528" lon="2.391603">
        <ele>216.800000</ele>
        <time>1970-01-01T01:02:42Z</time>
      </trkpt>
      <trkpt lat="41.628428" lon="2.391557">
        <ele>216.600000</ele>
        <time>1970-01-01T01:02:48Z</time>
      </trkpt>
      <trkpt lat="41.628338" lon="2.391537">
        <ele>216.000000</ele>
        <time>1970-01-01T01:02:49Z</time>
      </trkpt>
      <trkpt lat="41.628235" lon="2.391517">
        <ele>216.000000</ele>
        <time>1970-01-01T01:03:00Z</time>
      </trkpt>
      <trkpt lat="41.628135" lon="2.391487">
        <ele>215.100000</ele>
        <time>1970-01-01T01:03:01Z</time>
      </trkpt>
      <trkpt lat="41.628132" lon="2.391483">
        <ele>215.000000</ele>
        <time>1970-01-01T01:03:12Z</time>
      </trkpt>
      <trkpt lat="41.628132" lon="2.391483">
        <ele>214.900000</ele>
        <time>1970-01-01T01:03:13Z</time>
      </trkpt>
      <trkpt lat="41.628130" lon="2.391483">
        <ele>214.900000</ele>
        <time>1970-01-01T01:03:43Z</time>
      </trkpt>
      <trkpt lat="41.628130" lon="2.391483">
        <ele>214.800000</ele>
        <time>1970-01-01T01:03:49Z</time>
      </trkpt>
      <trkpt lat="41.628128" lon="2.391485">
        <ele>214.800000</ele>
        <time>1970-01-01T01:03:54Z</time>
      </trkpt>
      <trkpt lat="41.628127" lon="2.391483">
        <ele>214.700000</ele>
        <time>1970-01-01T01:04:00Z</time>
      </trkpt>
      <trkpt lat="41.628125" lon="2.391483">
        <ele>214.700000</ele>
        <time>1970-01-01T01:04:05Z</time>
      </trkpt>
      <trkpt lat="41.628125" lon="2.391483">
        <ele>214.600000</ele>
        <time>1970-01-01T01:04:10Z</time>
      </trkpt>
      <trkpt lat="41.627834" lon="2.391480">
        <ele>208.600000</ele>
        <time>1970-01-01T01:04:15Z</time>
      </trkpt>
      <trkpt lat="41.627830" lon="2.391445">
        <ele>208.200000</ele>
        <time>1970-01-01T01:04:19Z</time>
      </trkpt>
      <trkpt lat="41.627830" lon="2.391445">
        <ele>208.000000</ele>
        <time>1970-01-01T01:04:24Z</time>
      </trkpt>
      <trkpt lat="41.627830" lon="2.391445">
        <ele>207.800000</ele>
        <time>1970-01-01T01:04:29Z</time>
      </trkpt>
      <trkpt lat="41.627830" lon="2.391445">
        <ele>207.400000</ele>
        <time>1970-01-01T01:04:34Z</time>
      </trkpt>
      <trkpt lat="41.627814" lon="2.391563">
        <ele>209.800000</ele>
        <time>1970-01-01T00:07:33Z</time>
      </trkpt>
      <trkpt lat="41.627830" lon="2.391518">
        <ele>209.400000</ele>
        <time>1970-01-01T00:07:34Z</time>
      </trkpt>
      <trkpt lat="41.627830" lon="2.391518">
        <ele>209.200000</ele>
        <time>1970-01-01T00:07:35Z</time>
      </trkpt>
      <trkpt lat="41.627834" lon="2.391480">
        <ele>208.800000</ele>
        <time>1970-01-01T00:07:36Z</time>
      </trkpt>
      <trkpt lat="41.627834" lon="2.391480">
        <ele>208.600000</ele>
        <time>1970-01-01T00:15:20Z</time>
      </trkpt>
      <trkpt lat="41.627830" lon="2.391445">
        <ele>208.200000</ele>
        <time>1970-01-01T00:15:21Z</time>
      </trkpt>
      <trkpt lat="41.627830" lon="2.391445">
        <ele>208.000000</ele>
        <time>1970-01-01T00:15:22Z</time>
      </trkpt>
      <trkpt lat="41.627830" lon="2.391445">
        <ele>207.800000</ele>
        <time>1970-01-01T00:15:23Z</time>
      </trkpt>
      <trkpt lat="41.627830" lon="2.391445">
        <ele>207.400000</ele>
        <time>1970-01-01T00:15:24Z</time>
      </trkpt>
      <trkpt lat="41.627834" lon="2.391408">
        <ele>207.200000</ele>
        <time>1970-01-01T00:15:25Z</time>
      </trkpt>
      <trkpt lat="41.627834" lon="2.391408">
        <ele>206.800000</ele>
        <time>1970-01-01T00:15:26Z</time>
      </trkpt>
      <trkpt lat="41.627834" lon="2.391408">
        <ele>206.600000</ele>
        <time>1970-01-01T00:15:27Z</time>
      </trkpt>
      <trkpt lat="41.627837" lon="2.391383">
        <ele>206.400000</ele>
        <time>1970-01-01T00:15:28Z</time>
      </trkpt>
      <trkpt lat="41.627853" lon="2.391363">
        <ele>206.000000</ele>
        <time>1970-01-01T00:15:29Z</time>
      </trkpt>
      <trkpt lat="41.627853" lon="2.391363">
        <ele>205.600000</ele>
        <time>1970-01-01T00:15:30Z</time>
      </trkpt>
      <trkpt lat="41.627882" lon="2.391350">
        <ele>205.600000</ele>
        <time>1970-01-01T00:15:31Z</time>
      </trkpt>
      <trkpt lat="41.627882" lon="2.391350">
        <ele>205.400000</ele>
        <time>1970-01-01T00:15:32Z</time>
      </trkpt>
      <trkpt lat="41.627882" lon="2.391350">
        <ele>205.200000</ele>
        <time>1970-01-01T00:15:33Z</time>
      </trkpt>
      <trkpt lat="41.627904" lon="2.391342">
        <ele>204.800000</ele>
        <time>1970-01-01T00:15:34Z</time>
      </trkpt>
      <trkpt lat="41.627904" lon="2.391342">
        <ele>204.600000</ele>
        <time>1970-01-01T00:15:35Z</time>
      </trkpt>
      <trkpt lat="41.627926" lon="2.391310">
        <ele>204.400000</ele>
        <time>1970-01-01T00:15:36Z</time>
      </trkpt>
      <trkpt lat="41.627926" lon="2.391310">
        <ele>204.000000</ele>
        <time>1970-01-01T00:15:37Z</time>
      </trkpt>
      <trkpt lat="41.627962" lon="2.391280">
        <ele>203.800000</ele>
        <time>1970-01-01T00:15:38Z</time>
      </trkpt>
      <trkpt lat="41.627962" lon="2.391280">
        <ele>203.600000</ele>
        <time>1970-01-01T00:15:39Z</time>
      </trkpt>
      <trkpt lat="41.627981" lon="2.391260">
        <ele>203.200000</ele>
        <time>1970-01-01T00:15:40Z</time>
      </trkpt>
      <trkpt lat="41.627981" lon="2.391260">
        <ele>203.000000</ele>
        <time>1970-01-01T00:15:41Z</time>
      </trkpt>
      <trkpt lat="41.627981" lon="2.391260">
        <ele>202.800000</ele>
        <time>1970-01-01T00:15:42Z</time>
      </trkpt>
      <trkpt lat="41.627987" lon="2.391237">
        <ele>202.400000</ele>
        <time>1970-01-01T00:15:43Z</time>
      </trkpt>
      <trkpt lat="41.627987" lon="2.391237">
        <ele>202.200000</ele>
        <time>1970-01-01T00:15:44Z</time>
      </trkpt>
      <trkpt lat="41.627997" lon="2.391207">
        <ele>202.000000</ele>
        <time>1970-01-01T00:15:45Z</time>
      </trkpt>
      <trkpt lat="41.627997" lon="2.391207">
        <ele>201.600000</ele>
        <time>1970-01-01T00:15:46Z</time>
      </trkpt>
      <trkpt lat="41.628003" lon="2.391167">
        <ele>201.400000</ele>
        <time>1970-01-01T00:15:47Z</time>
      </trkpt>
      <trkpt lat="41.628003" lon="2.391167">
        <ele>201.000000</ele>
        <time>1970-01-01T00:15:48Z</time>
      </trkpt>
      <trkpt lat="41.628006" lon="2.391140">
        <ele>200.600000</ele>
        <time>1970-01-01T00:15:49Z</time>
      </trkpt>
      <trkpt lat="41.628013" lon="2.391110">
        <ele>200.400000</ele>
        <time>1970-01-01T00:15:50Z</time>
      </trkpt>
      <trkpt lat="41.628013" lon="2.391085">
        <ele>200.400000</ele>
        <time>1970-01-01T00:15:51Z</time>
      </trkpt>
      <trkpt lat="41.628016" lon="2.391048">
        <ele>200.000000</ele>
        <time>1970-01-01T00:15:52Z</time>
      </trkpt>
      <trkpt lat="41.628016" lon="2.391048">
        <ele>199.800000</ele>
        <time>1970-01-01T00:15:53Z</time>
      </trkpt>
      <trkpt lat="41.628032" lon="2.391010">
        <ele>199.600000</ele>
        <time>1970-01-01T00:15:54Z</time>
      </trkpt>
      <trkpt lat="41.628032" lon="2.391010">
        <ele>199.200000</ele>
        <time>1970-01-01T00:15:55Z</time>
      </trkpt>
      <trkpt lat="41.628048" lon="2.390990">
        <ele>199.000000</ele>
        <time>1970-01-01T00:15:56Z</time>
      </trkpt>
      <trkpt lat="41.628074" lon="2.390953">
        <ele>198.800000</ele>
        <time>1970-01-01T00:15:57Z</time>
      </trkpt>
      <trkpt lat="41.628074" lon="2.390953">
        <ele>198.600000</ele>
        <time>1970-01-01T00:15:58Z</time>
      </trkpt>
      <trkpt lat="41.628096" lon="2.390928">
        <ele>198.400000</ele>
        <time>1970-01-01T00:15:59Z</time>
      </trkpt>
      <trkpt lat="41.628096" lon="2.390928">
        <ele>198.000000</ele>
        <time>1970-01-01T00:16:00Z</time>
      </trkpt>
      <trkpt lat="41.628128" lon="2.390912">
        <ele>197.800000</ele>
        <time>1970-01-01T00:16:01Z</time>
      </trkpt>
      <trkpt lat="41.628128" lon="2.390912">
        <ele>197.400000</ele>
        <time>1970-01-01T00:16:02Z</time>
      </trkpt>
      <trkpt lat="41.628154" lon="2.390887">
        <ele>197.400000</ele>
        <time>1970-01-01T00:16:03Z</time>
      </trkpt>
      <trkpt lat="41.628154" lon="2.390887">
        <ele>197.200000</ele>
        <time>1970-01-01T00:16:04Z</time>
      </trkpt>
      <trkpt lat="41.628170" lon="2.390865">
        <ele>197.000000</ele>
        <time>1970-01-01T00:16:05Z</time>
      </trkpt>
      <trkpt lat="41.628186" lon="2.390847">
        <ele>196.800000</ele>
        <time>1970-01-01T00:16:06Z</time>
      </trkpt>
      <trkpt lat="41.628205" lon="2.390830">
        <ele>196.600000</ele>
        <time>1970-01-01T00:16:07Z</time>
      </trkpt>
      <trkpt lat="41.628224" lon="2.390817">
        <ele>196.600000</ele>
        <time>1970-01-01T00:16:08Z</time>
      </trkpt>
      <trkpt lat="41.628250" lon="2.390798">
        <ele>196.600000</ele>
        <time>1970-01-01T00:16:09Z</time>
      </trkpt>
      <trkpt lat="41.628269" lon="2.390777">
        <ele>196.400000</ele>
        <time>1970-01-01T00:16:10Z</time>
      </trkpt>
      <trkpt lat="41.628288" lon="2.390755">
        <ele>196.200000</ele>
        <time>1970-01-01T00:16:11Z</time>
      </trkpt>
      <trkpt lat="41.628314" lon="2.390715">
        <ele>196.000000</ele>
        <time>1970-01-01T00:16:12Z</time>
      </trkpt>
      <trkpt lat="41.628314" lon="2.390715">
        <ele>195.800000</ele>
        <time>1970-01-01T00:16:13Z</time>
      </trkpt>
      <trkpt lat="41.628330" lon="2.390702">
        <ele>195.600000</ele>
        <time>1970-01-01T00:16:14Z</time>
      </trkpt>
      <trkpt lat="41.628362" lon="2.390683">
        <ele>195.600000</ele>
        <time>1970-01-01T00:16:15Z</time>
      </trkpt>
      <trkpt lat="41.628362" lon="2.390683">
        <ele>195.200000</ele>
        <time>1970-01-01T00:16:16Z</time>
      </trkpt>
      <trkpt lat="41.628381" lon="2.390663">
        <ele>195.000000</ele>
        <time>1970-01-01T00:16:17Z</time>
      </trkpt>
      <trkpt lat="41.628403" lon="2.390647">
        <ele>194.800000</ele>
        <time>1970-01-01T00:16:18Z</time>
      </trkpt>
      <trkpt lat="41.628422" lon="2.390630">
        <ele>194.600000</ele>
        <time>1970-01-01T00:16:19Z</time>
      </trkpt>
      <trkpt lat="41.628432" lon="2.390608">
        <ele>194.400000</ele>
        <time>1970-01-01T00:16:20Z</time>
      </trkpt>
      <trkpt lat="41.628448" lon="2.390590">
        <ele>194.200000</ele>
        <time>1970-01-01T00:16:21Z</time>
      </trkpt>
      <trkpt lat="41.628464" lon="2.390572">
        <ele>194.000000</ele>
        <time>1970-01-01T00:16:22Z</time>
      </trkpt>
      <trkpt lat="41.628483" lon="2.390557">
        <ele>193.800000</ele>
        <time>1970-01-01T00:16:23Z</time>
      </trkpt>
      <trkpt lat="41.628506" lon="2.390535">
        <ele>193.800000</ele>
        <time>1970-01-01T00:16:24Z</time>
      </trkpt>
      <trkpt lat="41.628506" lon="2.390535">
        <ele>193.600000</ele>
        <time>1970-01-01T00:16:25Z</time>
      </trkpt>
      <trkpt lat="41.628522" lon="2.390520">
        <ele>193.400000</ele>
        <time>1970-01-01T00:16:26Z</time>
      </trkpt>
      <trkpt lat="41.628550" lon="2.390495">
        <ele>193.200000</ele>
        <time>1970-01-01T00:16:27Z</time>
      </trkpt>
      <trkpt lat="41.628550" lon="2.390495">
        <ele>193.000000</ele>
        <time>1970-01-01T00:16:28Z</time>
      </trkpt>
      <trkpt lat="41.628579" lon="2.390475">
        <ele>192.800000</ele>
        <time>1970-01-01T00:16:29Z</time>
      </trkpt>
      <trkpt lat="41.628579" lon="2.390475">
        <ele>192.400000</ele>
        <time>1970-01-01T00:16:30Z</time>
      </trkpt>
      <trkpt lat="41.628592" lon="2.390448">
        <ele>192.200000</ele>
        <time>1970-01-01T00:16:31Z</time>
      </trkpt>
      <trkpt lat="41.628592" lon="2.390448">
        <ele>192.000000</ele>
        <time>1970-01-01T00:16:32Z</time>
      </trkpt>
      <trkpt lat="41.628611" lon="2.390412">
        <ele>191.600000</ele>
        <time>1970-01-01T00:16:33Z</time>
      </trkpt>
      <trkpt lat="41.628611" lon="2.390412">
        <ele>191.400000</ele>
        <time>1970-01-01T00:16:34Z</time>
      </trkpt>
      <trkpt lat="41.628630" lon="2.390382">
        <ele>191.200000</ele>
        <time>1970-01-01T00:16:35Z</time>
      </trkpt>
      <trkpt lat="41.628630" lon="2.390382">
        <ele>191.000000</ele>
        <time>1970-01-01T00:16:36Z</time>
      </trkpt>
      <trkpt lat="41.628659" lon="2.390347">
        <ele>190.800000</ele>
        <time>1970-01-01T00:16:37Z</time>
      </trkpt>
      <trkpt lat="41.628659" lon="2.390347">
        <ele>190.400000</ele>
        <time>1970-01-01T00:16:38Z</time>
      </trkpt>
      <trkpt lat="41.628672" lon="2.390323">
        <ele>190.400000</ele>
        <time>1970-01-01T00:16:39Z</time>
      </trkpt>
      <trkpt lat="41.628685" lon="2.390303">
        <ele>190.200000</ele>
        <time>1970-01-01T00:16:40Z</time>
      </trkpt>
      <trkpt lat="41.628698" lon="2.390283">
        <ele>190.200000</ele>
        <time>1970-01-01T00:16:41Z</time>
      </trkpt>
      <trkpt lat="41.628710" lon="2.390263">
        <ele>190.000000</ele>
        <time>1970-01-01T00:16:42Z</time>
      </trkpt>
      <trkpt lat="41.628726" lon="2.390247">
        <ele>189.800000</ele>
        <time>1970-01-01T00:16:43Z</time>
      </trkpt>
      <trkpt lat="41.628742" lon="2.390232">
        <ele>189.400000</ele>
        <time>1970-01-01T00:16:44Z</time>
      </trkpt>
      <trkpt lat="41.628762" lon="2.390217">
        <ele>189.200000</ele>
        <time>1970-01-01T00:16:45Z</time>
      </trkpt>
      <trkpt lat="41.628781" lon="2.390202">
        <ele>189.000000</ele>
        <time>1970-01-01T00:16:46Z</time>
      </trkpt>
      <trkpt lat="41.628797" lon="2.390190">
        <ele>188.800000</ele>
        <time>1970-01-01T00:16:47Z</time>
      </trkpt>
      <trkpt lat="41.628829" lon="2.390172">
        <ele>188.600000</ele>
        <time>1970-01-01T00:16:48Z</time>
      </trkpt>
      <trkpt lat="41.628829" lon="2.390172">
        <ele>188.400000</ele>
        <time>1970-01-01T00:16:49Z</time>
      </trkpt>
      <trkpt lat="41.628864" lon="2.390153">
        <ele>188.200000</ele>
        <time>1970-01-01T00:16:50Z</time>
      </trkpt>
      <trkpt lat="41.628864" lon="2.390153">
        <ele>187.800000</ele>
        <time>1970-01-01T00:16:51Z</time>
      </trkpt>
      <trkpt lat="41.628899" lon="2.390138">
        <ele>187.400000</ele>
        <time>1970-01-01T00:16:52Z</time>
      </trkpt>
      <trkpt lat="41.628899" lon="2.390138">
        <ele>187.200000</ele>
        <time>1970-01-01T00:16:53Z</time>
      </trkpt>
      <trkpt lat="41.628918" lon="2.390130">
        <ele>186.600000</ele>
        <time>1970-01-01T00:16:54Z</time>
      </trkpt>
      <trkpt lat="41.628944" lon="2.390113">
        <ele>186.400000</ele>
        <time>1970-01-01T00:16:55Z</time>
      </trkpt>
      <trkpt lat="41.628944" lon="2.390113">
        <ele>186.000000</ele>
        <time>1970-01-01T00:16:56Z</time>
      </trkpt>
      <trkpt lat="41.628963" lon="2.390102">
        <ele>185.600000</ele>
        <time>1970-01-01T00:16:57Z</time>
      </trkpt>
      <trkpt lat="41.628979" lon="2.390087">
        <ele>185.400000</ele>
        <time>1970-01-01T00:16:58Z</time>
      </trkpt>
      <trkpt lat="41.629005" lon="2.390062">
        <ele>185.000000</ele>
        <time>1970-01-01T00:16:59Z</time>
      </trkpt>
      <trkpt lat="41.629005" lon="2.390062">
        <ele>184.800000</ele>
        <time>1970-01-01T00:17:00Z</time>
      </trkpt>
      <trkpt lat="41.629021" lon="2.390048">
        <ele>184.600000</ele>
        <time>1970-01-01T00:17:01Z</time>
      </trkpt>
      <trkpt lat="41.629027" lon="2.390005">
        <ele>184.400000</ele>
        <time>1970-01-01T00:17:02Z</time>
      </trkpt>
      <trkpt lat="41.629027" lon="2.390005">
        <ele>184.000000</ele>
        <time>1970-01-01T00:17:03Z</time>
      </trkpt>
      <trkpt lat="41.629008" lon="2.389970">
        <ele>183.800000</ele>
        <time>1970-01-01T00:17:04Z</time>
      </trkpt>
      <trkpt lat="41.629008" lon="2.389970">
        <ele>183.400000</ele>
        <time>1970-01-01T00:17:05Z</time>
      </trkpt>
      <trkpt lat="41.628982" lon="2.389960">
        <ele>183.000000</ele>
        <time>1970-01-01T00:17:06Z</time>
      </trkpt>
      <trkpt lat="41.628982" lon="2.389960">
        <ele>182.800000</ele>
        <time>1970-01-01T00:17:07Z</time>
      </trkpt>
      <trkpt lat="41.628954" lon="2.389952">
        <ele>182.400000</ele>
        <time>1970-01-01T00:17:08Z</time>
      </trkpt>
      <trkpt lat="41.628954" lon="2.389952">
        <ele>182.000000</ele>
        <time>1970-01-01T00:17:09Z</time>
      </trkpt>
      <trkpt lat="41.628922" lon="2.389957">
        <ele>181.800000</ele>
        <time>1970-01-01T00:17:10Z</time>
      </trkpt>
      <trkpt lat="41.628922" lon="2.389957">
        <ele>181.400000</ele>
        <time>1970-01-01T00:17:11Z</time>
      </trkpt>
      <trkpt lat="41.628886" lon="2.389952">
        <ele>181.000000</ele>
        <time>1970-01-01T00:17:12Z</time>
      </trkpt>
      <trkpt lat="41.628886" lon="2.389952">
        <ele>180.600000</ele>
        <time>1970-01-01T00:17:13Z</time>
      </trkpt>
      <trkpt lat="41.628854" lon="2.389943">
        <ele>180.000000</ele>
        <time>1970-01-01T00:17:14Z</time>
      </trkpt>
      <trkpt lat="41.628854" lon="2.389943">
        <ele>179.800000</ele>
        <time>1970-01-01T00:17:15Z</time>
      </trkpt>
      <trkpt lat="41.628835" lon="2.389935">
        <ele>179.400000</ele>
        <time>1970-01-01T00:17:16Z</time>
      </trkpt>
      <trkpt lat="41.628819" lon="2.389922">
        <ele>179.000000</ele>
        <time>1970-01-01T00:17:17Z</time>
      </trkpt>
      <trkpt lat="41.628800" lon="2.389887">
        <ele>178.400000</ele>
        <time>1970-01-01T00:17:18Z</time>
      </trkpt>
      <trkpt lat="41.628800" lon="2.389887">
        <ele>178.000000</ele>
        <time>1970-01-01T00:17:19Z</time>
      </trkpt>
      <trkpt lat="41.628790" lon="2.389865">
        <ele>177.600000</ele>
        <time>1970-01-01T00:17:20Z</time>
      </trkpt>
      <trkpt lat="41.628797" lon="2.389818">
        <ele>177.200000</ele>
        <time>1970-01-01T00:17:21Z</time>
      </trkpt>
      <trkpt lat="41.628797" lon="2.389818">
        <ele>176.600000</ele>
        <time>1970-01-01T00:17:22Z</time>
      </trkpt>
      <trkpt lat="41.628810" lon="2.389778">
        <ele>176.200000</ele>
        <time>1970-01-01T00:17:23Z</time>
      </trkpt>
      <trkpt lat="41.628810" lon="2.389778">
        <ele>176.000000</ele>
        <time>1970-01-01T00:17:24Z</time>
      </trkpt>
      <trkpt lat="41.628835" lon="2.389748">
        <ele>175.600000</ele>
        <time>1970-01-01T00:17:25Z</time>
      </trkpt>
      <trkpt lat="41.628835" lon="2.389748">
        <ele>175.400000</ele>
        <time>1970-01-01T00:17:26Z</time>
      </trkpt>
      <trkpt lat="41.628848" lon="2.389725">
        <ele>175.400000</ele>
        <time>1970-01-01T00:17:27Z</time>
      </trkpt>
      <trkpt lat="41.628867" lon="2.389702">
        <ele>175.000000</ele>
        <time>1970-01-01T00:17:28Z</time>
      </trkpt>
      <trkpt lat="41.628886" lon="2.389677">
        <ele>175.200000</ele>
        <time>1970-01-01T00:17:29Z</time>
      </trkpt>
      <trkpt lat="41.628902" lon="2.389657">
        <ele>175.200000</ele>
        <time>1970-01-01T00:17:30Z</time>
      </trkpt>
      <trkpt lat="41.628915" lon="2.389635">
        <ele>175.600000</ele>
        <time>1970-01-01T00:17:31Z</time>
      </trkpt>
      <trkpt lat="41.628925" lon="2.389613">
        <ele>176.000000</ele>
        <time>1970-01-01T00:17:32Z</time>
      </trkpt>
      <trkpt lat="41.628922" lon="2.389570">
        <ele>176.800000</ele>
        <time>1970-01-01T00:17:33Z</time>
      </trkpt>
      <trkpt lat="41.628922" lon="2.389570">
        <ele>177.200000</ele>
        <time>1970-01-01T00:17:34Z</time>
      </trkpt>
      <trkpt lat="41.628896" lon="2.389557">
        <ele>177.600000</ele>
        <time>1970-01-01T00:17:35Z</time>
      </trkpt>
      <trkpt lat="41.628864" lon="2.389550">
        <ele>178.200000</ele>
        <time>1970-01-01T00:17:36Z</time>
      </trkpt>
      <trkpt lat="41.628835" lon="2.389548">
        <ele>178.800000</ele>
        <time>1970-01-01T00:17:37Z</time>
      </trkpt>
      <trkpt lat="41.628803" lon="2.389547">
        <ele>179.400000</ele>
        <time>1970-01-01T00:17:38Z</time>
      </trkpt>
      <trkpt lat="41.628765" lon="2.389547">
        <ele>180.200000</ele>
        <time>1970-01-01T00:17:39Z</time>
      </trkpt>
      <trkpt lat="41.628736" lon="2.389547">
        <ele>180.600000</ele>
        <time>1970-01-01T00:17:40Z</time>
      </trkpt>
      <trkpt lat="41.628701" lon="2.389547">
        <ele>181.200000</ele>
        <time>1970-01-01T00:17:41Z</time>
      </trkpt>
      <trkpt lat="41.628666" lon="2.389548">
        <ele>181.600000</ele>
        <time>1970-01-01T00:17:42Z</time>
      </trkpt>
      <trkpt lat="41.628627" lon="2.389555">
        <ele>182.400000</ele>
        <time>1970-01-01T00:17:43Z</time>
      </trkpt>
      <trkpt lat="41.628592" lon="2.389562">
        <ele>183.000000</ele>
        <time>1970-01-01T00:17:44Z</time>
      </trkpt>
      <trkpt lat="41.628563" lon="2.389570">
        <ele>183.200000</ele>
        <time>1970-01-01T00:17:45Z</time>
      </trkpt>
      <trkpt lat="41.628531" lon="2.389582">
        <ele>184.000000</ele>
        <time>1970-01-01T00:17:46Z</time>
      </trkpt>
      <trkpt lat="41.628502" lon="2.389587">
        <ele>184.400000</ele>
        <time>1970-01-01T00:17:47Z</time>
      </trkpt>
      <trkpt lat="41.628470" lon="2.389587">
        <ele>185.400000</ele>
        <time>1970-01-01T00:17:48Z</time>
      </trkpt>
      <trkpt lat="41.628442" lon="2.389587">
        <ele>186.000000</ele>
        <time>1970-01-01T00:17:49Z</time>
      </trkpt>
      <trkpt lat="41.628410" lon="2.389590">
        <ele>186.600000</ele>
        <time>1970-01-01T00:17:50Z</time>
      </trkpt>
      <trkpt lat="41.628381" lon="2.389592">
        <ele>187.400000</ele>
        <time>1970-01-01T00:17:51Z</time>
      </trkpt>
      <trkpt lat="41.628352" lon="2.389588">
        <ele>188.000000</ele>
        <time>1970-01-01T00:17:52Z</time>
      </trkpt>
      <trkpt lat="41.628320" lon="2.389582">
        <ele>189.000000</ele>
        <time>1970-01-01T00:17:53Z</time>
      </trkpt>
      <trkpt lat="41.628288" lon="2.389572">
        <ele>189.800000</ele>
        <time>1970-01-01T00:17:54Z</time>
      </trkpt>
      <trkpt lat="41.628262" lon="2.389558">
        <ele>190.400000</ele>
        <time>1970-01-01T00:17:55Z</time>
      </trkpt>
      <trkpt lat="41.628243" lon="2.389538">
        <ele>191.000000</ele>
        <time>1970-01-01T00:17:56Z</time>
      </trkpt>
      <trkpt lat="41.628227" lon="2.389507">
        <ele>191.600000</ele>
        <time>1970-01-01T00:17:57Z</time>
      </trkpt>
      <trkpt lat="41.628221" lon="2.389475">
        <ele>192.400000</ele>
        <time>1970-01-01T00:17:58Z</time>
      </trkpt>
      <trkpt lat="41.628214" lon="2.389445">
        <ele>193.000000</ele>
        <time>1970-01-01T00:17:59Z</time>
      </trkpt>
      <trkpt lat="41.628214" lon="2.389413">
        <ele>193.600000</ele>
        <time>1970-01-01T00:18:00Z</time>
      </trkpt>
      <trkpt lat="41.628224" lon="2.389378">
        <ele>193.800000</ele>
        <time>1970-01-01T00:18:01Z</time>
      </trkpt>
      <trkpt lat="41.628230" lon="2.389338">
        <ele>194.200000</ele>
        <time>1970-01-01T00:18:02Z</time>
      </trkpt>
      <trkpt lat="41.628250" lon="2.389303">
        <ele>194.400000</ele>
        <time>1970-01-01T00:18:03Z</time>
      </trkpt>
      <trkpt lat="41.628266" lon="2.389267">
        <ele>194.800000</ele>
        <time>1970-01-01T00:18:04Z</time>
      </trkpt>
      <trkpt lat="41.628278" lon="2.389227">
        <ele>195.200000</ele>
        <time>1970-01-01T00:18:05Z</time>
      </trkpt>
      <trkpt lat="41.628288" lon="2.389188">
        <ele>195.600000</ele>
        <time>1970-01-01T00:18:06Z</time>
      </trkpt>
      <trkpt lat="41.628301" lon="2.389148">
        <ele>195.800000</ele>
        <time>1970-01-01T00:18:07Z</time>
      </trkpt>
      <trkpt lat="41.628301" lon="2.389110">
        <ele>196.400000</ele>
        <time>1970-01-01T00:18:08Z</time>
      </trkpt>
      <trkpt lat="41.628288" lon="2.389073">
        <ele>196.800000</ele>
        <time>1970-01-01T00:18:09Z</time>
      </trkpt>
      <trkpt lat="41.628283" lon="2.389051">
        <ele>197.400000</ele>
        <time>1970-01-01T00:18:10Z</time>
      </trkpt>
      <trkpt lat="41.628266" lon="2.388988">
        <ele>197.200000</ele>
        <time>1970-01-01T00:18:11Z</time>
      </trkpt>
      <trkpt lat="41.628259" lon="2.388948">
        <ele>197.600000</ele>
        <time>1970-01-01T00:18:12Z</time>
      </trkpt>
      <trkpt lat="41.628250" lon="2.388907">
        <ele>198.000000</ele>
        <time>1970-01-01T00:18:13Z</time>
      </trkpt>
      <trkpt lat="41.628246" lon="2.388873">
        <ele>198.400000</ele>
        <time>1970-01-01T00:18:14Z</time>
      </trkpt>
      <trkpt lat="41.628246" lon="2.388843">
        <ele>198.400000</ele>
        <time>1970-01-01T00:18:15Z</time>
      </trkpt>
      <trkpt lat="41.628253" lon="2.388803">
        <ele>198.800000</ele>
        <time>1970-01-01T00:18:16Z</time>
      </trkpt>
      <trkpt lat="41.628250" lon="2.388753">
        <ele>198.800000</ele>
        <time>1970-01-01T00:18:17Z</time>
      </trkpt>
      <trkpt lat="41.628250" lon="2.388753">
        <ele>199.400000</ele>
        <time>1970-01-01T00:18:18Z</time>
      </trkpt>
      <trkpt lat="41.628246" lon="2.388728">
        <ele>199.400000</ele>
        <time>1970-01-01T00:18:19Z</time>
      </trkpt>
      <trkpt lat="41.628234" lon="2.388685">
        <ele>199.600000</ele>
        <time>1970-01-01T00:18:20Z</time>
      </trkpt>
      <trkpt lat="41.628234" lon="2.388685">
        <ele>200.000000</ele>
        <time>1970-01-01T00:18:21Z</time>
      </trkpt>
      <trkpt lat="41.628230" lon="2.388648">
        <ele>200.200000</ele>
        <time>1970-01-01T00:18:22Z</time>
      </trkpt>
      <trkpt lat="41.628230" lon="2.388648">
        <ele>200.600000</ele>
        <time>1970-01-01T00:18:23Z</time>
      </trkpt>
      <trkpt lat="41.628224" lon="2.388623">
        <ele>200.800000</ele>
        <time>1970-01-01T00:18:24Z</time>
      </trkpt>
      <trkpt lat="41.628208" lon="2.388603">
        <ele>201.400000</ele>
        <time>1970-01-01T00:18:25Z</time>
      </trkpt>
      <trkpt lat="41.628189" lon="2.388585">
        <ele>201.800000</ele>
        <time>1970-01-01T00:18:26Z</time>
      </trkpt>
      <trkpt lat="41.628170" lon="2.388567">
        <ele>202.200000</ele>
        <time>1970-01-01T00:18:27Z</time>
      </trkpt>
      <trkpt lat="41.628147" lon="2.388542">
        <ele>202.600000</ele>
        <time>1970-01-01T00:18:28Z</time>
      </trkpt>
      <trkpt lat="41.628125" lon="2.388523">
        <ele>202.600000</ele>
        <time>1970-01-01T00:18:29Z</time>
      </trkpt>
      <trkpt lat="41.628102" lon="2.388508">
        <ele>203.000000</ele>
        <time>1970-01-01T00:18:30Z</time>
      </trkpt>
      <trkpt lat="41.628090" lon="2.388485">
        <ele>203.400000</ele>
        <time>1970-01-01T00:18:31Z</time>
      </trkpt>
      <trkpt lat="41.628080" lon="2.388462">
        <ele>204.000000</ele>
        <time>1970-01-01T00:18:32Z</time>
      </trkpt>
      <trkpt lat="41.628067" lon="2.388437">
        <ele>204.400000</ele>
        <time>1970-01-01T00:18:33Z</time>
      </trkpt>
      <trkpt lat="41.628051" lon="2.388420">
        <ele>205.000000</ele>
        <time>1970-01-01T00:18:34Z</time>
      </trkpt>
      <trkpt lat="41.628035" lon="2.388407">
        <ele>205.400000</ele>
        <time>1970-01-01T00:18:35Z</time>
      </trkpt>
      <trkpt lat="41.628026" lon="2.388380">
        <ele>205.800000</ele>
        <time>1970-01-01T00:18:36Z</time>
      </trkpt>
      <trkpt lat="41.628016" lon="2.388350">
        <ele>206.200000</ele>
        <time>1970-01-01T00:18:37Z</time>
      </trkpt>
      <trkpt lat="41.628003" lon="2.388322">
        <ele>206.600000</ele>
        <time>1970-01-01T00:18:38Z</time>
      </trkpt>
      <trkpt lat="41.627987" lon="2.388297">
        <ele>207.000000</ele>
        <time>1970-01-01T00:18:39Z</time>
      </trkpt>
      <trkpt lat="41.627974" lon="2.388273">
        <ele>207.400000</ele>
        <time>1970-01-01T00:18:40Z</time>
      </trkpt>
      <trkpt lat="41.627965" lon="2.388252">
        <ele>207.800000</ele>
        <time>1970-01-01T00:18:41Z</time>
      </trkpt>
      <trkpt lat="41.627962" lon="2.388222">
        <ele>208.200000</ele>
        <time>1970-01-01T00:18:42Z</time>
      </trkpt>
      <trkpt lat="41.627949" lon="2.388195">
        <ele>208.200000</ele>
        <time>1970-01-01T00:18:43Z</time>
      </trkpt>
      <trkpt lat="41.627949" lon="2.388168">
        <ele>208.600000</ele>
        <time>1970-01-01T00:18:44Z</time>
      </trkpt>
      <trkpt lat="41.627946" lon="2.388140">
        <ele>208.800000</ele>
        <time>1970-01-01T00:18:45Z</time>
      </trkpt>
      <trkpt lat="41.627936" lon="2.388110">
        <ele>209.000000</ele>
        <time>1970-01-01T00:18:46Z</time>
      </trkpt>
      <trkpt lat="41.627923" lon="2.388070">
        <ele>209.200000</ele>
        <time>1970-01-01T00:18:47Z</time>
      </trkpt>
      <trkpt lat="41.627917" lon="2.388038">
        <ele>209.400000</ele>
        <time>1970-01-01T00:18:48Z</time>
      </trkpt>
      <trkpt lat="41.627917" lon="2.388007">
        <ele>209.800000</ele>
        <time>1970-01-01T00:18:49Z</time>
      </trkpt>
      <trkpt lat="41.627907" lon="2.387975">
        <ele>210.000000</ele>
        <time>1970-01-01T00:18:50Z</time>
      </trkpt>
      <trkpt lat="41.627901" lon="2.387961">
        <ele>210.200000</ele>
        <time>1970-01-01T00:18:51Z</time>
      </trkpt>
      <trkpt lat="41.627888" lon="2.387922">
        <ele>210.800000</ele>
        <time>1970-01-01T00:18:52Z</time>
      </trkpt>
      <trkpt lat="41.627872" lon="2.387893">
        <ele>211.000000</ele>
        <time>1970-01-01T00:18:53Z</time>
      </trkpt>
      <trkpt lat="41.627862" lon="2.387840">
        <ele>211.600000</ele>
        <time>1970-01-01T00:18:54Z</time>
      </trkpt>
      <trkpt lat="41.627862" lon="2.387840">
        <ele>212.000000</ele>
        <time>1970-01-01T00:18:55Z</time>
      </trkpt>
      <trkpt lat="41.627866" lon="2.387812">
        <ele>212.400000</ele>
        <time>1970-01-01T00:18:56Z</time>
      </trkpt>
      <trkpt lat="41.627866" lon="2.387763">
        <ele>212.600000</ele>
        <time>1970-01-01T00:18:57Z</time>
      </trkpt>
      <trkpt lat="41.627866" lon="2.387763">
        <ele>213.000000</ele>
        <time>1970-01-01T00:18:58Z</time>
      </trkpt>
      <trkpt lat="41.627862" lon="2.387738">
        <ele>213.400000</ele>
        <time>1970-01-01T00:18:59Z</time>
      </trkpt>
      <trkpt lat="41.627846" lon="2.387702">
        <ele>213.600000</ele>
        <time>1970-01-01T00:19:00Z</time>
      </trkpt>
      <trkpt lat="41.627846" lon="2.387702">
        <ele>214.200000</ele>
        <time>1970-01-01T00:19:01Z</time>
      </trkpt>
      <trkpt lat="41.627830" lon="2.387677">
        <ele>214.400000</ele>
        <time>1970-01-01T00:19:02Z</time>
      </trkpt>
      <trkpt lat="41.627830" lon="2.387677">
        <ele>214.800000</ele>
        <time>1970-01-01T00:19:32Z</time>
      </trkpt>
      <trkpt lat="41.627814" lon="2.387648">
        <ele>215.200000</ele>
        <time>1970-01-01T00:19:33Z</time>
      </trkpt>
      <trkpt lat="41.627814" lon="2.387648">
        <ele>215.800000</ele>
        <time>1970-01-01T00:19:34Z</time>
      </trkpt>
      <trkpt lat="41.627798" lon="2.387622">
        <ele>216.200000</ele>
        <time>1970-01-01T00:19:35Z</time>
      </trkpt>
      <trkpt lat="41.627798" lon="2.387622">
        <ele>216.400000</ele>
        <time>1970-01-01T00:19:36Z</time>
      </trkpt>
      <trkpt lat="41.627776" lon="2.387602">
        <ele>216.800000</ele>
        <time>1970-01-01T00:19:37Z</time>
      </trkpt>
      <trkpt lat="41.627776" lon="2.387602">
        <ele>217.200000</ele>
        <time>1970-01-01T00:19:38Z</time>
      </trkpt>
      <trkpt lat="41.627757" lon="2.387597">
        <ele>217.400000</ele>
        <time>1970-01-01T00:19:39Z</time>
      </trkpt>
      <trkpt lat="41.627738" lon="2.387592">
        <ele>217.400000</ele>
        <time>1970-01-01T00:19:40Z</time>
      </trkpt>
      <trkpt lat="41.627718" lon="2.387585">
        <ele>217.400000</ele>
        <time>1970-01-01T00:19:41Z</time>
      </trkpt>
      <trkpt lat="41.627686" lon="2.387577">
        <ele>217.400000</ele>
        <time>1970-01-01T00:19:42Z</time>
      </trkpt>
      <trkpt lat="41.627686" lon="2.387577">
        <ele>217.400000</ele>
        <time>1970-01-01T00:19:43Z</time>
      </trkpt>
      <trkpt lat="41.627658" lon="2.387563">
        <ele>217.400000</ele>
        <time>1970-01-01T00:19:44Z</time>
      </trkpt>
      <trkpt lat="41.627658" lon="2.387563">
        <ele>217.400000</ele>
        <time>1970-01-01T00:19:45Z</time>
      </trkpt>
      <trkpt lat="41.627638" lon="2.387543">
        <ele>217.400000</ele>
        <time>1970-01-01T00:19:46Z</time>
      </trkpt>
      <trkpt lat="41.627638" lon="2.387543">
        <ele>217.400000</ele>
        <time>1970-01-01T00:19:47Z</time>
      </trkpt>
      <trkpt lat="41.627638" lon="2.387510">
        <ele>217.200000</ele>
        <time>1970-01-01T00:19:48Z</time>
      </trkpt>
      <trkpt lat="41.627638" lon="2.387510">
        <ele>217.000000</ele>
        <time>1970-01-01T00:19:49Z</time>
      </trkpt>
      <trkpt lat="41.627645" lon="2.387477">
        <ele>216.800000</ele>
        <time>1970-01-01T00:19:50Z</time>
      </trkpt>
      <trkpt lat="41.627645" lon="2.387477">
        <ele>216.600000</ele>
        <time>1970-01-01T00:19:51Z</time>
      </trkpt>
      <trkpt lat="41.627632" lon="2.387450">
        <ele>216.200000</ele>
        <time>1970-01-01T00:19:52Z</time>
      </trkpt>
      <trkpt lat="41.627632" lon="2.387450">
        <ele>216.000000</ele>
        <time>1970-01-01T00:19:53Z</time>
      </trkpt>
      <trkpt lat="41.627603" lon="2.387418">
        <ele>215.800000</ele>
        <time>1970-01-01T00:19:54Z</time>
      </trkpt>
      <trkpt lat="41.627603" lon="2.387418">
        <ele>215.400000</ele>
        <time>1970-01-01T00:19:55Z</time>
      </trkpt>
      <trkpt lat="41.627587" lon="2.387400">
        <ele>215.000000</ele>
        <time>1970-01-01T00:19:56Z</time>
      </trkpt>
      <trkpt lat="41.627555" lon="2.387372">
        <ele>214.800000</ele>
        <time>1970-01-01T00:19:57Z</time>
      </trkpt>
      <trkpt lat="41.627555" lon="2.387372">
        <ele>214.600000</ele>
        <time>1970-01-01T00:19:58Z</time>
      </trkpt>
      <trkpt lat="41.627530" lon="2.387347">
        <ele>214.200000</ele>
        <time>1970-01-01T00:19:59Z</time>
      </trkpt>
      <trkpt lat="41.627530" lon="2.387347">
        <ele>214.000000</ele>
        <time>1970-01-01T00:20:00Z</time>
      </trkpt>
      <trkpt lat="41.627510" lon="2.387335">
        <ele>213.600000</ele>
        <time>1970-01-01T00:20:01Z</time>
      </trkpt>
      <trkpt lat="41.627494" lon="2.387322">
        <ele>213.200000</ele>
        <time>1970-01-01T00:20:02Z</time>
      </trkpt>
      <trkpt lat="41.627472" lon="2.387292">
        <ele>212.800000</ele>
        <time>1970-01-01T00:20:03Z</time>
      </trkpt>
      <trkpt lat="41.627472" lon="2.387292">
        <ele>212.600000</ele>
        <time>1970-01-01T00:20:04Z</time>
      </trkpt>
      <trkpt lat="41.627459" lon="2.387262">
        <ele>212.000000</ele>
        <time>1970-01-01T00:20:05Z</time>
      </trkpt>
      <trkpt lat="41.627459" lon="2.387262">
        <ele>211.800000</ele>
        <time>1970-01-01T00:20:06Z</time>
      </trkpt>
      <trkpt lat="41.627450" lon="2.387223">
        <ele>211.400000</ele>
        <time>1970-01-01T00:20:07Z</time>
      </trkpt>
      <trkpt lat="41.627450" lon="2.387223">
        <ele>211.200000</ele>
        <time>1970-01-01T00:20:08Z</time>
      </trkpt>
      <trkpt lat="41.627434" lon="2.387192">
        <ele>210.800000</ele>
        <time>1970-01-01T00:20:09Z</time>
      </trkpt>
      <trkpt lat="41.627434" lon="2.387192">
        <ele>210.800000</ele>
        <time>1970-01-01T00:20:10Z</time>
      </trkpt>
      <trkpt lat="41.627427" lon="2.387160">
        <ele>210.400000</ele>
        <time>1970-01-01T00:20:11Z</time>
      </trkpt>
      <trkpt lat="41.627427" lon="2.387160">
        <ele>210.200000</ele>
        <time>1970-01-01T00:20:12Z</time>
      </trkpt>
      <trkpt lat="41.627411" lon="2.387132">
        <ele>209.600000</ele>
        <time>1970-01-01T00:20:13Z</time>
      </trkpt>
      <trkpt lat="41.627411" lon="2.387132">
        <ele>209.400000</ele>
        <time>1970-01-01T00:20:14Z</time>
      </trkpt>
      <trkpt lat="41.627398" lon="2.387100">
        <ele>209.200000</ele>
        <time>1970-01-01T00:20:15Z</time>
      </trkpt>
      <trkpt lat="41.627398" lon="2.387100">
        <ele>208.800000</ele>
        <time>1970-01-01T00:20:16Z</time>
      </trkpt>
      <trkpt lat="41.627389" lon="2.387070">
        <ele>208.400000</ele>
        <time>1970-01-01T00:20:17Z</time>
      </trkpt>
      <trkpt lat="41.627389" lon="2.387070">
        <ele>208.200000</ele>
        <time>1970-01-01T00:20:18Z</time>
      </trkpt>
      <trkpt lat="41.627370" lon="2.387033">
        <ele>207.800000</ele>
        <time>1970-01-01T00:20:19Z</time>
      </trkpt>
      <trkpt lat="41.627370" lon="2.387033">
        <ele>207.600000</ele>
        <time>1970-01-01T00:20:20Z</time>
      </trkpt>
      <trkpt lat="41.627360" lon="2.386997">
        <ele>207.200000</ele>
        <time>1970-01-01T00:20:21Z</time>
      </trkpt>
      <trkpt lat="41.627360" lon="2.386997">
        <ele>207.000000</ele>
        <time>1970-01-01T00:20:22Z</time>
      </trkpt>
      <trkpt lat="41.627354" lon="2.386957">
        <ele>206.400000</ele>
        <time>1970-01-01T00:20:23Z</time>
      </trkpt>
      <trkpt lat="41.627354" lon="2.386957">
        <ele>206.200000</ele>
        <time>1970-01-01T00:20:24Z</time>
      </trkpt>
      <trkpt lat="41.627341" lon="2.386918">
        <ele>205.800000</ele>
        <time>1970-01-01T00:20:25Z</time>
      </trkpt>
      <trkpt lat="41.627341" lon="2.386918">
        <ele>205.400000</ele>
        <time>1970-01-01T00:20:26Z</time>
      </trkpt>
      <trkpt lat="41.627328" lon="2.386885">
        <ele>205.200000</ele>
        <time>1970-01-01T00:20:27Z</time>
      </trkpt>
      <trkpt lat="41.627328" lon="2.386885">
        <ele>204.800000</ele>
        <time>1970-01-01T00:20:28Z</time>
      </trkpt>
      <trkpt lat="41.627312" lon="2.386850">
        <ele>204.600000</ele>
        <time>1970-01-01T00:20:29Z</time>
      </trkpt>
      <trkpt lat="41.627312" lon="2.386850">
        <ele>204.400000</ele>
        <time>1970-01-01T00:20:30Z</time>
      </trkpt>
      <trkpt lat="41.627293" lon="2.386827">
        <ele>204.200000</ele>
        <time>1970-01-01T00:20:31Z</time>
      </trkpt>
      <trkpt lat="41.627293" lon="2.386827">
        <ele>203.800000</ele>
        <time>1970-01-01T00:20:32Z</time>
      </trkpt>
      <trkpt lat="41.627277" lon="2.386805">
        <ele>203.600000</ele>
        <time>1970-01-01T00:20:33Z</time>
      </trkpt>
      <trkpt lat="41.627277" lon="2.386805">
        <ele>203.400000</ele>
        <time>1970-01-01T00:20:34Z</time>
      </trkpt>
      <trkpt lat="41.627267" lon="2.386780">
        <ele>203.200000</ele>
        <time>1970-01-01T00:20:35Z</time>
      </trkpt>
      <trkpt lat="41.627267" lon="2.386780">
        <ele>203.000000</ele>
        <time>1970-01-01T00:20:36Z</time>
      </trkpt>
      <trkpt lat="41.627248" lon="2.386753">
        <ele>203.000000</ele>
        <time>1970-01-01T00:20:37Z</time>
      </trkpt>
      <trkpt lat="41.627248" lon="2.386753">
        <ele>202.600000</ele>
        <time>1970-01-01T00:20:38Z</time>
      </trkpt>
      <trkpt lat="41.627232" lon="2.386735">
        <ele>202.400000</ele>
        <time>1970-01-01T00:20:39Z</time>
      </trkpt>
      <trkpt lat="41.627232" lon="2.386735">
        <ele>202.200000</ele>
        <time>1970-01-01T00:20:40Z</time>
      </trkpt>
      <trkpt lat="41.627213" lon="2.386720">
        <ele>202.000000</ele>
        <time>1970-01-01T00:20:41Z</time>
      </trkpt>
      <trkpt lat="41.627213" lon="2.386720">
        <ele>202.000000</ele>
        <time>1970-01-01T00:20:42Z</time>
      </trkpt>
      <trkpt lat="41.627187" lon="2.386687">
        <ele>201.600000</ele>
        <time>1970-01-01T00:20:43Z</time>
      </trkpt>
      <trkpt lat="41.627187" lon="2.386687">
        <ele>201.600000</ele>
        <time>1970-01-01T00:20:44Z</time>
      </trkpt>
      <trkpt lat="41.627171" lon="2.386670">
        <ele>201.800000</ele>
        <time>1970-01-01T00:20:45Z</time>
      </trkpt>
      <trkpt lat="41.627155" lon="2.386655">
        <ele>201.400000</ele>
        <time>1970-01-01T00:20:46Z</time>
      </trkpt>
      <trkpt lat="41.627136" lon="2.386638">
        <ele>201.800000</ele>
        <time>1970-01-01T00:20:47Z</time>
      </trkpt>
      <trkpt lat="41.627114" lon="2.386608">
        <ele>201.800000</ele>
        <time>1970-01-01T00:20:48Z</time>
      </trkpt>
      <trkpt lat="41.627114" lon="2.386608">
        <ele>202.000000</ele>
        <time>1970-01-01T00:20:49Z</time>
      </trkpt>
      <trkpt lat="41.627101" lon="2.386590">
        <ele>202.200000</ele>
        <time>1970-01-01T00:20:50Z</time>
      </trkpt>
      <trkpt lat="41.627088" lon="2.386570">
        <ele>202.200000</ele>
        <time>1970-01-01T00:20:51Z</time>
      </trkpt>
      <trkpt lat="41.627069" lon="2.386555">
        <ele>202.600000</ele>
        <time>1970-01-01T00:20:52Z</time>
      </trkpt>
      <trkpt lat="41.627050" lon="2.386540">
        <ele>202.600000</ele>
        <time>1970-01-01T00:20:53Z</time>
      </trkpt>
      <trkpt lat="41.627034" lon="2.386520">
        <ele>202.800000</ele>
        <time>1970-01-01T00:20:54Z</time>
      </trkpt>
      <trkpt lat="41.627011" lon="2.386482">
        <ele>203.000000</ele>
        <time>1970-01-01T00:20:55Z</time>
      </trkpt>
      <trkpt lat="41.627011" lon="2.386482">
        <ele>203.200000</ele>
        <time>1970-01-01T00:20:56Z</time>
      </trkpt>
      <trkpt lat="41.627002" lon="2.386460">
        <ele>203.400000</ele>
        <time>1970-01-01T00:20:57Z</time>
      </trkpt>
      <trkpt lat="41.626995" lon="2.386437">
        <ele>203.800000</ele>
        <time>1970-01-01T00:20:58Z</time>
      </trkpt>
      <trkpt lat="41.626989" lon="2.386413">
        <ele>204.400000</ele>
        <time>1970-01-01T00:20:59Z</time>
      </trkpt>
      <trkpt lat="41.626979" lon="2.386387">
        <ele>204.600000</ele>
        <time>1970-01-01T00:21:00Z</time>
      </trkpt>
      <trkpt lat="41.626970" lon="2.386363">
        <ele>204.800000</ele>
        <time>1970-01-01T00:21:01Z</time>
      </trkpt>
      <trkpt lat="41.626957" lon="2.386342">
        <ele>205.200000</ele>
        <time>1970-01-01T00:21:02Z</time>
      </trkpt>
      <trkpt lat="41.626950" lon="2.386318">
        <ele>205.600000</ele>
        <time>1970-01-01T00:21:03Z</time>
      </trkpt>
      <trkpt lat="41.626934" lon="2.386278">
        <ele>206.000000</ele>
        <time>1970-01-01T00:21:04Z</time>
      </trkpt>
      <trkpt lat="41.626934" lon="2.386278">
        <ele>206.400000</ele>
        <time>1970-01-01T00:21:05Z</time>
      </trkpt>
      <trkpt lat="41.626912" lon="2.386242">
        <ele>206.800000</ele>
        <time>1970-01-01T00:21:06Z</time>
      </trkpt>
      <trkpt lat="41.626912" lon="2.386242">
        <ele>207.000000</ele>
        <time>1970-01-01T00:21:07Z</time>
      </trkpt>
      <trkpt lat="41.626902" lon="2.386213">
        <ele>207.400000</ele>
        <time>1970-01-01T00:21:08Z</time>
      </trkpt>
      <trkpt lat="41.626890" lon="2.386185">
        <ele>207.600000</ele>
        <time>1970-01-01T00:21:09Z</time>
      </trkpt>
      <trkpt lat="41.626877" lon="2.386152">
        <ele>208.200000</ele>
        <time>1970-01-01T00:21:10Z</time>
      </trkpt>
      <trkpt lat="41.626874" lon="2.386117">
        <ele>208.600000</ele>
        <time>1970-01-01T00:21:11Z</time>
      </trkpt>
      <trkpt lat="41.626864" lon="2.386080">
        <ele>209.200000</ele>
        <time>1970-01-01T00:21:12Z</time>
      </trkpt>
      <trkpt lat="41.626858" lon="2.386047">
        <ele>209.600000</ele>
        <time>1970-01-01T00:21:13Z</time>
      </trkpt>
      <trkpt lat="41.626851" lon="2.386020">
        <ele>210.000000</ele>
        <time>1970-01-01T00:21:14Z</time>
      </trkpt>
      <trkpt lat="41.626838" lon="2.385990">
        <ele>210.200000</ele>
        <time>1970-01-01T00:21:15Z</time>
      </trkpt>
      <trkpt lat="41.626829" lon="2.385958">
        <ele>210.600000</ele>
        <time>1970-01-01T00:21:16Z</time>
      </trkpt>
      <trkpt lat="41.626816" lon="2.385933">
        <ele>210.800000</ele>
        <time>1970-01-01T00:21:17Z</time>
      </trkpt>
      <trkpt lat="41.626803" lon="2.385908">
        <ele>211.200000</ele>
        <time>1970-01-01T00:21:18Z</time>
      </trkpt>
      <trkpt lat="41.626790" lon="2.385885">
        <ele>211.400000</ele>
        <time>1970-01-01T00:21:19Z</time>
      </trkpt>
      <trkpt lat="41.626781" lon="2.385863">
        <ele>211.800000</ele>
        <time>1970-01-01T00:21:20Z</time>
      </trkpt>
      <trkpt lat="41.626771" lon="2.385837">
        <ele>211.800000</ele>
        <time>1970-01-01T00:21:21Z</time>
      </trkpt>
      <trkpt lat="41.626758" lon="2.385807">
        <ele>212.200000</ele>
        <time>1970-01-01T00:21:22Z</time>
      </trkpt>
      <trkpt lat="41.626752" lon="2.385793">
        <ele>212.200000</ele>
        <time>1970-01-01T00:21:23Z</time>
      </trkpt>
      <trkpt lat="41.626733" lon="2.385755">
        <ele>212.200000</ele>
        <time>1970-01-01T00:21:24Z</time>
      </trkpt>
      <trkpt lat="41.626720" lon="2.385733">
        <ele>212.400000</ele>
        <time>1970-01-01T00:21:25Z</time>
      </trkpt>
      <trkpt lat="41.626698" lon="2.385692">
        <ele>212.400000</ele>
        <time>1970-01-01T00:21:26Z</time>
      </trkpt>
      <trkpt lat="41.626698" lon="2.385692">
        <ele>212.600000</ele>
        <time>1970-01-01T00:21:27Z</time>
      </trkpt>
      <trkpt lat="41.626685" lon="2.385668">
        <ele>212.400000</ele>
        <time>1970-01-01T00:21:28Z</time>
      </trkpt>
      <trkpt lat="41.626678" lon="2.385643">
        <ele>212.600000</ele>
        <time>1970-01-01T00:21:29Z</time>
      </trkpt>
      <trkpt lat="41.626666" lon="2.385615">
        <ele>212.600000</ele>
        <time>1970-01-01T00:21:30Z</time>
      </trkpt>
      <trkpt lat="41.626659" lon="2.385588">
        <ele>212.600000</ele>
        <time>1970-01-01T00:21:31Z</time>
      </trkpt>
      <trkpt lat="41.626637" lon="2.385552">
        <ele>212.600000</ele>
        <time>1970-01-01T00:21:32Z</time>
      </trkpt>
      <trkpt lat="41.626637" lon="2.385552">
        <ele>212.800000</ele>
        <time>1970-01-01T00:21:33Z</time>
      </trkpt>
      <trkpt lat="41.626634" lon="2.385527">
        <ele>212.800000</ele>
        <time>1970-01-01T00:21:34Z</time>
      </trkpt>
      <trkpt lat="41.626634" lon="2.385527">
        <ele>212.800000</ele>
        <time>1970-01-01T00:21:35Z</time>
      </trkpt>
      <trkpt lat="41.626637" lon="2.385492">
        <ele>213.200000</ele>
        <time>1970-01-01T00:21:36Z</time>
      </trkpt>
      <trkpt lat="41.626637" lon="2.385492">
        <ele>213.200000</ele>
        <time>1970-01-01T00:21:37Z</time>
      </trkpt>
      <trkpt lat="41.626636" lon="2.385479">
        <ele>213.200000</ele>
        <time>1970-01-01T00:21:38Z</time>
      </trkpt>
      <trkpt lat="41.626621" lon="2.385438">
        <ele>213.200000</ele>
        <time>1970-01-01T00:21:39Z</time>
      </trkpt>
      <trkpt lat="41.626611" lon="2.385412">
        <ele>213.400000</ele>
        <time>1970-01-01T00:21:40Z</time>
      </trkpt>
      <trkpt lat="41.626592" lon="2.385360">
        <ele>213.400000</ele>
        <time>1970-01-01T00:21:41Z</time>
      </trkpt>
      <trkpt lat="41.626592" lon="2.385360">
        <ele>213.400000</ele>
        <time>1970-01-01T00:21:42Z</time>
      </trkpt>
      <trkpt lat="41.626582" lon="2.385328">
        <ele>213.200000</ele>
        <time>1970-01-01T00:21:43Z</time>
      </trkpt>
      <trkpt lat="41.626582" lon="2.385328">
        <ele>213.000000</ele>
        <time>1970-01-01T00:21:44Z</time>
      </trkpt>
      <trkpt lat="41.626579" lon="2.385303">
        <ele>212.800000</ele>
        <time>1970-01-01T00:21:45Z</time>
      </trkpt>
      <trkpt lat="41.626573" lon="2.385273">
        <ele>212.400000</ele>
        <time>1970-01-01T00:21:46Z</time>
      </trkpt>
      <trkpt lat="41.626557" lon="2.385243">
        <ele>212.000000</ele>
        <time>1970-01-01T00:21:47Z</time>
      </trkpt>
      <trkpt lat="41.626544" lon="2.385218">
        <ele>211.800000</ele>
        <time>1970-01-01T00:21:48Z</time>
      </trkpt>
      <trkpt lat="41.626538" lon="2.385192">
        <ele>211.600000</ele>
        <time>1970-01-01T00:21:49Z</time>
      </trkpt>
      <trkpt lat="41.626525" lon="2.385157">
        <ele>211.200000</ele>
        <time>1970-01-01T00:21:50Z</time>
      </trkpt>
      <trkpt lat="41.626525" lon="2.385157">
        <ele>211.000000</ele>
        <time>1970-01-01T00:21:51Z</time>
      </trkpt>
      <trkpt lat="41.626518" lon="2.385125">
        <ele>211.000000</ele>
        <time>1970-01-01T00:21:52Z</time>
      </trkpt>
      <trkpt lat="41.626518" lon="2.385125">
        <ele>210.600000</ele>
        <time>1970-01-01T00:21:53Z</time>
      </trkpt>
      <trkpt lat="41.626518" lon="2.385093">
        <ele>210.400000</ele>
        <time>1970-01-01T00:21:54Z</time>
      </trkpt>
      <trkpt lat="41.626518" lon="2.385093">
        <ele>210.000000</ele>
        <time>1970-01-01T00:21:55Z</time>
      </trkpt>
      <trkpt lat="41.626515" lon="2.385067">
        <ele>209.600000</ele>
        <time>1970-01-01T00:21:56Z</time>
      </trkpt>
      <trkpt lat="41.626515" lon="2.385067">
        <ele>209.200000</ele>
        <time>1970-01-01T00:21:57Z</time>
      </trkpt>
      <trkpt lat="41.626512" lon="2.385033">
        <ele>209.000000</ele>
        <time>1970-01-01T00:21:58Z</time>
      </trkpt>
      <trkpt lat="41.626512" lon="2.385033">
        <ele>208.600000</ele>
        <time>1970-01-01T00:21:59Z</time>
      </trkpt>
      <trkpt lat="41.626518" lon="2.385007">
        <ele>208.400000</ele>
        <time>1970-01-01T00:22:00Z</time>
      </trkpt>
      <trkpt lat="41.626518" lon="2.385007">
        <ele>208.200000</ele>
        <time>1970-01-01T00:22:01Z</time>
      </trkpt>
      <trkpt lat="41.626522" lon="2.384978">
        <ele>208.000000</ele>
        <time>1970-01-01T00:22:02Z</time>
      </trkpt>
      <trkpt lat="41.626522" lon="2.384978">
        <ele>207.800000</ele>
        <time>1970-01-01T00:22:03Z</time>
      </trkpt>
      <trkpt lat="41.626518" lon="2.384947">
        <ele>207.400000</ele>
        <time>1970-01-01T00:22:04Z</time>
      </trkpt>
      <trkpt lat="41.626518" lon="2.384947">
        <ele>207.200000</ele>
        <time>1970-01-01T00:22:05Z</time>
      </trkpt>
      <trkpt lat="41.626515" lon="2.384917">
        <ele>207.000000</ele>
        <time>1970-01-01T00:22:06Z</time>
      </trkpt>
      <trkpt lat="41.626515" lon="2.384917">
        <ele>206.600000</ele>
        <time>1970-01-01T00:22:07Z</time>
      </trkpt>
      <trkpt lat="41.626515" lon="2.384917">
        <ele>206.400000</ele>
        <time>1970-01-01T00:22:08Z</time>
      </trkpt>
      <trkpt lat="41.626506" lon="2.384895">
        <ele>206.200000</ele>
        <time>1970-01-01T00:22:09Z</time>
      </trkpt>
      <trkpt lat="41.626506" lon="2.384895">
        <ele>206.000000</ele>
        <time>1970-01-01T00:22:10Z</time>
      </trkpt>
      <trkpt lat="41.626502" lon="2.384865">
        <ele>205.800000</ele>
        <time>1970-01-01T00:22:11Z</time>
      </trkpt>
      <trkpt lat="41.626502" lon="2.384865">
        <ele>205.600000</ele>
        <time>1970-01-01T00:22:12Z</time>
      </trkpt>
      <trkpt lat="41.626496" lon="2.384830">
        <ele>205.200000</ele>
        <time>1970-01-01T00:22:13Z</time>
      </trkpt>
      <trkpt lat="41.626496" lon="2.384830">
        <ele>204.800000</ele>
        <time>1970-01-01T00:22:14Z</time>
      </trkpt>
      <trkpt lat="41.626493" lon="2.384803">
        <ele>204.600000</ele>
        <time>1970-01-01T00:22:15Z</time>
      </trkpt>
      <trkpt lat="41.626493" lon="2.384803">
        <ele>204.600000</ele>
        <time>1970-01-01T00:22:16Z</time>
      </trkpt>
      <trkpt lat="41.626486" lon="2.384777">
        <ele>204.200000</ele>
        <time>1970-01-01T00:22:17Z</time>
      </trkpt>
      <trkpt lat="41.626486" lon="2.384777">
        <ele>203.800000</ele>
        <time>1970-01-01T00:22:18Z</time>
      </trkpt>
      <trkpt lat="41.626483" lon="2.384740">
        <ele>203.400000</ele>
        <time>1970-01-01T00:22:19Z</time>
      </trkpt>
      <trkpt lat="41.626483" lon="2.384740">
        <ele>203.200000</ele>
        <time>1970-01-01T00:22:20Z</time>
      </trkpt>
      <trkpt lat="41.626483" lon="2.384740">
        <ele>203.000000</ele>
        <time>1970-01-01T00:22:21Z</time>
      </trkpt>
      <trkpt lat="41.626480" lon="2.384715">
        <ele>202.600000</ele>
        <time>1970-01-01T00:22:22Z</time>
      </trkpt>
      <trkpt lat="41.626480" lon="2.384715">
        <ele>202.400000</ele>
        <time>1970-01-01T00:22:23Z</time>
      </trkpt>
      <trkpt lat="41.626467" lon="2.384690">
        <ele>202.200000</ele>
        <time>1970-01-01T00:22:24Z</time>
      </trkpt>
      <trkpt lat="41.626467" lon="2.384690">
        <ele>201.800000</ele>
        <time>1970-01-01T00:22:25Z</time>
      </trkpt>
      <trkpt lat="41.626467" lon="2.384663">
        <ele>201.600000</ele>
        <time>1970-01-01T00:22:26Z</time>
      </trkpt>
      <trkpt lat="41.626467" lon="2.384663">
        <ele>201.200000</ele>
        <time>1970-01-01T00:22:27Z</time>
      </trkpt>
      <trkpt lat="41.626477" lon="2.384638">
        <ele>200.800000</ele>
        <time>1970-01-01T00:22:28Z</time>
      </trkpt>
      <trkpt lat="41.626477" lon="2.384638">
        <ele>200.600000</ele>
        <time>1970-01-01T00:22:29Z</time>
      </trkpt>
      <trkpt lat="41.626486" lon="2.384608">
        <ele>200.400000</ele>
        <time>1970-01-01T00:22:30Z</time>
      </trkpt>
      <trkpt lat="41.626486" lon="2.384608">
        <ele>200.000000</ele>
        <time>1970-01-01T00:22:31Z</time>
      </trkpt>
      <trkpt lat="41.626486" lon="2.384608">
        <ele>199.800000</ele>
        <time>1970-01-01T00:22:32Z</time>
      </trkpt>
      <trkpt lat="41.626474" lon="2.384587">
        <ele>199.400000</ele>
        <time>1970-01-01T00:22:33Z</time>
      </trkpt>
      <trkpt lat="41.626474" lon="2.384587">
        <ele>199.200000</ele>
        <time>1970-01-01T00:22:34Z</time>
      </trkpt>
      <trkpt lat="41.626474" lon="2.384587">
        <ele>199.000000</ele>
        <time>1970-01-01T00:22:35Z</time>
      </trkpt>
      <trkpt lat="41.626461" lon="2.384565">
        <ele>198.800000</ele>
        <time>1970-01-01T00:22:36Z</time>
      </trkpt>
      <trkpt lat="41.626461" lon="2.384565">
        <ele>198.400000</ele>
        <time>1970-01-01T00:22:37Z</time>
      </trkpt>
      <trkpt lat="41.626461" lon="2.384565">
        <ele>198.000000</ele>
        <time>1970-01-01T00:22:38Z</time>
      </trkpt>
      <trkpt lat="41.626445" lon="2.384552">
        <ele>197.800000</ele>
        <time>1970-01-01T00:22:39Z</time>
      </trkpt>
      <trkpt lat="41.626445" lon="2.384552">
        <ele>197.400000</ele>
        <time>1970-01-01T00:22:40Z</time>
      </trkpt>
      <trkpt lat="41.626435" lon="2.384530">
        <ele>197.200000</ele>
        <time>1970-01-01T00:22:41Z</time>
      </trkpt>
      <trkpt lat="41.626435" lon="2.384530">
        <ele>196.800000</ele>
        <time>1970-01-01T00:22:42Z</time>
      </trkpt>
      <trkpt lat="41.626435" lon="2.384530">
        <ele>196.600000</ele>
        <time>1970-01-01T00:22:43Z</time>
      </trkpt>
      <trkpt lat="41.626426" lon="2.384502">
        <ele>196.200000</ele>
        <time>1970-01-01T00:22:44Z</time>
      </trkpt>
      <trkpt lat="41.626426" lon="2.384502">
        <ele>196.000000</ele>
        <time>1970-01-01T00:22:45Z</time>
      </trkpt>
      <trkpt lat="41.626426" lon="2.384502">
        <ele>195.600000</ele>
        <time>1970-01-01T00:22:46Z</time>
      </trkpt>
      <trkpt lat="41.626422" lon="2.384467">
        <ele>195.200000</ele>
        <time>1970-01-01T00:22:47Z</time>
      </trkpt>
      <trkpt lat="41.626422" lon="2.384467">
        <ele>194.800000</ele>
        <time>1970-01-01T00:22:48Z</time>
      </trkpt>
      <trkpt lat="41.626422" lon="2.384467">
        <ele>194.600000</ele>
        <time>1970-01-01T00:22:49Z</time>
      </trkpt>
      <trkpt lat="41.626413" lon="2.384437">
        <ele>194.200000</ele>
        <time>1970-01-01T00:22:50Z</time>
      </trkpt>
      <trkpt lat="41.626413" lon="2.384437">
        <ele>194.000000</ele>
        <time>1970-01-01T00:22:51Z</time>
      </trkpt>
      <trkpt lat="41.626413" lon="2.384437">
        <ele>193.600000</ele>
        <time>1970-01-01T00:22:52Z</time>
      </trkpt>
      <trkpt lat="41.626400" lon="2.384415">
        <ele>193.400000</ele>
        <time>1970-01-01T00:22:53Z</time>
      </trkpt>
      <trkpt lat="41.626400" lon="2.384415">
        <ele>193.200000</ele>
        <time>1970-01-01T00:22:54Z</time>
      </trkpt>
      <trkpt lat="41.626400" lon="2.384390">
        <ele>192.800000</ele>
        <time>1970-01-01T00:22:55Z</time>
      </trkpt>
      <trkpt lat="41.626400" lon="2.384390">
        <ele>192.400000</ele>
        <time>1970-01-01T00:22:56Z</time>
      </trkpt>
      <trkpt lat="41.626397" lon="2.384352">
        <ele>192.200000</ele>
        <time>1970-01-01T00:22:57Z</time>
      </trkpt>
      <trkpt lat="41.626397" lon="2.384352">
        <ele>192.000000</ele>
        <time>1970-01-01T00:22:58Z</time>
      </trkpt>
      <trkpt lat="41.626387" lon="2.384318">
        <ele>191.600000</ele>
        <time>1970-01-01T00:22:59Z</time>
      </trkpt>
      <trkpt lat="41.626387" lon="2.384318">
        <ele>191.400000</ele>
        <time>1970-01-01T00:23:00Z</time>
      </trkpt>
      <trkpt lat="41.626387" lon="2.384288">
        <ele>191.200000</ele>
        <time>1970-01-01T00:23:01Z</time>
      </trkpt>
      <trkpt lat="41.626387" lon="2.384288">
        <ele>191.000000</ele>
        <time>1970-01-01T00:23:02Z</time>
      </trkpt>
      <trkpt lat="41.626394" lon="2.384255">
        <ele>190.400000</ele>
        <time>1970-01-01T00:23:03Z</time>
      </trkpt>
      <trkpt lat="41.626394" lon="2.384255">
        <ele>190.200000</ele>
        <time>1970-01-01T00:23:04Z</time>
      </trkpt>
      <trkpt lat="41.626400" lon="2.384228">
        <ele>190.000000</ele>
        <time>1970-01-01T00:23:05Z</time>
      </trkpt>
      <trkpt lat="41.626406" lon="2.384195">
        <ele>189.800000</ele>
        <time>1970-01-01T00:23:06Z</time>
      </trkpt>
      <trkpt lat="41.626406" lon="2.384195">
        <ele>189.400000</ele>
        <time>1970-01-01T00:23:07Z</time>
      </trkpt>
      <trkpt lat="41.626426" lon="2.384175">
        <ele>189.000000</ele>
        <time>1970-01-01T00:23:08Z</time>
      </trkpt>
      <trkpt lat="41.626426" lon="2.384175">
        <ele>188.800000</ele>
        <time>1970-01-01T00:23:09Z</time>
      </trkpt>
      <trkpt lat="41.626426" lon="2.384175">
        <ele>188.400000</ele>
        <time>1970-01-01T00:23:10Z</time>
      </trkpt>
      <trkpt lat="41.626426" lon="2.384175">
        <ele>188.200000</ele>
        <time>1970-01-01T00:23:11Z</time>
      </trkpt>
      <trkpt lat="41.626442" lon="2.384162">
        <ele>188.000000</ele>
        <time>1970-01-01T00:23:12Z</time>
      </trkpt>
      <trkpt lat="41.626442" lon="2.384162">
        <ele>187.600000</ele>
        <time>1970-01-01T00:23:13Z</time>
      </trkpt>
      <trkpt lat="41.626442" lon="2.384162">
        <ele>187.400000</ele>
        <time>1970-01-01T00:23:14Z</time>
      </trkpt>
      <trkpt lat="41.626454" lon="2.384142">
        <ele>187.200000</ele>
        <time>1970-01-01T00:23:15Z</time>
      </trkpt>
      <trkpt lat="41.626454" lon="2.384142">
        <ele>187.000000</ele>
        <time>1970-01-01T00:23:16Z</time>
      </trkpt>
      <trkpt lat="41.626461" lon="2.384112">
        <ele>186.600000</ele>
        <time>1970-01-01T00:23:17Z</time>
      </trkpt>
      <trkpt lat="41.626461" lon="2.384112">
        <ele>186.200000</ele>
        <time>1970-01-01T00:23:18Z</time>
      </trkpt>
      <trkpt lat="41.626461" lon="2.384112">
        <ele>185.800000</ele>
        <time>1970-01-01T00:23:19Z</time>
      </trkpt>
      <trkpt lat="41.626461" lon="2.384112">
        <ele>185.600000</ele>
        <time>1970-01-01T00:23:20Z</time>
      </trkpt>
      <trkpt lat="41.626474" lon="2.384093">
        <ele>185.400000</ele>
        <time>1970-01-01T00:23:21Z</time>
      </trkpt>
      <trkpt lat="41.626474" lon="2.384093">
        <ele>185.000000</ele>
        <time>1970-01-01T00:23:22Z</time>
      </trkpt>
      <trkpt lat="41.626474" lon="2.384093">
        <ele>184.600000</ele>
        <time>1970-01-01T00:23:23Z</time>
      </trkpt>
      <trkpt lat="41.626483" lon="2.384072">
        <ele>184.200000</ele>
        <time>1970-01-01T00:23:24Z</time>
      </trkpt>
      <trkpt lat="41.626483" lon="2.384072">
        <ele>184.000000</ele>
        <time>1970-01-01T00:23:25Z</time>
      </trkpt>
      <trkpt lat="41.626483" lon="2.384072">
        <ele>183.600000</ele>
        <time>1970-01-01T00:23:26Z</time>
      </trkpt>
      <trkpt lat="41.626496" lon="2.384052">
        <ele>183.400000</ele>
        <time>1970-01-01T00:23:27Z</time>
      </trkpt>
      <trkpt lat="41.626496" lon="2.384052">
        <ele>183.200000</ele>
        <time>1970-01-01T00:23:28Z</time>
      </trkpt>
      <trkpt lat="41.626506" lon="2.384028">
        <ele>182.800000</ele>
        <time>1970-01-01T00:23:29Z</time>
      </trkpt>
      <trkpt lat="41.626506" lon="2.384028">
        <ele>182.800000</ele>
        <time>1970-01-01T00:23:30Z</time>
      </trkpt>
      <trkpt lat="41.626522" lon="2.383998">
        <ele>182.400000</ele>
        <time>1970-01-01T00:23:31Z</time>
      </trkpt>
      <trkpt lat="41.626522" lon="2.383998">
        <ele>182.200000</ele>
        <time>1970-01-01T00:23:32Z</time>
      </trkpt>
      <trkpt lat="41.626544" lon="2.383975">
        <ele>182.000000</ele>
        <time>1970-01-01T00:23:33Z</time>
      </trkpt>
      <trkpt lat="41.626544" lon="2.383975">
        <ele>181.600000</ele>
        <time>1970-01-01T00:23:34Z</time>
      </trkpt>
      <trkpt lat="41.626560" lon="2.383960">
        <ele>181.400000</ele>
        <time>1970-01-01T00:23:35Z</time>
      </trkpt>
      <trkpt lat="41.626560" lon="2.383960">
        <ele>181.200000</ele>
        <time>1970-01-01T00:23:36Z</time>
      </trkpt>
      <trkpt lat="41.626579" lon="2.383942">
        <ele>180.800000</ele>
        <time>1970-01-01T00:23:37Z</time>
      </trkpt>
      <trkpt lat="41.626579" lon="2.383942">
        <ele>180.600000</ele>
        <time>1970-01-01T00:23:38Z</time>
      </trkpt>
      <trkpt lat="41.626598" lon="2.383933">
        <ele>180.400000</ele>
        <time>1970-01-01T00:23:39Z</time>
      </trkpt>
      <trkpt lat="41.626598" lon="2.383933">
        <ele>180.200000</ele>
        <time>1970-01-01T00:23:40Z</time>
      </trkpt>
      <trkpt lat="41.626624" lon="2.383920">
        <ele>180.000000</ele>
        <time>1970-01-01T00:23:41Z</time>
      </trkpt>
      <trkpt lat="41.626624" lon="2.383920">
        <ele>179.600000</ele>
        <time>1970-01-01T00:23:42Z</time>
      </trkpt>
      <trkpt lat="41.626624" lon="2.383920">
        <ele>179.400000</ele>
        <time>1970-01-01T00:23:43Z</time>
      </trkpt>
      <trkpt lat="41.626643" lon="2.383908">
        <ele>179.000000</ele>
        <time>1970-01-01T00:23:44Z</time>
      </trkpt>
      <trkpt lat="41.626643" lon="2.383908">
        <ele>178.800000</ele>
        <time>1970-01-01T00:23:45Z</time>
      </trkpt>
      <trkpt lat="41.626666" lon="2.383885">
        <ele>178.400000</ele>
        <time>1970-01-01T00:23:46Z</time>
      </trkpt>
      <trkpt lat="41.626666" lon="2.383885">
        <ele>178.200000</ele>
        <time>1970-01-01T00:23:47Z</time>
      </trkpt>
      <trkpt lat="41.626685" lon="2.383880">
        <ele>177.800000</ele>
        <time>1970-01-01T00:23:48Z</time>
      </trkpt>
      <trkpt lat="41.626704" lon="2.383865">
        <ele>177.400000</ele>
        <time>1970-01-01T00:23:49Z</time>
      </trkpt>
      <trkpt lat="41.626704" lon="2.383865">
        <ele>177.000000</ele>
        <time>1970-01-01T00:23:50Z</time>
      </trkpt>
      <trkpt lat="41.626717" lon="2.383845">
        <ele>176.800000</ele>
        <time>1970-01-01T00:23:51Z</time>
      </trkpt>
      <trkpt lat="41.626717" lon="2.383845">
        <ele>176.400000</ele>
        <time>1970-01-01T00:23:52Z</time>
      </trkpt>
      <trkpt lat="41.626717" lon="2.383845">
        <ele>176.000000</ele>
        <time>1970-01-01T00:23:53Z</time>
      </trkpt>
      <trkpt lat="41.626736" lon="2.383853">
        <ele>175.600000</ele>
        <time>1970-01-01T00:23:54Z</time>
      </trkpt>
      <trkpt lat="41.626736" lon="2.383853">
        <ele>175.200000</ele>
        <time>1970-01-01T00:23:55Z</time>
      </trkpt>
      <trkpt lat="41.626755" lon="2.383847">
        <ele>174.800000</ele>
        <time>1970-01-01T00:23:56Z</time>
      </trkpt>
      <trkpt lat="41.626755" lon="2.383847">
        <ele>174.400000</ele>
        <time>1970-01-01T00:23:57Z</time>
      </trkpt>
      <trkpt lat="41.626771" lon="2.383828">
        <ele>173.800000</ele>
        <time>1970-01-01T00:23:58Z</time>
      </trkpt>
      <trkpt lat="41.626771" lon="2.383828">
        <ele>173.600000</ele>
        <time>1970-01-01T00:23:59Z</time>
      </trkpt>
      <trkpt lat="41.626794" lon="2.383825">
        <ele>173.200000</ele>
        <time>1970-01-01T00:24:00Z</time>
      </trkpt>
      <trkpt lat="41.626794" lon="2.383825">
        <ele>172.800000</ele>
        <time>1970-01-01T00:24:01Z</time>
      </trkpt>
      <trkpt lat="41.626794" lon="2.383825">
        <ele>172.800000</ele>
        <time>1970-01-01T00:24:02Z</time>
      </trkpt>
      <trkpt lat="41.626819" lon="2.383832">
        <ele>172.400000</ele>
        <time>1970-01-01T00:24:03Z</time>
      </trkpt>
      <trkpt lat="41.626819" lon="2.383832">
        <ele>171.800000</ele>
        <time>1970-01-01T00:24:04Z</time>
      </trkpt>
      <trkpt lat="41.626819" lon="2.383832">
        <ele>171.600000</ele>
        <time>1970-01-01T00:24:05Z</time>
      </trkpt>
      <trkpt lat="41.626845" lon="2.383828">
        <ele>171.400000</ele>
        <time>1970-01-01T00:24:06Z</time>
      </trkpt>
      <trkpt lat="41.626845" lon="2.383828">
        <ele>171.000000</ele>
        <time>1970-01-01T00:24:07Z</time>
      </trkpt>
      <trkpt lat="41.626874" lon="2.383817">
        <ele>170.600000</ele>
        <time>1970-01-01T00:24:08Z</time>
      </trkpt>
      <trkpt lat="41.626874" lon="2.383817">
        <ele>170.400000</ele>
        <time>1970-01-01T00:24:09Z</time>
      </trkpt>
      <trkpt lat="41.626899" lon="2.383803">
        <ele>170.200000</ele>
        <time>1970-01-01T00:24:10Z</time>
      </trkpt>
      <trkpt lat="41.626899" lon="2.383803">
        <ele>170.200000</ele>
        <time>1970-01-01T00:24:11Z</time>
      </trkpt>
      <trkpt lat="41.626928" lon="2.383775">
        <ele>170.000000</ele>
        <time>1970-01-01T00:24:12Z</time>
      </trkpt>
      <trkpt lat="41.626928" lon="2.383775">
        <ele>169.800000</ele>
        <time>1970-01-01T00:24:13Z</time>
      </trkpt>
      <trkpt lat="41.626954" lon="2.383750">
        <ele>169.600000</ele>
        <time>1970-01-01T00:24:14Z</time>
      </trkpt>
      <trkpt lat="41.626954" lon="2.383750">
        <ele>169.600000</ele>
        <time>1970-01-01T00:24:15Z</time>
      </trkpt>
      <trkpt lat="41.626979" lon="2.383742">
        <ele>169.400000</ele>
        <time>1970-01-01T00:24:16Z</time>
      </trkpt>
      <trkpt lat="41.626998" lon="2.383727">
        <ele>169.200000</ele>
        <time>1970-01-01T00:24:17Z</time>
      </trkpt>
      <trkpt lat="41.627021" lon="2.383703">
        <ele>169.400000</ele>
        <time>1970-01-01T00:24:18Z</time>
      </trkpt>
      <trkpt lat="41.627040" lon="2.383680">
        <ele>169.400000</ele>
        <time>1970-01-01T00:24:19Z</time>
      </trkpt>
      <trkpt lat="41.627059" lon="2.383653">
        <ele>169.400000</ele>
        <time>1970-01-01T00:24:20Z</time>
      </trkpt>
      <trkpt lat="41.627075" lon="2.383622">
        <ele>169.200000</ele>
        <time>1970-01-01T00:24:21Z</time>
      </trkpt>
      <trkpt lat="41.627088" lon="2.383585">
        <ele>169.200000</ele>
        <time>1970-01-01T00:24:22Z</time>
      </trkpt>
      <trkpt lat="41.627091" lon="2.383553">
        <ele>169.400000</ele>
        <time>1970-01-01T00:24:23Z</time>
      </trkpt>
      <trkpt lat="41.627094" lon="2.383518">
        <ele>169.400000</ele>
        <time>1970-01-01T00:24:24Z</time>
      </trkpt>
      <trkpt lat="41.627094" lon="2.383482">
        <ele>169.800000</ele>
        <time>1970-01-01T00:24:25Z</time>
      </trkpt>
      <trkpt lat="41.627094" lon="2.383448">
        <ele>169.800000</ele>
        <time>1970-01-01T00:24:26Z</time>
      </trkpt>
      <trkpt lat="41.627088" lon="2.383415">
        <ele>170.800000</ele>
        <time>1970-01-01T00:24:27Z</time>
      </trkpt>
      <trkpt lat="41.627072" lon="2.383380">
        <ele>170.800000</ele>
        <time>1970-01-01T00:24:28Z</time>
      </trkpt>
      <trkpt lat="41.627056" lon="2.383345">
        <ele>171.200000</ele>
        <time>1970-01-01T00:24:29Z</time>
      </trkpt>
      <trkpt lat="41.627037" lon="2.383305">
        <ele>171.400000</ele>
        <time>1970-01-01T00:24:30Z</time>
      </trkpt>
      <trkpt lat="41.627018" lon="2.383270">
        <ele>171.600000</ele>
        <time>1970-01-01T00:24:31Z</time>
      </trkpt>
      <trkpt lat="41.626992" lon="2.383240">
        <ele>172.200000</ele>
        <time>1970-01-01T00:24:32Z</time>
      </trkpt>
      <trkpt lat="41.626960" lon="2.383218">
        <ele>172.400000</ele>
        <time>1970-01-01T00:24:33Z</time>
      </trkpt>
      <trkpt lat="41.626931" lon="2.383202">
        <ele>173.200000</ele>
        <time>1970-01-01T00:24:34Z</time>
      </trkpt>
      <trkpt lat="41.626893" lon="2.383187">
        <ele>173.600000</ele>
        <time>1970-01-01T00:24:35Z</time>
      </trkpt>
      <trkpt lat="41.626861" lon="2.383175">
        <ele>174.200000</ele>
        <time>1970-01-01T00:24:36Z</time>
      </trkpt>
      <trkpt lat="41.626822" lon="2.383167">
        <ele>174.600000</ele>
        <time>1970-01-01T00:24:37Z</time>
      </trkpt>
      <trkpt lat="41.626794" lon="2.383155">
        <ele>175.200000</ele>
        <time>1970-01-01T00:24:38Z</time>
      </trkpt>
      <trkpt lat="41.626758" lon="2.383142">
        <ele>175.800000</ele>
        <time>1970-01-01T00:24:39Z</time>
      </trkpt>
      <trkpt lat="41.626733" lon="2.383128">
        <ele>176.200000</ele>
        <time>1970-01-01T00:24:40Z</time>
      </trkpt>
      <trkpt lat="41.626704" lon="2.383112">
        <ele>177.000000</ele>
        <time>1970-01-01T00:24:41Z</time>
      </trkpt>
      <trkpt lat="41.626672" lon="2.383093">
        <ele>177.400000</ele>
        <time>1970-01-01T00:24:42Z</time>
      </trkpt>
      <trkpt lat="41.626637" lon="2.383078">
        <ele>178.200000</ele>
        <time>1970-01-01T00:24:43Z</time>
      </trkpt>
      <trkpt lat="41.626602" lon="2.383060">
        <ele>178.600000</ele>
        <time>1970-01-01T00:24:44Z</time>
      </trkpt>
      <trkpt lat="41.626576" lon="2.383040">
        <ele>179.400000</ele>
        <time>1970-01-01T00:24:45Z</time>
      </trkpt>
      <trkpt lat="41.626544" lon="2.383020">
        <ele>179.800000</ele>
        <time>1970-01-01T00:24:46Z</time>
      </trkpt>
      <trkpt lat="41.626518" lon="2.382997">
        <ele>180.400000</ele>
        <time>1970-01-01T00:24:47Z</time>
      </trkpt>
      <trkpt lat="41.626493" lon="2.382970">
        <ele>181.000000</ele>
        <time>1970-01-01T00:24:48Z</time>
      </trkpt>
      <trkpt lat="41.626474" lon="2.382942">
        <ele>181.400000</ele>
        <time>1970-01-01T00:24:49Z</time>
      </trkpt>
      <trkpt lat="41.626458" lon="2.382917">
        <ele>182.200000</ele>
        <time>1970-01-01T00:24:50Z</time>
      </trkpt>
      <trkpt lat="41.626438" lon="2.382887">
        <ele>182.800000</ele>
        <time>1970-01-01T00:24:51Z</time>
      </trkpt>
      <trkpt lat="41.626422" lon="2.382860">
        <ele>183.400000</ele>
        <time>1970-01-01T00:24:52Z</time>
      </trkpt>
      <trkpt lat="41.626413" lon="2.382833">
        <ele>183.800000</ele>
        <time>1970-01-01T00:24:53Z</time>
      </trkpt>
      <trkpt lat="41.626400" lon="2.382803">
        <ele>184.400000</ele>
        <time>1970-01-01T00:24:54Z</time>
      </trkpt>
      <trkpt lat="41.626397" lon="2.382772">
        <ele>184.600000</ele>
        <time>1970-01-01T00:24:55Z</time>
      </trkpt>
      <trkpt lat="41.626394" lon="2.382732">
        <ele>185.400000</ele>
        <time>1970-01-01T00:24:56Z</time>
      </trkpt>
      <trkpt lat="41.626394" lon="2.382685">
        <ele>185.400000</ele>
        <time>1970-01-01T00:24:57Z</time>
      </trkpt>
      <trkpt lat="41.626394" lon="2.382640">
        <ele>186.200000</ele>
        <time>1970-01-01T00:24:58Z</time>
      </trkpt>
      <trkpt lat="41.626397" lon="2.382595">
        <ele>186.200000</ele>
        <time>1970-01-01T00:24:59Z</time>
      </trkpt>
      <trkpt lat="41.626400" lon="2.382557">
        <ele>186.600000</ele>
        <time>1970-01-01T00:25:00Z</time>
      </trkpt>
      <trkpt lat="41.626406" lon="2.382518">
        <ele>186.800000</ele>
        <time>1970-01-01T00:25:01Z</time>
      </trkpt>
      <trkpt lat="41.626406" lon="2.382478">
        <ele>187.200000</ele>
        <time>1970-01-01T00:25:02Z</time>
      </trkpt>
      <trkpt lat="41.626413" lon="2.382435">
        <ele>187.400000</ele>
        <time>1970-01-01T00:25:03Z</time>
      </trkpt>
      <trkpt lat="41.626416" lon="2.382395">
        <ele>187.800000</ele>
        <time>1970-01-01T00:25:04Z</time>
      </trkpt>
      <trkpt lat="41.626416" lon="2.382347">
        <ele>187.800000</ele>
        <time>1970-01-01T00:25:05Z</time>
      </trkpt>
      <trkpt lat="41.626413" lon="2.382298">
        <ele>188.200000</ele>
        <time>1970-01-01T00:25:06Z</time>
      </trkpt>
      <trkpt lat="41.626400" lon="2.382252">
        <ele>188.200000</ele>
        <time>1970-01-01T00:25:07Z</time>
      </trkpt>
      <trkpt lat="41.626381" lon="2.382215">
        <ele>188.400000</ele>
        <time>1970-01-01T00:25:08Z</time>
      </trkpt>
      <trkpt lat="41.626358" lon="2.382182">
        <ele>188.600000</ele>
        <time>1970-01-01T00:25:09Z</time>
      </trkpt>
      <trkpt lat="41.626333" lon="2.382153">
        <ele>188.800000</ele>
        <time>1970-01-01T00:25:10Z</time>
      </trkpt>
      <trkpt lat="41.626301" lon="2.382130">
        <ele>188.800000</ele>
        <time>1970-01-01T00:25:11Z</time>
      </trkpt>
      <trkpt lat="41.626266" lon="2.382110">
        <ele>189.000000</ele>
        <time>1970-01-01T00:25:12Z</time>
      </trkpt>
      <trkpt lat="41.626240" lon="2.382090">
        <ele>189.400000</ele>
        <time>1970-01-01T00:25:13Z</time>
      </trkpt>
      <trkpt lat="41.626218" lon="2.382073">
        <ele>189.400000</ele>
        <time>1970-01-01T00:25:14Z</time>
      </trkpt>
      <trkpt lat="41.626195" lon="2.382058">
        <ele>189.600000</ele>
        <time>1970-01-01T00:25:15Z</time>
      </trkpt>
      <trkpt lat="41.626163" lon="2.382043">
        <ele>189.800000</ele>
        <time>1970-01-01T00:25:16Z</time>
      </trkpt>
      <trkpt lat="41.626138" lon="2.382033">
        <ele>190.200000</ele>
        <time>1970-01-01T00:25:17Z</time>
      </trkpt>
      <trkpt lat="41.626106" lon="2.382023">
        <ele>190.200000</ele>
        <time>1970-01-01T00:25:18Z</time>
      </trkpt>
      <trkpt lat="41.626077" lon="2.382015">
        <ele>190.400000</ele>
        <time>1970-01-01T00:25:19Z</time>
      </trkpt>
      <trkpt lat="41.626042" lon="2.382005">
        <ele>190.400000</ele>
        <time>1970-01-01T00:25:20Z</time>
      </trkpt>
      <trkpt lat="41.626010" lon="2.382000">
        <ele>190.600000</ele>
        <time>1970-01-01T00:25:21Z</time>
      </trkpt>
      <trkpt lat="41.625981" lon="2.381992">
        <ele>190.600000</ele>
        <time>1970-01-01T00:25:22Z</time>
      </trkpt>
      <trkpt lat="41.625949" lon="2.381985">
        <ele>190.800000</ele>
        <time>1970-01-01T00:25:23Z</time>
      </trkpt>
      <trkpt lat="41.625917" lon="2.381977">
        <ele>191.000000</ele>
        <time>1970-01-01T00:25:24Z</time>
      </trkpt>
      <trkpt lat="41.625891" lon="2.381973">
        <ele>191.200000</ele>
        <time>1970-01-01T00:25:25Z</time>
      </trkpt>
      <trkpt lat="41.625859" lon="2.381963">
        <ele>191.400000</ele>
        <time>1970-01-01T00:25:26Z</time>
      </trkpt>
      <trkpt lat="41.625827" lon="2.381955">
        <ele>191.400000</ele>
        <time>1970-01-01T00:25:27Z</time>
      </trkpt>
      <trkpt lat="41.625792" lon="2.381942">
        <ele>191.800000</ele>
        <time>1970-01-01T00:25:28Z</time>
      </trkpt>
      <trkpt lat="41.625763" lon="2.381932">
        <ele>191.800000</ele>
        <time>1970-01-01T00:25:29Z</time>
      </trkpt>
      <trkpt lat="41.625728" lon="2.381922">
        <ele>192.200000</ele>
        <time>1970-01-01T00:25:30Z</time>
      </trkpt>
      <trkpt lat="41.625702" lon="2.381907">
        <ele>192.400000</ele>
        <time>1970-01-01T00:25:31Z</time>
      </trkpt>
      <trkpt lat="41.625677" lon="2.381888">
        <ele>192.600000</ele>
        <time>1970-01-01T00:25:32Z</time>
      </trkpt>
      <trkpt lat="41.625648" lon="2.381867">
        <ele>192.600000</ele>
        <time>1970-01-01T00:25:33Z</time>
      </trkpt>
      <trkpt lat="41.625622" lon="2.381840">
        <ele>193.000000</ele>
        <time>1970-01-01T00:25:34Z</time>
      </trkpt>
      <trkpt lat="41.625603" lon="2.381810">
        <ele>193.000000</ele>
        <time>1970-01-01T00:25:35Z</time>
      </trkpt>
      <trkpt lat="41.625581" lon="2.381767">
        <ele>193.000000</ele>
        <time>1970-01-01T00:25:36Z</time>
      </trkpt>
      <trkpt lat="41.625565" lon="2.381728">
        <ele>193.600000</ele>
        <time>1970-01-01T00:25:37Z</time>
      </trkpt>
      <trkpt lat="41.625552" lon="2.381695">
        <ele>193.600000</ele>
        <time>1970-01-01T00:25:38Z</time>
      </trkpt>
      <trkpt lat="41.625546" lon="2.381652">
        <ele>194.200000</ele>
        <time>1970-01-01T00:25:39Z</time>
      </trkpt>
      <trkpt lat="41.625546" lon="2.381607">
        <ele>194.400000</ele>
        <time>1970-01-01T00:25:40Z</time>
      </trkpt>
      <trkpt lat="41.625546" lon="2.381572">
        <ele>194.800000</ele>
        <time>1970-01-01T00:25:41Z</time>
      </trkpt>
      <trkpt lat="41.625549" lon="2.381530">
        <ele>194.800000</ele>
        <time>1970-01-01T00:25:42Z</time>
      </trkpt>
      <trkpt lat="41.625549" lon="2.381483">
        <ele>195.000000</ele>
        <time>1970-01-01T00:25:43Z</time>
      </trkpt>
      <trkpt lat="41.625549" lon="2.381437">
        <ele>195.600000</ele>
        <time>1970-01-01T00:25:44Z</time>
      </trkpt>
      <trkpt lat="41.625552" lon="2.381392">
        <ele>195.600000</ele>
        <time>1970-01-01T00:25:45Z</time>
      </trkpt>
      <trkpt lat="41.625552" lon="2.381345">
        <ele>196.200000</ele>
        <time>1970-01-01T00:25:46Z</time>
      </trkpt>
      <trkpt lat="41.625549" lon="2.381303">
        <ele>196.400000</ele>
        <time>1970-01-01T00:25:47Z</time>
      </trkpt>
      <trkpt lat="41.625549" lon="2.381267">
        <ele>196.800000</ele>
        <time>1970-01-01T00:25:48Z</time>
      </trkpt>
      <trkpt lat="41.625546" lon="2.381228">
        <ele>196.800000</ele>
        <time>1970-01-01T00:25:49Z</time>
      </trkpt>
      <trkpt lat="41.625542" lon="2.381188">
        <ele>197.400000</ele>
        <time>1970-01-01T00:25:50Z</time>
      </trkpt>
      <trkpt lat="41.625542" lon="2.381150">
        <ele>197.400000</ele>
        <time>1970-01-01T00:25:51Z</time>
      </trkpt>
      <trkpt lat="41.625542" lon="2.381110">
        <ele>197.800000</ele>
        <time>1970-01-01T00:25:52Z</time>
      </trkpt>
      <trkpt lat="41.625533" lon="2.381068">
        <ele>198.000000</ele>
        <time>1970-01-01T00:25:53Z</time>
      </trkpt>
      <trkpt lat="41.625526" lon="2.381025">
        <ele>198.400000</ele>
        <time>1970-01-01T00:25:54Z</time>
      </trkpt>
      <trkpt lat="41.625526" lon="2.380980">
        <ele>198.600000</ele>
        <time>1970-01-01T00:25:55Z</time>
      </trkpt>
      <trkpt lat="41.625520" lon="2.380940">
        <ele>199.000000</ele>
        <time>1970-01-01T00:25:56Z</time>
      </trkpt>
      <trkpt lat="41.625510" lon="2.380900">
        <ele>199.200000</ele>
        <time>1970-01-01T00:25:57Z</time>
      </trkpt>
      <trkpt lat="41.625504" lon="2.380860">
        <ele>199.200000</ele>
        <time>1970-01-01T00:25:58Z</time>
      </trkpt>
      <trkpt lat="41.625491" lon="2.380822">
        <ele>199.600000</ele>
        <time>1970-01-01T00:25:59Z</time>
      </trkpt>
      <trkpt lat="41.625472" lon="2.380787">
        <ele>199.800000</ele>
        <time>1970-01-01T00:26:00Z</time>
      </trkpt>
      <trkpt lat="41.625453" lon="2.380750">
        <ele>200.400000</ele>
        <time>1970-01-01T00:26:01Z</time>
      </trkpt>
      <trkpt lat="41.625430" lon="2.380717">
        <ele>200.400000</ele>
        <time>1970-01-01T00:26:02Z</time>
      </trkpt>
      <trkpt lat="41.625408" lon="2.380683">
        <ele>200.800000</ele>
        <time>1970-01-01T00:26:03Z</time>
      </trkpt>
      <trkpt lat="41.625382" lon="2.380652">
        <ele>201.000000</ele>
        <time>1970-01-01T00:26:04Z</time>
      </trkpt>
      <trkpt lat="41.625360" lon="2.380623">
        <ele>201.400000</ele>
        <time>1970-01-01T00:26:05Z</time>
      </trkpt>
      <trkpt lat="41.625331" lon="2.380595">
        <ele>201.800000</ele>
        <time>1970-01-01T00:26:06Z</time>
      </trkpt>
      <trkpt lat="41.625306" lon="2.380567">
        <ele>202.000000</ele>
        <time>1970-01-01T00:26:07Z</time>
      </trkpt>
      <trkpt lat="41.625280" lon="2.380537">
        <ele>202.400000</ele>
        <time>1970-01-01T00:26:08Z</time>
      </trkpt>
      <trkpt lat="41.625251" lon="2.380510">
        <ele>202.600000</ele>
        <time>1970-01-01T00:26:09Z</time>
      </trkpt>
      <trkpt lat="41.625226" lon="2.380483">
        <ele>203.000000</ele>
        <time>1970-01-01T00:26:10Z</time>
      </trkpt>
      <trkpt lat="41.625194" lon="2.380458">
        <ele>203.200000</ele>
        <time>1970-01-01T00:26:11Z</time>
      </trkpt>
      <trkpt lat="41.625165" lon="2.380437">
        <ele>203.600000</ele>
        <time>1970-01-01T00:26:12Z</time>
      </trkpt>
      <trkpt lat="41.625133" lon="2.380417">
        <ele>204.000000</ele>
        <time>1970-01-01T00:26:13Z</time>
      </trkpt>
      <trkpt lat="41.625104" lon="2.380402">
        <ele>204.200000</ele>
        <time>1970-01-01T00:26:14Z</time>
      </trkpt>
      <trkpt lat="41.625082" lon="2.380383">
        <ele>204.600000</ele>
        <time>1970-01-01T00:26:15Z</time>
      </trkpt>
      <trkpt lat="41.625050" lon="2.380358">
        <ele>204.800000</ele>
        <time>1970-01-01T00:26:16Z</time>
      </trkpt>
      <trkpt lat="41.625014" lon="2.380338">
        <ele>205.400000</ele>
        <time>1970-01-01T00:26:17Z</time>
      </trkpt>
      <trkpt lat="41.624982" lon="2.380317">
        <ele>205.600000</ele>
        <time>1970-01-01T00:26:18Z</time>
      </trkpt>
      <trkpt lat="41.624947" lon="2.380295">
        <ele>205.600000</ele>
        <time>1970-01-01T00:26:19Z</time>
      </trkpt>
      <trkpt lat="41.624918" lon="2.380268">
        <ele>206.000000</ele>
        <time>1970-01-01T00:26:20Z</time>
      </trkpt>
      <trkpt lat="41.624893" lon="2.380240">
        <ele>206.200000</ele>
        <time>1970-01-01T00:26:21Z</time>
      </trkpt>
      <trkpt lat="41.624867" lon="2.380212">
        <ele>206.800000</ele>
        <time>1970-01-01T00:26:22Z</time>
      </trkpt>
      <trkpt lat="41.624838" lon="2.380185">
        <ele>206.800000</ele>
        <time>1970-01-01T00:26:23Z</time>
      </trkpt>
      <trkpt lat="41.624819" lon="2.380155">
        <ele>207.400000</ele>
        <time>1970-01-01T00:26:24Z</time>
      </trkpt>
      <trkpt lat="41.624797" lon="2.380120">
        <ele>207.400000</ele>
        <time>1970-01-01T00:26:25Z</time>
      </trkpt>
      <trkpt lat="41.624774" lon="2.380087">
        <ele>207.800000</ele>
        <time>1970-01-01T00:26:26Z</time>
      </trkpt>
      <trkpt lat="41.624752" lon="2.380052">
        <ele>207.800000</ele>
        <time>1970-01-01T00:26:27Z</time>
      </trkpt>
      <trkpt lat="41.624733" lon="2.380015">
        <ele>208.200000</ele>
        <time>1970-01-01T00:26:28Z</time>
      </trkpt>
      <trkpt lat="41.624710" lon="2.379975">
        <ele>208.400000</ele>
        <time>1970-01-01T00:26:29Z</time>
      </trkpt>
      <trkpt lat="41.624688" lon="2.379930">
        <ele>209.000000</ele>
        <time>1970-01-01T00:26:30Z</time>
      </trkpt>
      <trkpt lat="41.624672" lon="2.379890">
        <ele>209.400000</ele>
        <time>1970-01-01T00:26:31Z</time>
      </trkpt>
      <trkpt lat="41.624656" lon="2.379850">
        <ele>210.000000</ele>
        <time>1970-01-01T00:26:32Z</time>
      </trkpt>
      <trkpt lat="41.624640" lon="2.379807">
        <ele>210.200000</ele>
        <time>1970-01-01T00:26:33Z</time>
      </trkpt>
      <trkpt lat="41.624634" lon="2.379762">
        <ele>210.600000</ele>
        <time>1970-01-01T00:26:34Z</time>
      </trkpt>
      <trkpt lat="41.624627" lon="2.379715">
        <ele>210.800000</ele>
        <time>1970-01-01T00:26:35Z</time>
      </trkpt>
      <trkpt lat="41.624611" lon="2.379670">
        <ele>211.400000</ele>
        <time>1970-01-01T00:26:36Z</time>
      </trkpt>
      <trkpt lat="41.624595" lon="2.379627">
        <ele>211.600000</ele>
        <time>1970-01-01T00:26:37Z</time>
      </trkpt>
      <trkpt lat="41.624586" lon="2.379583">
        <ele>212.000000</ele>
        <time>1970-01-01T00:26:38Z</time>
      </trkpt>
      <trkpt lat="41.625934" lon="2.382062">
        <ele>194.800000</ele>
        <time>2021-01-28T16:21:04Z</time>
      </trkpt>
      <trkpt lat="41.625837" lon="2.381983">
        <ele>195.200000</ele>
        <time>2021-01-28T16:21:50Z</time>
      </trkpt>
      <trkpt lat="41.625821" lon="2.381977">
        <ele>195.200000</ele>
        <time>2021-01-28T16:21:51Z</time>
      </trkpt>
      <trkpt lat="41.625802" lon="2.381971">
        <ele>195.300000</ele>
        <time>2021-01-28T16:21:52Z</time>
      </trkpt>
      <trkpt lat="41.625712" lon="2.381943">
        <ele>195.600000</ele>
        <time>2021-01-28T16:21:56Z</time>
      </trkpt>
      <trkpt lat="41.625688" lon="2.381931">
        <ele>195.700000</ele>
        <time>2021-01-28T16:21:57Z</time>
      </trkpt>
      <trkpt lat="41.625621" lon="2.381878">
        <ele>196.000000</ele>
        <time>2021-01-28T16:22:00Z</time>
      </trkpt>
      <trkpt lat="41.625571" lon="2.381805">
        <ele>196.400000</ele>
        <time>2021-01-28T16:22:03Z</time>
      </trkpt>
      <trkpt lat="41.625553" lon="2.381779">
        <ele>196.500000</ele>
        <time>2021-01-28T16:22:04Z</time>
      </trkpt>
      <trkpt lat="41.625526" lon="2.381689">
        <ele>197.000000</ele>
        <time>2021-01-28T16:22:07Z</time>
      </trkpt>
      <trkpt lat="41.625503" lon="2.381628">
        <ele>197.300000</ele>
        <time>2021-01-28T16:22:09Z</time>
      </trkpt>
      <trkpt lat="41.625507" lon="2.381499">
        <ele>197.900000</ele>
        <time>2021-01-28T16:22:13Z</time>
      </trkpt>
      <trkpt lat="41.625507" lon="2.381470">
        <ele>198.100000</ele>
        <time>2021-01-28T16:22:14Z</time>
      </trkpt>
      <trkpt lat="41.625526" lon="2.381276">
        <ele>199.200000</ele>
        <time>2021-01-28T16:22:20Z</time>
      </trkpt>
      <trkpt lat="41.625525" lon="2.381246">
        <ele>199.400000</ele>
        <time>2021-01-28T16:22:21Z</time>
      </trkpt>
      <trkpt lat="41.625511" lon="2.381169">
        <ele>199.800000</ele>
        <time>2021-01-28T16:22:24Z</time>
      </trkpt>
      <trkpt lat="41.625499" lon="2.381110">
        <ele>200.200000</ele>
        <time>2021-01-28T16:22:26Z</time>
      </trkpt>
      <trkpt lat="41.625502" lon="2.381009">
        <ele>200.800000</ele>
        <time>2021-01-28T16:22:29Z</time>
      </trkpt>
      <trkpt lat="41.625482" lon="2.380928">
        <ele>201.400000</ele>
        <time>2021-01-28T16:22:32Z</time>
      </trkpt>
      <trkpt lat="41.625456" lon="2.380876">
        <ele>201.700000</ele>
        <time>2021-01-28T16:22:34Z</time>
      </trkpt>
      <trkpt lat="41.625443" lon="2.380823">
        <ele>202.100000</ele>
        <time>2021-01-28T16:22:36Z</time>
      </trkpt>
      <trkpt lat="41.625371" lon="2.380671">
        <ele>203.200000</ele>
        <time>2021-01-28T16:22:42Z</time>
      </trkpt>
      <trkpt lat="41.625311" lon="2.380584">
        <ele>203.900000</ele>
        <time>2021-01-28T16:22:46Z</time>
      </trkpt>
      <trkpt lat="41.625300" lon="2.380559">
        <ele>204.100000</ele>
        <time>2021-01-28T16:22:47Z</time>
      </trkpt>
      <trkpt lat="41.625280" lon="2.380542">
        <ele>204.300000</ele>
        <time>2021-01-28T16:22:48Z</time>
      </trkpt>
      <trkpt lat="41.625228" lon="2.380497">
        <ele>204.800000</ele>
        <time>2021-01-28T16:22:51Z</time>
      </trkpt>
      <trkpt lat="41.625077" lon="2.380386">
        <ele>206.300000</ele>
        <time>2021-01-28T16:22:59Z</time>
      </trkpt>
      <trkpt lat="41.624946" lon="2.380322">
        <ele>207.500000</ele>
        <time>2021-01-28T16:23:05Z</time>
      </trkpt>
      <trkpt lat="41.624903" lon="2.380308">
        <ele>207.900000</ele>
        <time>2021-01-28T16:23:07Z</time>
      </trkpt>
      <trkpt lat="41.624865" lon="2.380282">
        <ele>208.300000</ele>
        <time>2021-01-28T16:23:09Z</time>
      </trkpt>
      <trkpt lat="41.624812" lon="2.380233">
        <ele>208.900000</ele>
        <time>2021-01-28T16:23:12Z</time>
      </trkpt>
      <trkpt lat="41.624783" lon="2.380199">
        <ele>209.200000</ele>
        <time>2021-01-28T16:23:14Z</time>
      </trkpt>
      <trkpt lat="41.624778" lon="2.380181">
        <ele>209.300000</ele>
        <time>2021-01-28T16:23:15Z</time>
      </trkpt>
      <trkpt lat="41.624698" lon="2.380037">
        <ele>210.400000</ele>
        <time>2021-01-28T16:23:30Z</time>
      </trkpt>
      <trkpt lat="41.624689" lon="2.380020">
        <ele>210.600000</ele>
        <time>2021-01-28T16:23:31Z</time>
      </trkpt>
      <trkpt lat="41.624674" lon="2.379866">
        <ele>211.300000</ele>
        <time>2021-01-28T16:23:37Z</time>
      </trkpt>
      <trkpt lat="41.624655" lon="2.379702">
        <ele>212.300000</ele>
        <time>2021-01-28T16:23:42Z</time>
      </trkpt>
      <trkpt lat="41.624635" lon="2.379520">
        <ele>212.800000</ele>
        <time>2021-01-28T16:23:48Z</time>
      </trkpt>
      <trkpt lat="41.624598" lon="2.379383">
        <ele>213.100000</ele>
        <time>2021-01-28T16:23:52Z</time>
      </trkpt>
      <trkpt lat="41.624497" lon="2.379229">
        <ele>213.200000</ele>
        <time>2021-01-28T16:23:58Z</time>
      </trkpt>
      <trkpt lat="41.624358" lon="2.379072">
        <ele>212.400000</ele>
        <time>2021-01-28T16:24:04Z</time>
      </trkpt>
      <trkpt lat="41.624227" lon="2.378922">
        <ele>208.000000</ele>
        <time>2021-01-28T16:24:10Z</time>
      </trkpt>
      <trkpt lat="41.624232" lon="2.378896">
        <ele>207.500000</ele>
        <time>2021-01-28T16:24:11Z</time>
      </trkpt>
      <trkpt lat="41.624342" lon="2.378852">
        <ele>204.600000</ele>
        <time>2021-01-28T16:24:15Z</time>
      </trkpt>
      <trkpt lat="41.624540" lon="2.378779">
        <ele>200.300000</ele>
        <time>2021-01-28T16:24:21Z</time>
      </trkpt>
      <trkpt lat="41.624568" lon="2.378764">
        <ele>199.800000</ele>
        <time>2021-01-28T16:24:22Z</time>
      </trkpt>
      <trkpt lat="41.624737" lon="2.378678">
        <ele>196.200000</ele>
        <time>2021-01-28T16:24:28Z</time>
      </trkpt>
      <trkpt lat="41.624765" lon="2.378668">
        <ele>195.700000</ele>
        <time>2021-01-28T16:24:29Z</time>
      </trkpt>
      <trkpt lat="41.624921" lon="2.378631">
        <ele>192.700000</ele>
        <time>2021-01-28T16:24:35Z</time>
      </trkpt>
      <trkpt lat="41.624898" lon="2.378575">
        <ele>191.600000</ele>
        <time>2021-01-28T16:24:38Z</time>
      </trkpt>
      <trkpt lat="41.624822" lon="2.378404">
        <ele>189.100000</ele>
        <time>2021-01-28T16:24:43Z</time>
      </trkpt>
      <trkpt lat="41.624717" lon="2.378290">
        <ele>188.100000</ele>
        <time>2021-01-28T16:24:47Z</time>
      </trkpt>
      <trkpt lat="41.624628" lon="2.378148">
        <ele>188.400000</ele>
        <time>2021-01-28T16:24:52Z</time>
      </trkpt>
      <trkpt lat="41.624568" lon="2.378060">
        <ele>189.400000</ele>
        <time>2021-01-28T16:24:56Z</time>
      </trkpt>
      <trkpt lat="41.624556" lon="2.378038">
        <ele>189.700000</ele>
        <time>2021-01-28T16:24:57Z</time>
      </trkpt>
      <trkpt lat="41.624457" lon="2.377965">
        <ele>192.000000</ele>
        <time>2021-01-28T16:25:02Z</time>
      </trkpt>
      <trkpt lat="41.624422" lon="2.377956">
        <ele>192.800000</ele>
        <time>2021-01-28T16:25:04Z</time>
      </trkpt>
      <trkpt lat="41.624388" lon="2.377968">
        <ele>193.400000</ele>
        <time>2021-01-28T16:25:06Z</time>
      </trkpt>
      <trkpt lat="41.624378" lon="2.377975">
        <ele>193.700000</ele>
        <time>2021-01-28T16:25:07Z</time>
      </trkpt>
      <trkpt lat="41.624319" lon="2.377996">
        <ele>194.900000</ele>
        <time>2021-01-28T16:25:12Z</time>
      </trkpt>
      <trkpt lat="41.624275" lon="2.377995">
        <ele>195.200000</ele>
        <time>2021-01-28T16:25:14Z</time>
      </trkpt>
      <trkpt lat="41.624243" lon="2.377976">
        <ele>195.200000</ele>
        <time>2021-01-28T16:25:16Z</time>
      </trkpt>
      <trkpt lat="41.624219" lon="2.377878">
        <ele>195.200000</ele>
        <time>2021-01-28T16:25:20Z</time>
      </trkpt>
      <trkpt lat="41.624218" lon="2.377741">
        <ele>194.900000</ele>
        <time>2021-01-28T16:25:26Z</time>
      </trkpt>
      <trkpt lat="41.624228" lon="2.377610">
        <ele>194.400000</ele>
        <time>2021-01-28T16:25:31Z</time>
      </trkpt>
      <trkpt lat="41.624241" lon="2.377550">
        <ele>193.900000</ele>
        <time>2021-01-28T16:25:33Z</time>
      </trkpt>
      <trkpt lat="41.624270" lon="2.377437">
        <ele>193.000000</ele>
        <time>2021-01-28T16:25:36Z</time>
      </trkpt>
      <trkpt lat="41.624267" lon="2.377343">
        <ele>192.100000</ele>
        <time>2021-01-28T16:25:39Z</time>
      </trkpt>
      <trkpt lat="41.624261" lon="2.377116">
        <ele>190.000000</ele>
        <time>2021-01-28T16:25:45Z</time>
      </trkpt>
      <trkpt lat="41.624199" lon="2.376896">
        <ele>187.400000</ele>
        <time>2021-01-28T16:25:51Z</time>
      </trkpt>
      <trkpt lat="41.624123" lon="2.376671">
        <ele>186.600000</ele>
        <time>2021-01-28T16:25:57Z</time>
      </trkpt>
      <trkpt lat="41.624031" lon="2.376559">
        <ele>187.200000</ele>
        <time>2021-01-28T16:26:02Z</time>
      </trkpt>
      <trkpt lat="41.624012" lon="2.376543">
        <ele>187.300000</ele>
        <time>2021-01-28T16:26:03Z</time>
      </trkpt>
      <trkpt lat="41.623947" lon="2.376456">
        <ele>188.000000</ele>
        <time>2021-01-28T16:26:07Z</time>
      </trkpt>
      <trkpt lat="41.623935" lon="2.376430">
        <ele>188.400000</ele>
        <time>2021-01-28T16:26:08Z</time>
      </trkpt>
      <trkpt lat="41.623808" lon="2.376298">
        <ele>190.300000</ele>
        <time>2021-01-28T16:26:15Z</time>
      </trkpt>
      <trkpt lat="41.623696" lon="2.376195">
        <ele>191.400000</ele>
        <time>2021-01-28T16:26:21Z</time>
      </trkpt>
      <trkpt lat="41.623621" lon="2.376107">
        <ele>193.000000</ele>
        <time>2021-01-28T16:26:25Z</time>
      </trkpt>
      <trkpt lat="41.623599" lon="2.376068">
        <ele>192.600000</ele>
        <time>2021-01-28T16:26:27Z</time>
      </trkpt>
      <trkpt lat="41.623588" lon="2.376026">
        <ele>192.900000</ele>
        <time>2021-01-28T16:26:30Z</time>
      </trkpt>
      <trkpt lat="41.623577" lon="2.376012">
        <ele>192.900000</ele>
        <time>2021-01-28T16:26:31Z</time>
      </trkpt>
      <trkpt lat="41.623507" lon="2.375882">
        <ele>193.100000</ele>
        <time>2021-01-28T16:26:36Z</time>
      </trkpt>
      <trkpt lat="41.623459" lon="2.375770">
        <ele>193.300000</ele>
        <time>2021-01-28T16:26:40Z</time>
      </trkpt>
      <trkpt lat="41.623443" lon="2.375758">
        <ele>193.400000</ele>
        <time>2021-01-28T16:26:41Z</time>
      </trkpt>
      <trkpt lat="41.623430" lon="2.375750">
        <ele>193.600000</ele>
        <time>2021-01-28T16:26:43Z</time>
      </trkpt>
      <trkpt lat="41.623436" lon="2.375750">
        <ele>193.000000</ele>
        <time>2021-01-28T16:26:44Z</time>
      </trkpt>
      <trkpt lat="41.623445" lon="2.375759">
        <ele>193.400000</ele>
        <time>2021-01-28T16:26:50Z</time>
      </trkpt>
      <trkpt lat="41.623439" lon="2.375749">
        <ele>193.000000</ele>
        <time>2021-01-28T16:26:53Z</time>
      </trkpt>
      <trkpt lat="41.623372" lon="2.375685">
        <ele>193.900000</ele>
        <time>2021-01-28T16:26:57Z</time>
      </trkpt>
      <trkpt lat="41.623356" lon="2.375662">
        <ele>194.100000</ele>
        <time>2021-01-28T16:26:58Z</time>
      </trkpt>
      <trkpt lat="41.623287" lon="2.375567">
        <ele>194.500000</ele>
        <time>2021-01-28T16:27:02Z</time>
      </trkpt>
      <trkpt lat="41.623199" lon="2.375437">
        <ele>194.700000</ele>
        <time>2021-01-28T16:27:07Z</time>
      </trkpt>
      <trkpt lat="41.623143" lon="2.375271">
        <ele>192.800000</ele>
        <time>2021-01-28T16:27:12Z</time>
      </trkpt>
      <trkpt lat="41.623043" lon="2.375173">
        <ele>193.100000</ele>
        <time>2021-01-28T16:27:17Z</time>
      </trkpt>
      <trkpt lat="41.622996" lon="2.375134">
        <ele>192.900000</ele>
        <time>2021-01-28T16:27:19Z</time>
      </trkpt>
      <trkpt lat="41.622935" lon="2.375106">
        <ele>192.900000</ele>
        <time>2021-01-28T16:27:22Z</time>
      </trkpt>
      <trkpt lat="41.622920" lon="2.375091">
        <ele>192.900000</ele>
        <time>2021-01-28T16:27:23Z</time>
      </trkpt>
      <trkpt lat="41.622930" lon="2.374989">
        <ele>191.600000</ele>
        <time>2021-01-28T16:27:32Z</time>
      </trkpt>
      <trkpt lat="41.622924" lon="2.374984">
        <ele>191.600000</ele>
        <time>2021-01-28T16:27:33Z</time>
      </trkpt>
      <trkpt lat="41.622868" lon="2.374919">
        <ele>190.800000</ele>
        <time>2021-01-28T16:27:37Z</time>
      </trkpt>
      <trkpt lat="41.622923" lon="2.374963">
        <ele>191.600000</ele>
        <time>2021-01-28T16:29:18Z</time>
      </trkpt>
      <trkpt lat="41.622932" lon="2.374954">
        <ele>191.600000</ele>
        <time>2021-01-28T16:29:19Z</time>
      </trkpt>
      <trkpt lat="41.622988" lon="2.374850">
        <ele>189.800000</ele>
        <time>2021-01-28T16:29:23Z</time>
      </trkpt>
      <trkpt lat="41.623018" lon="2.374758">
        <ele>187.900000</ele>
        <time>2021-01-28T16:29:28Z</time>
      </trkpt>
      <trkpt lat="41.623023" lon="2.374734">
        <ele>187.900000</ele>
        <time>2021-01-28T16:29:29Z</time>
      </trkpt>
      <trkpt lat="41.623051" lon="2.374646">
        <ele>186.600000</ele>
        <time>2021-01-28T16:29:32Z</time>
      </trkpt>
      <trkpt lat="41.623088" lon="2.374572">
        <ele>185.400000</ele>
        <time>2021-01-28T16:29:35Z</time>
      </trkpt>
      <trkpt lat="41.623076" lon="2.374553">
        <ele>185.000000</ele>
        <time>2021-01-28T16:29:37Z</time>
      </trkpt>
      <trkpt lat="41.623002" lon="2.374500">
        <ele>183.400000</ele>
        <time>2021-01-28T16:29:42Z</time>
      </trkpt>
      <trkpt lat="41.622948" lon="2.374322">
        <ele>180.400000</ele>
        <time>2021-01-28T16:29:48Z</time>
      </trkpt>
      <trkpt lat="41.622943" lon="2.374146">
        <ele>177.700000</ele>
        <time>2021-01-28T16:29:53Z</time>
      </trkpt>
      <trkpt lat="41.622951" lon="2.374093">
        <ele>177.000000</ele>
        <time>2021-01-28T16:29:55Z</time>
      </trkpt>
      <trkpt lat="41.623002" lon="2.373959">
        <ele>175.100000</ele>
        <time>2021-01-28T16:30:00Z</time>
      </trkpt>
      <trkpt lat="41.622994" lon="2.373922">
        <ele>174.700000</ele>
        <time>2021-01-28T16:30:01Z</time>
      </trkpt>
      <trkpt lat="41.622946" lon="2.373822">
        <ele>173.300000</ele>
        <time>2021-01-28T16:30:04Z</time>
      </trkpt>
      <trkpt lat="41.622917" lon="2.373734">
        <ele>172.300000</ele>
        <time>2021-01-28T16:30:07Z</time>
      </trkpt>
      <trkpt lat="41.622896" lon="2.373675">
        <ele>171.700000</ele>
        <time>2021-01-28T16:30:09Z</time>
      </trkpt>
      <trkpt lat="41.622848" lon="2.373452">
        <ele>169.200000</ele>
        <time>2021-01-28T16:30:15Z</time>
      </trkpt>
      <trkpt lat="41.622820" lon="2.373338">
        <ele>167.800000</ele>
        <time>2021-01-28T16:30:19Z</time>
      </trkpt>
      <trkpt lat="41.622816" lon="2.373332">
        <ele>167.700000</ele>
        <time>2021-01-28T16:30:20Z</time>
      </trkpt>
      <trkpt lat="41.622827" lon="2.373234">
        <ele>166.400000</ele>
        <time>2021-01-28T16:30:25Z</time>
      </trkpt>
      <trkpt lat="41.622840" lon="2.373207">
        <ele>166.300000</ele>
        <time>2021-01-28T16:30:26Z</time>
      </trkpt>
      <trkpt lat="41.622904" lon="2.373138">
        <ele>166.000000</ele>
        <time>2021-01-28T16:30:29Z</time>
      </trkpt>
      <trkpt lat="41.623086" lon="2.372986">
        <ele>165.200000</ele>
        <time>2021-01-28T16:30:37Z</time>
      </trkpt>
      <trkpt lat="41.623159" lon="2.372916">
        <ele>164.800000</ele>
        <time>2021-01-28T16:30:41Z</time>
      </trkpt>
      <trkpt lat="41.623172" lon="2.372898">
        <ele>164.700000</ele>
        <time>2021-01-28T16:30:42Z</time>
      </trkpt>
      <trkpt lat="41.623245" lon="2.372780">
        <ele>164.100000</ele>
        <time>2021-01-28T16:30:47Z</time>
      </trkpt>
      <trkpt lat="41.623282" lon="2.372638">
        <ele>163.500000</ele>
        <time>2021-01-28T16:30:52Z</time>
      </trkpt>
      <trkpt lat="41.623269" lon="2.372584">
        <ele>163.300000</ele>
        <time>2021-01-28T16:30:54Z</time>
      </trkpt>
      <trkpt lat="41.623259" lon="2.372555">
        <ele>163.200000</ele>
        <time>2021-01-28T16:30:56Z</time>
      </trkpt>
      <trkpt lat="41.623241" lon="2.372521">
        <ele>162.900000</ele>
        <time>2021-01-28T16:30:59Z</time>
      </trkpt>
      <trkpt lat="41.623238" lon="2.372506">
        <ele>162.900000</ele>
        <time>2021-01-28T16:31:01Z</time>
      </trkpt>
      <trkpt lat="41.623240" lon="2.372506">
        <ele>162.900000</ele>
        <time>2021-01-28T16:31:02Z</time>
      </trkpt>
      <trkpt lat="41.623226" lon="2.372465">
        <ele>162.800000</ele>
        <time>2021-01-28T16:31:24Z</time>
      </trkpt>
      <trkpt lat="41.623215" lon="2.372450">
        <ele>162.700000</ele>
        <time>2021-01-28T16:31:25Z</time>
      </trkpt>
      <trkpt lat="41.623200" lon="2.372441">
        <ele>162.700000</ele>
        <time>2021-01-28T16:31:26Z</time>
      </trkpt>
      <trkpt lat="41.623096" lon="2.372380">
        <ele>162.400000</ele>
        <time>2021-01-28T16:31:33Z</time>
      </trkpt>
      <trkpt lat="41.623046" lon="2.372338">
        <ele>162.300000</ele>
        <time>2021-01-28T16:31:37Z</time>
      </trkpt>
      <trkpt lat="41.622983" lon="2.372206">
        <ele>162.200000</ele>
        <time>2021-01-28T16:31:42Z</time>
      </trkpt>
      <trkpt lat="41.622928" lon="2.372115">
        <ele>162.200000</ele>
        <time>2021-01-28T16:31:45Z</time>
      </trkpt>
      <trkpt lat="41.622914" lon="2.372045">
        <ele>162.400000</ele>
        <time>2021-01-28T16:31:47Z</time>
      </trkpt>
      <trkpt lat="41.622963" lon="2.371930">
        <ele>162.700000</ele>
        <time>2021-01-28T16:31:51Z</time>
      </trkpt>
      <trkpt lat="41.623112" lon="2.371822">
        <ele>163.200000</ele>
        <time>2021-01-28T16:31:57Z</time>
      </trkpt>
      <trkpt lat="41.623245" lon="2.371771">
        <ele>163.300000</ele>
        <time>2021-01-28T16:32:02Z</time>
      </trkpt>
      <trkpt lat="41.623324" lon="2.371729">
        <ele>163.300000</ele>
        <time>2021-01-28T16:32:05Z</time>
      </trkpt>
      <trkpt lat="41.623377" lon="2.371698">
        <ele>163.300000</ele>
        <time>2021-01-28T16:32:07Z</time>
      </trkpt>
      <trkpt lat="41.623512" lon="2.371633">
        <ele>163.100000</ele>
        <time>2021-01-28T16:32:12Z</time>
      </trkpt>
      <trkpt lat="41.623539" lon="2.371620">
        <ele>163.100000</ele>
        <time>2021-01-28T16:32:13Z</time>
      </trkpt>
      <trkpt lat="41.623644" lon="2.371581">
        <ele>163.000000</ele>
        <time>2021-01-28T16:32:17Z</time>
      </trkpt>
      <trkpt lat="41.623721" lon="2.371539">
        <ele>162.800000</ele>
        <time>2021-01-28T16:32:20Z</time>
      </trkpt>
      <trkpt lat="41.623802" lon="2.371497">
        <ele>162.600000</ele>
        <time>2021-01-28T16:32:23Z</time>
      </trkpt>
      <trkpt lat="41.623862" lon="2.371470">
        <ele>162.500000</ele>
        <time>2021-01-28T16:32:25Z</time>
      </trkpt>
      <trkpt lat="41.623923" lon="2.371447">
        <ele>162.400000</ele>
        <time>2021-01-28T16:32:27Z</time>
      </trkpt>
      <trkpt lat="41.623951" lon="2.371438">
        <ele>162.300000</ele>
        <time>2021-01-28T16:32:28Z</time>
      </trkpt>
      <trkpt lat="41.624037" lon="2.371423">
        <ele>162.100000</ele>
        <time>2021-01-28T16:32:31Z</time>
      </trkpt>
      <trkpt lat="41.624144" lon="2.371431">
        <ele>161.700000</ele>
        <time>2021-01-28T16:32:35Z</time>
      </trkpt>
      <trkpt lat="41.624172" lon="2.371435">
        <ele>161.600000</ele>
        <time>2021-01-28T16:32:36Z</time>
      </trkpt>
      <trkpt lat="41.624328" lon="2.371444">
        <ele>160.900000</ele>
        <time>2021-01-28T16:32:42Z</time>
      </trkpt>
      <trkpt lat="41.624335" lon="2.371450">
        <ele>160.900000</ele>
        <time>2021-01-28T16:32:43Z</time>
      </trkpt>
      <trkpt lat="41.624390" lon="2.371416">
        <ele>160.600000</ele>
        <time>2021-01-28T16:32:48Z</time>
      </trkpt>
      <trkpt lat="41.624484" lon="2.371260">
        <ele>160.100000</ele>
        <time>2021-01-28T16:32:54Z</time>
      </trkpt>
      <trkpt lat="41.624496" lon="2.371010">
        <ele>160.100000</ele>
        <time>2021-01-28T16:33:01Z</time>
      </trkpt>
      <trkpt lat="41.624491" lon="2.370974">
        <ele>160.100000</ele>
        <time>2021-01-28T16:33:02Z</time>
      </trkpt>
      <trkpt lat="41.624451" lon="2.370760">
        <ele>160.400000</ele>
        <time>2021-01-28T16:33:08Z</time>
      </trkpt>
      <trkpt lat="41.624397" lon="2.370574">
        <ele>160.800000</ele>
        <time>2021-01-28T16:33:15Z</time>
      </trkpt>
      <trkpt lat="41.624405" lon="2.370378">
        <ele>161.200000</ele>
        <time>2021-01-28T16:33:21Z</time>
      </trkpt>
      <trkpt lat="41.624406" lon="2.370341">
        <ele>161.200000</ele>
        <time>2021-01-28T16:33:22Z</time>
      </trkpt>
      <trkpt lat="41.624393" lon="2.370172">
        <ele>161.600000</ele>
        <time>2021-01-28T16:33:27Z</time>
      </trkpt>
      <trkpt lat="41.624392" lon="2.370137">
        <ele>161.700000</ele>
        <time>2021-01-28T16:33:28Z</time>
      </trkpt>
      <trkpt lat="41.624378" lon="2.369897">
        <ele>162.200000</ele>
        <time>2021-01-28T16:33:35Z</time>
      </trkpt>
      <trkpt lat="41.624369" lon="2.369821">
        <ele>162.300000</ele>
        <time>2021-01-28T16:33:37Z</time>
      </trkpt>
      <trkpt lat="41.624360" lon="2.369722">
        <ele>162.500000</ele>
        <time>2021-01-28T16:33:40Z</time>
      </trkpt>
      <trkpt lat="41.624300" lon="2.369559">
        <ele>163.000000</ele>
        <time>2021-01-28T16:33:45Z</time>
      </trkpt>
      <trkpt lat="41.624190" lon="2.369404">
        <ele>163.700000</ele>
        <time>2021-01-28T16:33:51Z</time>
      </trkpt>
      <trkpt lat="41.624116" lon="2.369276">
        <ele>164.300000</ele>
        <time>2021-01-28T16:33:56Z</time>
      </trkpt>
      <trkpt lat="41.624094" lon="2.369216">
        <ele>164.500000</ele>
        <time>2021-01-28T16:33:58Z</time>
      </trkpt>
      <trkpt lat="41.624051" lon="2.369137">
        <ele>164.900000</ele>
        <time>2021-01-28T16:34:01Z</time>
      </trkpt>
      <trkpt lat="41.624032" lon="2.369108">
        <ele>165.100000</ele>
        <time>2021-01-28T16:34:02Z</time>
      </trkpt>
      <trkpt lat="41.623963" lon="2.368921">
        <ele>166.100000</ele>
        <time>2021-01-28T16:34:09Z</time>
      </trkpt>
      <trkpt lat="41.623890" lon="2.368732">
        <ele>167.200000</ele>
        <time>2021-01-28T16:34:16Z</time>
      </trkpt>
      <trkpt lat="41.623858" lon="2.368637">
        <ele>167.800000</ele>
        <time>2021-01-28T16:34:22Z</time>
      </trkpt>
      <trkpt lat="41.623826" lon="2.368541">
        <ele>168.400000</ele>
        <time>2021-01-28T16:34:27Z</time>
      </trkpt>
      <trkpt lat="41.623818" lon="2.368511">
        <ele>168.600000</ele>
        <time>2021-01-28T16:34:28Z</time>
      </trkpt>
      <trkpt lat="41.623764" lon="2.368375">
        <ele>169.400000</ele>
        <time>2021-01-28T16:34:33Z</time>
      </trkpt>
      <trkpt lat="41.623759" lon="2.368346">
        <ele>169.500000</ele>
        <time>2021-01-28T16:34:34Z</time>
      </trkpt>
      <trkpt lat="41.623747" lon="2.368190">
        <ele>170.200000</ele>
        <time>2021-01-28T16:34:40Z</time>
      </trkpt>
      <trkpt lat="41.623784" lon="2.368165">
        <ele>170.700000</ele>
        <time>2021-01-28T16:34:42Z</time>
      </trkpt>
      <trkpt lat="41.623823" lon="2.368195">
        <ele>170.700000</ele>
        <time>2021-01-28T16:34:44Z</time>
      </trkpt>
      <trkpt lat="41.623908" lon="2.368292">
        <ele>170.700000</ele>
        <time>2021-01-28T16:34:48Z</time>
      </trkpt>
      <trkpt lat="41.623979" lon="2.368399">
        <ele>170.800000</ele>
        <time>2021-01-28T16:34:52Z</time>
      </trkpt>
      <trkpt lat="41.624138" lon="2.368515">
        <ele>170.800000</ele>
        <time>2021-01-28T16:34:59Z</time>
      </trkpt>
      <trkpt lat="41.624318" lon="2.368498">
        <ele>170.900000</ele>
        <time>2021-01-28T16:35:06Z</time>
      </trkpt>
      <trkpt lat="41.624345" lon="2.368492">
        <ele>170.900000</ele>
        <time>2021-01-28T16:35:07Z</time>
      </trkpt>
      <trkpt lat="41.624532" lon="2.368453">
        <ele>171.000000</ele>
        <time>2021-01-28T16:35:14Z</time>
      </trkpt>
      <trkpt lat="41.624608" lon="2.368435">
        <ele>171.000000</ele>
        <time>2021-01-28T16:35:17Z</time>
      </trkpt>
      <trkpt lat="41.624788" lon="2.368400">
        <ele>170.900000</ele>
        <time>2021-01-28T16:35:23Z</time>
      </trkpt>
      <trkpt lat="41.624839" lon="2.368370">
        <ele>170.800000</ele>
        <time>2021-01-28T16:35:25Z</time>
      </trkpt>
      <trkpt lat="41.625031" lon="2.368308">
        <ele>170.500000</ele>
        <time>2021-01-28T16:35:32Z</time>
      </trkpt>
      <trkpt lat="41.625128" lon="2.368225">
        <ele>170.300000</ele>
        <time>2021-01-28T16:35:37Z</time>
      </trkpt>
      <trkpt lat="41.625132" lon="2.368105">
        <ele>171.600000</ele>
        <time>2021-01-28T16:35:41Z</time>
      </trkpt>
      <trkpt lat="41.625114" lon="2.367923">
        <ele>173.000000</ele>
        <time>2021-01-28T16:35:47Z</time>
      </trkpt>
      <trkpt lat="41.625099" lon="2.367740">
        <ele>174.300000</ele>
        <time>2021-01-28T16:35:53Z</time>
      </trkpt>
      <trkpt lat="41.625080" lon="2.367573">
        <ele>175.600000</ele>
        <time>2021-01-28T16:36:00Z</time>
      </trkpt>
      <trkpt lat="41.625077" lon="2.367503">
        <ele>176.100000</ele>
        <time>2021-01-28T16:36:03Z</time>
      </trkpt>
      <trkpt lat="41.625080" lon="2.367412">
        <ele>176.700000</ele>
        <time>2021-01-28T16:36:06Z</time>
      </trkpt>
      <trkpt lat="41.625102" lon="2.367175">
        <ele>177.800000</ele>
        <time>2021-01-28T16:36:13Z</time>
      </trkpt>
      <trkpt lat="41.625146" lon="2.367051">
        <ele>178.100000</ele>
        <time>2021-01-28T16:36:17Z</time>
      </trkpt>
      <trkpt lat="41.625194" lon="2.366990">
        <ele>178.200000</ele>
        <time>2021-01-28T16:36:19Z</time>
      </trkpt>
      <trkpt lat="41.625314" lon="2.366953">
        <ele>178.300000</ele>
        <time>2021-01-28T16:36:24Z</time>
      </trkpt>
      <trkpt lat="41.625350" lon="2.366945">
        <ele>178.400000</ele>
        <time>2021-01-28T16:36:25Z</time>
      </trkpt>
      <trkpt lat="41.625481" lon="2.366920">
        <ele>178.400000</ele>
        <time>2021-01-28T16:36:30Z</time>
      </trkpt>
      <trkpt lat="41.625569" lon="2.366900">
        <ele>178.500000</ele>
        <time>2021-01-28T16:36:33Z</time>
      </trkpt>
      <trkpt lat="41.625675" lon="2.366883">
        <ele>178.500000</ele>
        <time>2021-01-28T16:36:37Z</time>
      </trkpt>
      <trkpt lat="41.625788" lon="2.366902">
        <ele>178.600000</ele>
        <time>2021-01-28T16:36:41Z</time>
      </trkpt>
      <trkpt lat="41.625945" lon="2.366874">
        <ele>178.800000</ele>
        <time>2021-01-28T16:36:47Z</time>
      </trkpt>
      <trkpt lat="41.626145" lon="2.366848">
        <ele>178.900000</ele>
        <time>2021-01-28T16:36:54Z</time>
      </trkpt>
      <trkpt lat="41.626201" lon="2.366845">
        <ele>178.900000</ele>
        <time>2021-01-28T16:36:56Z</time>
      </trkpt>
      <trkpt lat="41.626376" lon="2.366849">
        <ele>178.800000</ele>
        <time>2021-01-28T16:37:02Z</time>
      </trkpt>
      <trkpt lat="41.626406" lon="2.366853">
        <ele>178.800000</ele>
        <time>2021-01-28T16:37:03Z</time>
      </trkpt>
      <trkpt lat="41.626467" lon="2.366851">
        <ele>178.800000</ele>
        <time>2021-01-28T16:37:05Z</time>
      </trkpt>
      <trkpt lat="41.626528" lon="2.366851">
        <ele>178.700000</ele>
        <time>2021-01-28T16:37:07Z</time>
      </trkpt>
      <trkpt lat="41.626610" lon="2.366852">
        <ele>178.700000</ele>
        <time>2021-01-28T16:37:10Z</time>
      </trkpt>
      <trkpt lat="41.626694" lon="2.366848">
        <ele>178.700000</ele>
        <time>2021-01-28T16:37:13Z</time>
      </trkpt>
      <trkpt lat="41.626867" lon="2.366826">
        <ele>178.800000</ele>
        <time>2021-01-28T16:37:19Z</time>
      </trkpt>
    </trkseg>
  </trk>
</gpx>
